<?xml version="1.0" encoding="UTF-8" standalone="no" ?>
<gpx xmlns="http://www.topografix.com/GPX/1/1" xmlns:xsi="http://www.w3.org/2001/XMLSchema-instance" xsi:schemaLocation="http://www.topografix.com/GPX/1/1 http://www.topografix.com/GPX/1/1/gpx.xsd" version="1.1" creator="VisuGPX - https://www.visugpx.com">
  <metadata>
    <name>CDS j9</name>
    <desc><![CDATA[Chemin du soleil]]></desc>
  </metadata>
  <trk>
    <name><![CDATA[ACTIVE LOG072252]]></name>
    <trkseg>
      <trkpt lat="44.19591" lon="5.94653">
        <ele>471</ele>
        <time>2011-08-17T05:22:51Z</time>
      </trkpt>
      <trkpt lat="44.19591" lon="5.94653">
        <ele>471</ele>
        <time>2011-08-17T05:23:15Z</time>
      </trkpt>
      <trkpt lat="44.19596" lon="5.94657">
        <ele>471</ele>
        <time>2011-08-17T05:23:19Z</time>
      </trkpt>
      <trkpt lat="44.19639" lon="5.94653">
        <ele>469</ele>
        <time>2011-08-17T05:23:32Z</time>
      </trkpt>
      <trkpt lat="44.1965" lon="5.94644">
        <ele>469</ele>
        <time>2011-08-17T05:23:36Z</time>
      </trkpt>
      <trkpt lat="44.19659" lon="5.94643">
        <ele>468</ele>
        <time>2011-08-17T05:23:40Z</time>
      </trkpt>
      <trkpt lat="44.19691" lon="5.94665">
        <ele>466</ele>
        <time>2011-08-17T05:23:52Z</time>
      </trkpt>
      <trkpt lat="44.19753" lon="5.94634">
        <ele>467</ele>
        <time>2011-08-17T05:24:09Z</time>
      </trkpt>
      <trkpt lat="44.1981" lon="5.94599">
        <ele>469</ele>
        <time>2011-08-17T05:24:26Z</time>
      </trkpt>
      <trkpt lat="44.19847" lon="5.94583">
        <ele>474</ele>
        <time>2011-08-17T05:24:37Z</time>
      </trkpt>
      <trkpt lat="44.19847" lon="5.94574">
        <ele>475</ele>
        <time>2011-08-17T05:24:46Z</time>
      </trkpt>
      <trkpt lat="44.19845" lon="5.94568">
        <ele>476</ele>
        <time>2011-08-17T05:25:04Z</time>
      </trkpt>
      <trkpt lat="44.19845" lon="5.94562">
        <ele>477</ele>
        <time>2011-08-17T05:25:16Z</time>
      </trkpt>
      <trkpt lat="44.19847" lon="5.94558">
        <ele>478</ele>
        <time>2011-08-17T05:25:29Z</time>
      </trkpt>
      <trkpt lat="44.19872" lon="5.94539">
        <ele>482</ele>
        <time>2011-08-17T05:25:42Z</time>
      </trkpt>
      <trkpt lat="44.19924" lon="5.94537">
        <ele>479</ele>
        <time>2011-08-17T05:25:59Z</time>
      </trkpt>
      <trkpt lat="44.19941" lon="5.94539">
        <ele>478</ele>
        <time>2011-08-17T05:26:05Z</time>
      </trkpt>
      <trkpt lat="44.19948" lon="5.94555">
        <ele>476</ele>
        <time>2011-08-17T05:26:10Z</time>
      </trkpt>
      <trkpt lat="44.19958" lon="5.94608">
        <ele>476</ele>
        <time>2011-08-17T05:26:22Z</time>
      </trkpt>
      <trkpt lat="44.1995" lon="5.9462">
        <ele>476</ele>
        <time>2011-08-17T05:26:27Z</time>
      </trkpt>
      <trkpt lat="44.19922" lon="5.94667">
        <ele>476</ele>
        <time>2011-08-17T05:26:45Z</time>
      </trkpt>
      <trkpt lat="44.19884" lon="5.94728">
        <ele>482</ele>
        <time>2011-08-17T05:27:02Z</time>
      </trkpt>
      <trkpt lat="44.19849" lon="5.94795">
        <ele>494</ele>
        <time>2011-08-17T05:27:18Z</time>
      </trkpt>
      <trkpt lat="44.19843" lon="5.94816">
        <ele>493</ele>
        <time>2011-08-17T05:27:24Z</time>
      </trkpt>
      <trkpt lat="44.19843" lon="5.94824">
        <ele>491</ele>
        <time>2011-08-17T05:27:27Z</time>
      </trkpt>
      <trkpt lat="44.19815" lon="5.94868">
        <ele>488</ele>
        <time>2011-08-17T05:27:44Z</time>
      </trkpt>
      <trkpt lat="44.1979" lon="5.94919">
        <ele>502</ele>
        <time>2011-08-17T05:28:02Z</time>
      </trkpt>
      <trkpt lat="44.19768" lon="5.94965">
        <ele>502</ele>
        <time>2011-08-17T05:28:19Z</time>
      </trkpt>
      <trkpt lat="44.19746" lon="5.95013">
        <ele>491</ele>
        <time>2011-08-17T05:28:36Z</time>
      </trkpt>
      <trkpt lat="44.19727" lon="5.95069">
        <ele>497</ele>
        <time>2011-08-17T05:28:54Z</time>
      </trkpt>
      <trkpt lat="44.19724" lon="5.95075">
        <ele>497</ele>
        <time>2011-08-17T05:28:57Z</time>
      </trkpt>
      <trkpt lat="44.19686" lon="5.9512">
        <ele>508</ele>
        <time>2011-08-17T05:29:19Z</time>
      </trkpt>
      <trkpt lat="44.19656" lon="5.95158">
        <ele>501</ele>
        <time>2011-08-17T05:29:38Z</time>
      </trkpt>
      <trkpt lat="44.19628" lon="5.95199">
        <ele>510</ele>
        <time>2011-08-17T05:29:56Z</time>
      </trkpt>
      <trkpt lat="44.19601" lon="5.95238">
        <ele>511</ele>
        <time>2011-08-17T05:30:13Z</time>
      </trkpt>
      <trkpt lat="44.19586" lon="5.95279">
        <ele>525</ele>
        <time>2011-08-17T05:30:29Z</time>
      </trkpt>
      <trkpt lat="44.19574" lon="5.95316">
        <ele>516</ele>
        <time>2011-08-17T05:30:43Z</time>
      </trkpt>
      <trkpt lat="44.19567" lon="5.95328">
        <ele>517</ele>
        <time>2011-08-17T05:30:48Z</time>
      </trkpt>
      <trkpt lat="44.19563" lon="5.95338">
        <ele>526</ele>
        <time>2011-08-17T05:30:52Z</time>
      </trkpt>
      <trkpt lat="44.19529" lon="5.9539">
        <ele>529</ele>
        <time>2011-08-17T05:31:15Z</time>
      </trkpt>
      <trkpt lat="44.19518" lon="5.95397">
        <ele>530</ele>
        <time>2011-08-17T05:31:21Z</time>
      </trkpt>
      <trkpt lat="44.19507" lon="5.95391">
        <ele>529</ele>
        <time>2011-08-17T05:31:26Z</time>
      </trkpt>
      <trkpt lat="44.19472" lon="5.95382">
        <ele>518</ele>
        <time>2011-08-17T05:31:43Z</time>
      </trkpt>
      <trkpt lat="44.19433" lon="5.95409">
        <ele>521</ele>
        <time>2011-08-17T05:32:03Z</time>
      </trkpt>
      <trkpt lat="44.19393" lon="5.95431">
        <ele>527</ele>
        <time>2011-08-17T05:32:23Z</time>
      </trkpt>
      <trkpt lat="44.19359" lon="5.95438">
        <ele>522</ele>
        <time>2011-08-17T05:32:40Z</time>
      </trkpt>
      <trkpt lat="44.1934" lon="5.95449">
        <ele>522</ele>
        <time>2011-08-17T05:32:51Z</time>
      </trkpt>
      <trkpt lat="44.19345" lon="5.95496">
        <ele>529</ele>
        <time>2011-08-17T05:33:09Z</time>
      </trkpt>
      <trkpt lat="44.19352" lon="5.95559">
        <ele>547</ele>
        <time>2011-08-17T05:33:31Z</time>
      </trkpt>
      <trkpt lat="44.19364" lon="5.95619">
        <ele>558</ele>
        <time>2011-08-17T05:33:51Z</time>
      </trkpt>
      <trkpt lat="44.19397" lon="5.95645">
        <ele>563</ele>
        <time>2011-08-17T05:34:10Z</time>
      </trkpt>
      <trkpt lat="44.19408" lon="5.95683">
        <ele>571</ele>
        <time>2011-08-17T05:34:25Z</time>
      </trkpt>
      <trkpt lat="44.1939" lon="5.95687">
        <ele>571</ele>
        <time>2011-08-17T05:34:33Z</time>
      </trkpt>
      <trkpt lat="44.19382" lon="5.95691">
        <ele>571</ele>
        <time>2011-08-17T05:34:37Z</time>
      </trkpt>
      <trkpt lat="44.19348" lon="5.9572">
        <ele>575</ele>
        <time>2011-08-17T05:34:58Z</time>
      </trkpt>
      <trkpt lat="44.1934" lon="5.95716">
        <ele>574</ele>
        <time>2011-08-17T05:35:02Z</time>
      </trkpt>
      <trkpt lat="44.19306" lon="5.95697">
        <ele>573</ele>
        <time>2011-08-17T05:35:21Z</time>
      </trkpt>
      <trkpt lat="44.19276" lon="5.95672">
        <ele>573</ele>
        <time>2011-08-17T05:35:39Z</time>
      </trkpt>
      <trkpt lat="44.19246" lon="5.95636">
        <ele>554</ele>
        <time>2011-08-17T05:35:58Z</time>
      </trkpt>
      <trkpt lat="44.19232" lon="5.95602">
        <ele>547</ele>
        <time>2011-08-17T05:36:11Z</time>
      </trkpt>
      <trkpt lat="44.19223" lon="5.95607">
        <ele>547</ele>
        <time>2011-08-17T05:36:16Z</time>
      </trkpt>
      <trkpt lat="44.19219" lon="5.95648">
        <ele>553</ele>
        <time>2011-08-17T05:36:30Z</time>
      </trkpt>
      <trkpt lat="44.19228" lon="5.95695">
        <ele>570</ele>
        <time>2011-08-17T05:36:47Z</time>
      </trkpt>
      <trkpt lat="44.19213" lon="5.95749">
        <ele>575</ele>
        <time>2011-08-17T05:37:07Z</time>
      </trkpt>
      <trkpt lat="44.19187" lon="5.9579">
        <ele>587</ele>
        <time>2011-08-17T05:37:26Z</time>
      </trkpt>
      <trkpt lat="44.1917" lon="5.95839">
        <ele>591</ele>
        <time>2011-08-17T05:37:46Z</time>
      </trkpt>
      <trkpt lat="44.19139" lon="5.95876">
        <ele>587</ele>
        <time>2011-08-17T05:38:05Z</time>
      </trkpt>
      <trkpt lat="44.19104" lon="5.95891">
        <ele>585</ele>
        <time>2011-08-17T05:38:21Z</time>
      </trkpt>
      <trkpt lat="44.19085" lon="5.95923">
        <ele>591</ele>
        <time>2011-08-17T05:38:34Z</time>
      </trkpt>
      <trkpt lat="44.19055" lon="5.95988">
        <ele>586</ele>
        <time>2011-08-17T05:38:50Z</time>
      </trkpt>
      <trkpt lat="44.19036" lon="5.96022">
        <ele>587</ele>
        <time>2011-08-17T05:39:00Z</time>
      </trkpt>
      <trkpt lat="44.19025" lon="5.96054">
        <ele>586</ele>
        <time>2011-08-17T05:39:07Z</time>
      </trkpt>
      <trkpt lat="44.19028" lon="5.96077">
        <ele>586</ele>
        <time>2011-08-17T05:39:11Z</time>
      </trkpt>
      <trkpt lat="44.19032" lon="5.96089">
        <ele>590</ele>
        <time>2011-08-17T05:39:13Z</time>
      </trkpt>
      <trkpt lat="44.19029" lon="5.96129">
        <ele>591</ele>
        <time>2011-08-17T05:39:19Z</time>
      </trkpt>
      <trkpt lat="44.19015" lon="5.9617">
        <ele>590</ele>
        <time>2011-08-17T05:39:28Z</time>
      </trkpt>
      <trkpt lat="44.19012" lon="5.96224">
        <ele>596</ele>
        <time>2011-08-17T05:39:42Z</time>
      </trkpt>
      <trkpt lat="44.18985" lon="5.96237">
        <ele>586</ele>
        <time>2011-08-17T05:39:52Z</time>
      </trkpt>
      <trkpt lat="44.1895" lon="5.96249">
        <ele>582</ele>
        <time>2011-08-17T05:40:01Z</time>
      </trkpt>
      <trkpt lat="44.18935" lon="5.96268">
        <ele>587</ele>
        <time>2011-08-17T05:40:05Z</time>
      </trkpt>
      <trkpt lat="44.18936" lon="5.96317">
        <ele>589</ele>
        <time>2011-08-17T05:40:16Z</time>
      </trkpt>
      <trkpt lat="44.18941" lon="5.96324">
        <ele>590</ele>
        <time>2011-08-17T05:40:19Z</time>
      </trkpt>
      <trkpt lat="44.18943" lon="5.96339">
        <ele>594</ele>
        <time>2011-08-17T05:40:24Z</time>
      </trkpt>
      <trkpt lat="44.18941" lon="5.96349">
        <ele>594</ele>
        <time>2011-08-17T05:40:27Z</time>
      </trkpt>
      <trkpt lat="44.18926" lon="5.96382">
        <ele>595</ele>
        <time>2011-08-17T05:40:39Z</time>
      </trkpt>
      <trkpt lat="44.18921" lon="5.96442">
        <ele>598</ele>
        <time>2011-08-17T05:41:01Z</time>
      </trkpt>
      <trkpt lat="44.18938" lon="5.96488">
        <ele>601</ele>
        <time>2011-08-17T05:41:18Z</time>
      </trkpt>
      <trkpt lat="44.1892" lon="5.96527">
        <ele>605</ele>
        <time>2011-08-17T05:41:33Z</time>
      </trkpt>
      <trkpt lat="44.18922" lon="5.96567">
        <ele>607</ele>
        <time>2011-08-17T05:41:49Z</time>
      </trkpt>
      <trkpt lat="44.18918" lon="5.96577">
        <ele>606</ele>
        <time>2011-08-17T05:41:54Z</time>
      </trkpt>
      <trkpt lat="44.18911" lon="5.9658">
        <ele>604</ele>
        <time>2011-08-17T05:41:58Z</time>
      </trkpt>
      <trkpt lat="44.18908" lon="5.96587">
        <ele>607</ele>
        <time>2011-08-17T05:42:02Z</time>
      </trkpt>
      <trkpt lat="44.18906" lon="5.96592">
        <ele>607</ele>
        <time>2011-08-17T05:42:04Z</time>
      </trkpt>
      <trkpt lat="44.18892" lon="5.96644">
        <ele>611</ele>
        <time>2011-08-17T05:42:26Z</time>
      </trkpt>
      <trkpt lat="44.18888" lon="5.96689">
        <ele>619</ele>
        <time>2011-08-17T05:42:40Z</time>
      </trkpt>
      <trkpt lat="44.18884" lon="5.96701">
        <ele>620</ele>
        <time>2011-08-17T05:42:44Z</time>
      </trkpt>
      <trkpt lat="44.18871" lon="5.96694">
        <ele>620</ele>
        <time>2011-08-17T05:42:51Z</time>
      </trkpt>
      <trkpt lat="44.18862" lon="5.96671">
        <ele>619</ele>
        <time>2011-08-17T05:43:01Z</time>
      </trkpt>
      <trkpt lat="44.18847" lon="5.9667">
        <ele>618</ele>
        <time>2011-08-17T05:43:09Z</time>
      </trkpt>
      <trkpt lat="44.18828" lon="5.96652">
        <ele>619</ele>
        <time>2011-08-17T05:43:21Z</time>
      </trkpt>
      <trkpt lat="44.18797" lon="5.96637">
        <ele>622</ele>
        <time>2011-08-17T05:43:41Z</time>
      </trkpt>
      <trkpt lat="44.18771" lon="5.96617">
        <ele>623</ele>
        <time>2011-08-17T05:44:00Z</time>
      </trkpt>
      <trkpt lat="44.18757" lon="5.96605">
        <ele>623</ele>
        <time>2011-08-17T05:44:10Z</time>
      </trkpt>
      <trkpt lat="44.18755" lon="5.96606">
        <ele>623</ele>
        <time>2011-08-17T05:44:12Z</time>
      </trkpt>
      <trkpt lat="44.18754" lon="5.96612">
        <ele>623</ele>
        <time>2011-08-17T05:44:16Z</time>
      </trkpt>
      <trkpt lat="44.18759" lon="5.96659">
        <ele>633</ele>
        <time>2011-08-17T05:44:40Z</time>
      </trkpt>
      <trkpt lat="44.1877" lon="5.96706">
        <ele>638</ele>
        <time>2011-08-17T05:45:03Z</time>
      </trkpt>
      <trkpt lat="44.18784" lon="5.96747">
        <ele>639</ele>
        <time>2011-08-17T05:45:24Z</time>
      </trkpt>
      <trkpt lat="44.18792" lon="5.9679">
        <ele>648</ele>
        <time>2011-08-17T05:45:46Z</time>
      </trkpt>
      <trkpt lat="44.18806" lon="5.96835">
        <ele>657</ele>
        <time>2011-08-17T05:46:08Z</time>
      </trkpt>
      <trkpt lat="44.18832" lon="5.96868">
        <ele>659</ele>
        <time>2011-08-17T05:46:30Z</time>
      </trkpt>
      <trkpt lat="44.18838" lon="5.96882">
        <ele>653</ele>
        <time>2011-08-17T05:46:38Z</time>
      </trkpt>
      <trkpt lat="44.18831" lon="5.96885">
        <ele>661</ele>
        <time>2011-08-17T05:46:44Z</time>
      </trkpt>
      <trkpt lat="44.18797" lon="5.96877">
        <ele>661</ele>
        <time>2011-08-17T05:47:05Z</time>
      </trkpt>
      <trkpt lat="44.18762" lon="5.96876">
        <ele>662</ele>
        <time>2011-08-17T05:47:26Z</time>
      </trkpt>
      <trkpt lat="44.1875" lon="5.96904">
        <ele>662</ele>
        <time>2011-08-17T05:47:40Z</time>
      </trkpt>
      <trkpt lat="44.18744" lon="5.96955">
        <ele>660</ele>
        <time>2011-08-17T05:47:53Z</time>
      </trkpt>
      <trkpt lat="44.18735" lon="5.9703">
        <ele>658</ele>
        <time>2011-08-17T05:48:08Z</time>
      </trkpt>
      <trkpt lat="44.18733" lon="5.97046">
        <ele>656</ele>
        <time>2011-08-17T05:48:11Z</time>
      </trkpt>
      <trkpt lat="44.1873" lon="5.97063">
        <ele>656</ele>
        <time>2011-08-17T05:48:14Z</time>
      </trkpt>
      <trkpt lat="44.18717" lon="5.97126">
        <ele>649</ele>
        <time>2011-08-17T05:48:26Z</time>
      </trkpt>
      <trkpt lat="44.18716" lon="5.97132">
        <ele>649</ele>
        <time>2011-08-17T05:48:27Z</time>
      </trkpt>
      <trkpt lat="44.18711" lon="5.97233">
        <ele>649</ele>
        <time>2011-08-17T05:48:41Z</time>
      </trkpt>
      <trkpt lat="44.18708" lon="5.97247">
        <ele>648</ele>
        <time>2011-08-17T05:48:43Z</time>
      </trkpt>
      <trkpt lat="44.18695" lon="5.97291">
        <ele>650</ele>
        <time>2011-08-17T05:48:49Z</time>
      </trkpt>
      <trkpt lat="44.18661" lon="5.9733">
        <ele>640</ele>
        <time>2011-08-17T05:48:55Z</time>
      </trkpt>
      <trkpt lat="44.18616" lon="5.97356">
        <ele>636</ele>
        <time>2011-08-17T05:49:06Z</time>
      </trkpt>
      <trkpt lat="44.18592" lon="5.97421">
        <ele>640</ele>
        <time>2011-08-17T05:49:16Z</time>
      </trkpt>
      <trkpt lat="44.18572" lon="5.97545">
        <ele>633</ele>
        <time>2011-08-17T05:49:27Z</time>
      </trkpt>
      <trkpt lat="44.18571" lon="5.97557">
        <ele>633</ele>
        <time>2011-08-17T05:49:28Z</time>
      </trkpt>
      <trkpt lat="44.18576" lon="5.9759">
        <ele>631</ele>
        <time>2011-08-17T05:49:31Z</time>
      </trkpt>
      <trkpt lat="44.1859" lon="5.97634">
        <ele>634</ele>
        <time>2011-08-17T05:49:35Z</time>
      </trkpt>
      <trkpt lat="44.18604" lon="5.97753">
        <ele>625</ele>
        <time>2011-08-17T05:49:46Z</time>
      </trkpt>
      <trkpt lat="44.18616" lon="5.97799">
        <ele>625</ele>
        <time>2011-08-17T05:49:50Z</time>
      </trkpt>
      <trkpt lat="44.18614" lon="5.97836">
        <ele>623</ele>
        <time>2011-08-17T05:49:54Z</time>
      </trkpt>
      <trkpt lat="44.1862" lon="5.97862">
        <ele>624</ele>
        <time>2011-08-17T05:49:57Z</time>
      </trkpt>
      <trkpt lat="44.18619" lon="5.97927">
        <ele>625</ele>
        <time>2011-08-17T05:50:08Z</time>
      </trkpt>
      <trkpt lat="44.18622" lon="5.98003">
        <ele>629</ele>
        <time>2011-08-17T05:50:25Z</time>
      </trkpt>
      <trkpt lat="44.18609" lon="5.98076">
        <ele>629</ele>
        <time>2011-08-17T05:50:44Z</time>
      </trkpt>
      <trkpt lat="44.18593" lon="5.98102">
        <ele>628</ele>
        <time>2011-08-17T05:50:51Z</time>
      </trkpt>
      <trkpt lat="44.18586" lon="5.9814">
        <ele>628</ele>
        <time>2011-08-17T05:50:57Z</time>
      </trkpt>
      <trkpt lat="44.18591" lon="5.98263">
        <ele>622</ele>
        <time>2011-08-17T05:51:13Z</time>
      </trkpt>
      <trkpt lat="44.1862" lon="5.98369">
        <ele>618</ele>
        <time>2011-08-17T05:51:26Z</time>
      </trkpt>
      <trkpt lat="44.18633" lon="5.98428">
        <ele>612</ele>
        <time>2011-08-17T05:51:33Z</time>
      </trkpt>
      <trkpt lat="44.18643" lon="5.98461">
        <ele>610</ele>
        <time>2011-08-17T05:51:37Z</time>
      </trkpt>
      <trkpt lat="44.18642" lon="5.98492">
        <ele>609</ele>
        <time>2011-08-17T05:51:41Z</time>
      </trkpt>
      <trkpt lat="44.18645" lon="5.98541">
        <ele>601</ele>
        <time>2011-08-17T05:51:47Z</time>
      </trkpt>
      <trkpt lat="44.18645" lon="5.98558">
        <ele>600</ele>
        <time>2011-08-17T05:51:49Z</time>
      </trkpt>
      <trkpt lat="44.1865" lon="5.98664">
        <ele>591</ele>
        <time>2011-08-17T05:51:58Z</time>
      </trkpt>
      <trkpt lat="44.18652" lon="5.9871">
        <ele>587</ele>
        <time>2011-08-17T05:52:02Z</time>
      </trkpt>
      <trkpt lat="44.18647" lon="5.98749">
        <ele>585</ele>
        <time>2011-08-17T05:52:07Z</time>
      </trkpt>
      <trkpt lat="44.18668" lon="5.98748">
        <ele>584</ele>
        <time>2011-08-17T05:52:14Z</time>
      </trkpt>
      <trkpt lat="44.18677" lon="5.98779">
        <ele>582</ele>
        <time>2011-08-17T05:52:19Z</time>
      </trkpt>
      <trkpt lat="44.18667" lon="5.98805">
        <ele>580</ele>
        <time>2011-08-17T05:52:22Z</time>
      </trkpt>
      <trkpt lat="44.18661" lon="5.9882">
        <ele>578</ele>
        <time>2011-08-17T05:52:24Z</time>
      </trkpt>
      <trkpt lat="44.18654" lon="5.98914">
        <ele>570</ele>
        <time>2011-08-17T05:52:33Z</time>
      </trkpt>
      <trkpt lat="44.18665" lon="5.98948">
        <ele>567</ele>
        <time>2011-08-17T05:52:37Z</time>
      </trkpt>
      <trkpt lat="44.18681" lon="5.99009">
        <ele>566</ele>
        <time>2011-08-17T05:52:43Z</time>
      </trkpt>
      <trkpt lat="44.187" lon="5.99046">
        <ele>566</ele>
        <time>2011-08-17T05:52:49Z</time>
      </trkpt>
      <trkpt lat="44.18708" lon="5.99055">
        <ele>566</ele>
        <time>2011-08-17T05:52:51Z</time>
      </trkpt>
      <trkpt lat="44.1872" lon="5.99079">
        <ele>567</ele>
        <time>2011-08-17T05:52:55Z</time>
      </trkpt>
      <trkpt lat="44.18726" lon="5.99105">
        <ele>565</ele>
        <time>2011-08-17T05:52:59Z</time>
      </trkpt>
      <trkpt lat="44.18722" lon="5.99148">
        <ele>564</ele>
        <time>2011-08-17T05:53:05Z</time>
      </trkpt>
      <trkpt lat="44.18708" lon="5.99243">
        <ele>561</ele>
        <time>2011-08-17T05:53:19Z</time>
      </trkpt>
      <trkpt lat="44.18703" lon="5.99276">
        <ele>557</ele>
        <time>2011-08-17T05:53:23Z</time>
      </trkpt>
      <trkpt lat="44.18704" lon="5.9929">
        <ele>557</ele>
        <time>2011-08-17T05:53:25Z</time>
      </trkpt>
      <trkpt lat="44.18718" lon="5.99304">
        <ele>556</ele>
        <time>2011-08-17T05:53:30Z</time>
      </trkpt>
      <trkpt lat="44.18757" lon="5.99292">
        <ele>559</ele>
        <time>2011-08-17T05:53:45Z</time>
      </trkpt>
      <trkpt lat="44.18818" lon="5.99278">
        <ele>560</ele>
        <time>2011-08-17T05:54:05Z</time>
      </trkpt>
      <trkpt lat="44.18878" lon="5.9926">
        <ele>560</ele>
        <time>2011-08-17T05:54:20Z</time>
      </trkpt>
      <trkpt lat="44.18882" lon="5.99256">
        <ele>560</ele>
        <time>2011-08-17T05:54:21Z</time>
      </trkpt>
      <trkpt lat="44.18941" lon="5.99214">
        <ele>563</ele>
        <time>2011-08-17T05:54:38Z</time>
      </trkpt>
      <trkpt lat="44.1895" lon="5.99204">
        <ele>563</ele>
        <time>2011-08-17T05:54:41Z</time>
      </trkpt>
      <trkpt lat="44.18971" lon="5.99199">
        <ele>564</ele>
        <time>2011-08-17T05:54:46Z</time>
      </trkpt>
      <trkpt lat="44.1905" lon="5.99237">
        <ele>568</ele>
        <time>2011-08-17T05:55:08Z</time>
      </trkpt>
      <trkpt lat="44.19103" lon="5.9927">
        <ele>568</ele>
        <time>2011-08-17T05:55:25Z</time>
      </trkpt>
      <trkpt lat="44.19168" lon="5.99254">
        <ele>572</ele>
        <time>2011-08-17T05:55:44Z</time>
      </trkpt>
      <trkpt lat="44.19224" lon="5.99231">
        <ele>576</ele>
        <time>2011-08-17T05:56:02Z</time>
      </trkpt>
      <trkpt lat="44.19283" lon="5.99228">
        <ele>575</ele>
        <time>2011-08-17T05:56:21Z</time>
      </trkpt>
      <trkpt lat="44.19325" lon="5.99183">
        <ele>579</ele>
        <time>2011-08-17T05:56:38Z</time>
      </trkpt>
      <trkpt lat="44.1936" lon="5.99174">
        <ele>580</ele>
        <time>2011-08-17T05:56:50Z</time>
      </trkpt>
      <trkpt lat="44.19421" lon="5.99185">
        <ele>583</ele>
        <time>2011-08-17T05:57:10Z</time>
      </trkpt>
      <trkpt lat="44.19466" lon="5.9917">
        <ele>584</ele>
        <time>2011-08-17T05:57:26Z</time>
      </trkpt>
      <trkpt lat="44.19523" lon="5.99176">
        <ele>587</ele>
        <time>2011-08-17T05:57:45Z</time>
      </trkpt>
      <trkpt lat="44.19583" lon="5.9917">
        <ele>593</ele>
        <time>2011-08-17T05:58:05Z</time>
      </trkpt>
      <trkpt lat="44.19634" lon="5.99166">
        <ele>601</ele>
        <time>2011-08-17T05:58:24Z</time>
      </trkpt>
      <trkpt lat="44.1968" lon="5.99157">
        <ele>598</ele>
        <time>2011-08-17T05:58:41Z</time>
      </trkpt>
      <trkpt lat="44.19725" lon="5.99118">
        <ele>599</ele>
        <time>2011-08-17T05:59:01Z</time>
      </trkpt>
      <trkpt lat="44.19764" lon="5.99073">
        <ele>600</ele>
        <time>2011-08-17T05:59:12Z</time>
      </trkpt>
      <trkpt lat="44.19774" lon="5.99057">
        <ele>600</ele>
        <time>2011-08-17T05:59:14Z</time>
      </trkpt>
      <trkpt lat="44.19797" lon="5.99028">
        <ele>600</ele>
        <time>2011-08-17T05:59:18Z</time>
      </trkpt>
      <trkpt lat="44.19813" lon="5.98995">
        <ele>608</ele>
        <time>2011-08-17T05:59:22Z</time>
      </trkpt>
      <trkpt lat="44.19822" lon="5.98989">
        <ele>606</ele>
        <time>2011-08-17T05:59:24Z</time>
      </trkpt>
      <trkpt lat="44.19847" lon="5.98991">
        <ele>603</ele>
        <time>2011-08-17T05:59:32Z</time>
      </trkpt>
      <trkpt lat="44.1986" lon="5.98986">
        <ele>605</ele>
        <time>2011-08-17T05:59:37Z</time>
      </trkpt>
      <trkpt lat="44.19896" lon="5.98973">
        <ele>606</ele>
        <time>2011-08-17T05:59:50Z</time>
      </trkpt>
      <trkpt lat="44.19931" lon="5.98958">
        <ele>607</ele>
        <time>2011-08-17T06:00:08Z</time>
      </trkpt>
      <trkpt lat="44.19953" lon="5.98935">
        <ele>609</ele>
        <time>2011-08-17T06:00:22Z</time>
      </trkpt>
      <trkpt lat="44.19976" lon="5.98898">
        <ele>621</ele>
        <time>2011-08-17T06:00:43Z</time>
      </trkpt>
      <trkpt lat="44.19994" lon="5.98868">
        <ele>625</ele>
        <time>2011-08-17T06:00:59Z</time>
      </trkpt>
      <trkpt lat="44.20023" lon="5.98845">
        <ele>619</ele>
        <time>2011-08-17T06:01:17Z</time>
      </trkpt>
      <trkpt lat="44.20048" lon="5.98825">
        <ele>630</ele>
        <time>2011-08-17T06:01:34Z</time>
      </trkpt>
      <trkpt lat="44.2008" lon="5.98827">
        <ele>615</ele>
        <time>2011-08-17T06:01:44Z</time>
      </trkpt>
      <trkpt lat="44.20093" lon="5.98829">
        <ele>613</ele>
        <time>2011-08-17T06:01:47Z</time>
      </trkpt>
      <trkpt lat="44.2011" lon="5.9882">
        <ele>618</ele>
        <time>2011-08-17T06:01:51Z</time>
      </trkpt>
      <trkpt lat="44.20126" lon="5.98789">
        <ele>621</ele>
        <time>2011-08-17T06:01:58Z</time>
      </trkpt>
      <trkpt lat="44.20125" lon="5.98771">
        <ele>623</ele>
        <time>2011-08-17T06:02:03Z</time>
      </trkpt>
      <trkpt lat="44.20126" lon="5.98765">
        <ele>624</ele>
        <time>2011-08-17T06:02:05Z</time>
      </trkpt>
      <trkpt lat="44.20128" lon="5.9876">
        <ele>624</ele>
        <time>2011-08-17T06:02:07Z</time>
      </trkpt>
      <trkpt lat="44.20128" lon="5.98751">
        <ele>624</ele>
        <time>2011-08-17T06:02:19Z</time>
      </trkpt>
      <trkpt lat="44.20129" lon="5.98741">
        <ele>636</ele>
        <time>2011-08-17T06:02:28Z</time>
      </trkpt>
      <trkpt lat="44.20135" lon="5.98721">
        <ele>637</ele>
        <time>2011-08-17T06:02:43Z</time>
      </trkpt>
      <trkpt lat="44.2015" lon="5.98684">
        <ele>635</ele>
        <time>2011-08-17T06:03:01Z</time>
      </trkpt>
      <trkpt lat="44.20159" lon="5.98647">
        <ele>651</ele>
        <time>2011-08-17T06:03:18Z</time>
      </trkpt>
      <trkpt lat="44.20167" lon="5.98634">
        <ele>635</ele>
        <time>2011-08-17T06:03:26Z</time>
      </trkpt>
      <trkpt lat="44.20189" lon="5.98622">
        <ele>636</ele>
        <time>2011-08-17T06:03:37Z</time>
      </trkpt>
      <trkpt lat="44.20205" lon="5.98618">
        <ele>635</ele>
        <time>2011-08-17T06:03:49Z</time>
      </trkpt>
      <trkpt lat="44.20211" lon="5.98609">
        <ele>635</ele>
        <time>2011-08-17T06:04:03Z</time>
      </trkpt>
      <trkpt lat="44.20213" lon="5.98607">
        <ele>635</ele>
        <time>2011-08-17T06:04:19Z</time>
      </trkpt>
      <trkpt lat="44.20214" lon="5.986">
        <ele>635</ele>
        <time>2011-08-17T06:04:32Z</time>
      </trkpt>
      <trkpt lat="44.20214" lon="5.986">
        <ele>635</ele>
        <time>2011-08-17T06:04:35Z</time>
      </trkpt>
      <trkpt lat="44.20212" lon="5.98592">
        <ele>635</ele>
        <time>2011-08-17T06:04:52Z</time>
      </trkpt>
      <trkpt lat="44.20214" lon="5.98587">
        <ele>635</ele>
        <time>2011-08-17T06:05:03Z</time>
      </trkpt>
      <trkpt lat="44.20218" lon="5.98579">
        <ele>644</ele>
        <time>2011-08-17T06:05:17Z</time>
      </trkpt>
      <trkpt lat="44.20224" lon="5.98569">
        <ele>643</ele>
        <time>2011-08-17T06:05:35Z</time>
      </trkpt>
      <trkpt lat="44.2022" lon="5.98564">
        <ele>646</ele>
        <time>2011-08-17T06:05:50Z</time>
      </trkpt>
      <trkpt lat="44.2022" lon="5.98555">
        <ele>648</ele>
        <time>2011-08-17T06:06:08Z</time>
      </trkpt>
      <trkpt lat="44.20225" lon="5.98542">
        <ele>649</ele>
        <time>2011-08-17T06:06:24Z</time>
      </trkpt>
      <trkpt lat="44.20227" lon="5.98532">
        <ele>650</ele>
        <time>2011-08-17T06:06:37Z</time>
      </trkpt>
      <trkpt lat="44.20233" lon="5.98518">
        <ele>649</ele>
        <time>2011-08-17T06:06:54Z</time>
      </trkpt>
      <trkpt lat="44.2024" lon="5.98507">
        <ele>646</ele>
        <time>2011-08-17T06:07:08Z</time>
      </trkpt>
      <trkpt lat="44.20253" lon="5.98497">
        <ele>643</ele>
        <time>2011-08-17T06:07:28Z</time>
      </trkpt>
      <trkpt lat="44.20261" lon="5.98481">
        <ele>647</ele>
        <time>2011-08-17T06:07:48Z</time>
      </trkpt>
      <trkpt lat="44.2027" lon="5.98474">
        <ele>648</ele>
        <time>2011-08-17T06:08:01Z</time>
      </trkpt>
      <trkpt lat="44.20272" lon="5.98474">
        <ele>648</ele>
        <time>2011-08-17T06:08:03Z</time>
      </trkpt>
      <trkpt lat="44.20278" lon="5.98475">
        <ele>647</ele>
        <time>2011-08-17T06:08:17Z</time>
      </trkpt>
      <trkpt lat="44.20283" lon="5.98473">
        <ele>647</ele>
        <time>2011-08-17T06:10:01Z</time>
      </trkpt>
      <trkpt lat="44.20313" lon="5.98454">
        <ele>647</ele>
        <time>2011-08-17T06:10:13Z</time>
      </trkpt>
      <trkpt lat="44.20329" lon="5.98431">
        <ele>649</ele>
        <time>2011-08-17T06:10:18Z</time>
      </trkpt>
      <trkpt lat="44.20341" lon="5.98406">
        <ele>655</ele>
        <time>2011-08-17T06:10:24Z</time>
      </trkpt>
      <trkpt lat="44.20348" lon="5.98407">
        <ele>657</ele>
        <time>2011-08-17T06:10:29Z</time>
      </trkpt>
      <trkpt lat="44.20361" lon="5.98455">
        <ele>644</ele>
        <time>2011-08-17T06:10:43Z</time>
      </trkpt>
      <trkpt lat="44.20379" lon="5.98481">
        <ele>643</ele>
        <time>2011-08-17T06:10:55Z</time>
      </trkpt>
      <trkpt lat="44.20383" lon="5.98489">
        <ele>643</ele>
        <time>2011-08-17T06:11:03Z</time>
      </trkpt>
      <trkpt lat="44.20386" lon="5.98493">
        <ele>643</ele>
        <time>2011-08-17T06:11:11Z</time>
      </trkpt>
      <trkpt lat="44.20414" lon="5.98517">
        <ele>636</ele>
        <time>2011-08-17T06:11:24Z</time>
      </trkpt>
      <trkpt lat="44.20451" lon="5.9854">
        <ele>642</ele>
        <time>2011-08-17T06:11:39Z</time>
      </trkpt>
      <trkpt lat="44.20482" lon="5.9855">
        <ele>643</ele>
        <time>2011-08-17T06:11:56Z</time>
      </trkpt>
      <trkpt lat="44.20492" lon="5.98553">
        <ele>643</ele>
        <time>2011-08-17T06:11:59Z</time>
      </trkpt>
      <trkpt lat="44.20516" lon="5.98556">
        <ele>656</ele>
        <time>2011-08-17T06:12:10Z</time>
      </trkpt>
      <trkpt lat="44.20516" lon="5.98557">
        <ele>656</ele>
        <time>2011-08-17T06:12:12Z</time>
      </trkpt>
      <trkpt lat="44.20527" lon="5.98587">
        <ele>642</ele>
        <time>2011-08-17T06:12:24Z</time>
      </trkpt>
      <trkpt lat="44.20548" lon="5.98621">
        <ele>644</ele>
        <time>2011-08-17T06:12:36Z</time>
      </trkpt>
      <trkpt lat="44.20559" lon="5.98629">
        <ele>645</ele>
        <time>2011-08-17T06:12:49Z</time>
      </trkpt>
      <trkpt lat="44.20576" lon="5.98644">
        <ele>645</ele>
        <time>2011-08-17T06:13:08Z</time>
      </trkpt>
      <trkpt lat="44.2059" lon="5.98657">
        <ele>651</ele>
        <time>2011-08-17T06:13:25Z</time>
      </trkpt>
      <trkpt lat="44.20595" lon="5.98669">
        <ele>647</ele>
        <time>2011-08-17T06:13:32Z</time>
      </trkpt>
      <trkpt lat="44.20593" lon="5.98677">
        <ele>647</ele>
        <time>2011-08-17T06:13:34Z</time>
      </trkpt>
      <trkpt lat="44.20613" lon="5.98702">
        <ele>649</ele>
        <time>2011-08-17T06:13:47Z</time>
      </trkpt>
      <trkpt lat="44.20637" lon="5.9874">
        <ele>650</ele>
        <time>2011-08-17T06:14:04Z</time>
      </trkpt>
      <trkpt lat="44.20658" lon="5.98777">
        <ele>648</ele>
        <time>2011-08-17T06:14:19Z</time>
      </trkpt>
      <trkpt lat="44.20683" lon="5.98828">
        <ele>654</ele>
        <time>2011-08-17T06:14:37Z</time>
      </trkpt>
      <trkpt lat="44.20715" lon="5.98887">
        <ele>654</ele>
        <time>2011-08-17T06:14:59Z</time>
      </trkpt>
      <trkpt lat="44.20763" lon="5.98919">
        <ele>658</ele>
        <time>2011-08-17T06:15:22Z</time>
      </trkpt>
      <trkpt lat="44.20817" lon="5.9892">
        <ele>664</ele>
        <time>2011-08-17T06:15:44Z</time>
      </trkpt>
      <trkpt lat="44.20832" lon="5.98958">
        <ele>660</ele>
        <time>2011-08-17T06:15:57Z</time>
      </trkpt>
      <trkpt lat="44.20866" lon="5.98993">
        <ele>673</ele>
        <time>2011-08-17T06:16:14Z</time>
      </trkpt>
      <trkpt lat="44.20899" lon="5.9903">
        <ele>670</ele>
        <time>2011-08-17T06:16:32Z</time>
      </trkpt>
      <trkpt lat="44.20926" lon="5.9906">
        <ele>680</ele>
        <time>2011-08-17T06:16:50Z</time>
      </trkpt>
      <trkpt lat="44.20963" lon="5.99075">
        <ele>685</ele>
        <time>2011-08-17T06:17:10Z</time>
      </trkpt>
      <trkpt lat="44.20996" lon="5.99104">
        <ele>682</ele>
        <time>2011-08-17T06:17:30Z</time>
      </trkpt>
      <trkpt lat="44.21028" lon="5.99124">
        <ele>694</ele>
        <time>2011-08-17T06:17:47Z</time>
      </trkpt>
      <trkpt lat="44.21056" lon="5.9917">
        <ele>690</ele>
        <time>2011-08-17T06:18:10Z</time>
      </trkpt>
      <trkpt lat="44.21082" lon="5.99218">
        <ele>689</ele>
        <time>2011-08-17T06:18:33Z</time>
      </trkpt>
      <trkpt lat="44.21111" lon="5.99248">
        <ele>700</ele>
        <time>2011-08-17T06:18:52Z</time>
      </trkpt>
      <trkpt lat="44.21157" lon="5.99268">
        <ele>699</ele>
        <time>2011-08-17T06:19:18Z</time>
      </trkpt>
      <trkpt lat="44.21197" lon="5.99278">
        <ele>705</ele>
        <time>2011-08-17T06:19:38Z</time>
      </trkpt>
      <trkpt lat="44.21243" lon="5.99286">
        <ele>707</ele>
        <time>2011-08-17T06:19:59Z</time>
      </trkpt>
      <trkpt lat="44.21255" lon="5.99287">
        <ele>714</ele>
        <time>2011-08-17T06:20:05Z</time>
      </trkpt>
      <trkpt lat="44.21294" lon="5.993">
        <ele>714</ele>
        <time>2011-08-17T06:20:24Z</time>
      </trkpt>
      <trkpt lat="44.21345" lon="5.99319">
        <ele>719</ele>
        <time>2011-08-17T06:20:41Z</time>
      </trkpt>
      <trkpt lat="44.21355" lon="5.99319">
        <ele>720</ele>
        <time>2011-08-17T06:20:45Z</time>
      </trkpt>
      <trkpt lat="44.21357" lon="5.9933">
        <ele>719</ele>
        <time>2011-08-17T06:20:50Z</time>
      </trkpt>
      <trkpt lat="44.21364" lon="5.99342">
        <ele>713</ele>
        <time>2011-08-17T06:20:54Z</time>
      </trkpt>
      <trkpt lat="44.21386" lon="5.99359">
        <ele>713</ele>
        <time>2011-08-17T06:21:03Z</time>
      </trkpt>
      <trkpt lat="44.21411" lon="5.99386">
        <ele>711</ele>
        <time>2011-08-17T06:21:14Z</time>
      </trkpt>
      <trkpt lat="44.21459" lon="5.9941">
        <ele>715</ele>
        <time>2011-08-17T06:21:29Z</time>
      </trkpt>
      <trkpt lat="44.21523" lon="5.99446">
        <ele>714</ele>
        <time>2011-08-17T06:21:46Z</time>
      </trkpt>
      <trkpt lat="44.21555" lon="5.99472">
        <ele>715</ele>
        <time>2011-08-17T06:21:58Z</time>
      </trkpt>
      <trkpt lat="44.2159" lon="5.99481">
        <ele>720</ele>
        <time>2011-08-17T06:22:13Z</time>
      </trkpt>
      <trkpt lat="44.21627" lon="5.99478">
        <ele>723</ele>
        <time>2011-08-17T06:22:30Z</time>
      </trkpt>
      <trkpt lat="44.21665" lon="5.99467">
        <ele>725</ele>
        <time>2011-08-17T06:22:52Z</time>
      </trkpt>
      <trkpt lat="44.21694" lon="5.99489">
        <ele>734</ele>
        <time>2011-08-17T06:23:10Z</time>
      </trkpt>
      <trkpt lat="44.21721" lon="5.9952">
        <ele>733</ele>
        <time>2011-08-17T06:23:29Z</time>
      </trkpt>
      <trkpt lat="44.21729" lon="5.9953">
        <ele>734</ele>
        <time>2011-08-17T06:23:35Z</time>
      </trkpt>
      <trkpt lat="44.21753" lon="5.99563">
        <ele>739</ele>
        <time>2011-08-17T06:23:49Z</time>
      </trkpt>
      <trkpt lat="44.21775" lon="5.99608">
        <ele>738</ele>
        <time>2011-08-17T06:24:05Z</time>
      </trkpt>
      <trkpt lat="44.21777" lon="5.99665">
        <ele>738</ele>
        <time>2011-08-17T06:24:24Z</time>
      </trkpt>
      <trkpt lat="44.21787" lon="5.99692">
        <ele>740</ele>
        <time>2011-08-17T06:24:33Z</time>
      </trkpt>
      <trkpt lat="44.218" lon="5.99702">
        <ele>741</ele>
        <time>2011-08-17T06:24:36Z</time>
      </trkpt>
      <trkpt lat="44.2181" lon="5.99718">
        <ele>742</ele>
        <time>2011-08-17T06:24:39Z</time>
      </trkpt>
      <trkpt lat="44.21826" lon="5.99722">
        <ele>742</ele>
        <time>2011-08-17T06:24:44Z</time>
      </trkpt>
      <trkpt lat="44.21851" lon="5.99732">
        <ele>748</ele>
        <time>2011-08-17T06:24:58Z</time>
      </trkpt>
      <trkpt lat="44.21881" lon="5.99749">
        <ele>749</ele>
        <time>2011-08-17T06:25:17Z</time>
      </trkpt>
      <trkpt lat="44.21908" lon="5.9975">
        <ele>752</ele>
        <time>2011-08-17T06:25:34Z</time>
      </trkpt>
      <trkpt lat="44.21922" lon="5.99754">
        <ele>753</ele>
        <time>2011-08-17T06:25:43Z</time>
      </trkpt>
      <trkpt lat="44.21918" lon="5.99764">
        <ele>755</ele>
        <time>2011-08-17T06:25:49Z</time>
      </trkpt>
      <trkpt lat="44.21883" lon="5.99776">
        <ele>753</ele>
        <time>2011-08-17T06:26:10Z</time>
      </trkpt>
      <trkpt lat="44.21873" lon="5.99787">
        <ele>753</ele>
        <time>2011-08-17T06:26:18Z</time>
      </trkpt>
      <trkpt lat="44.21881" lon="5.99796">
        <ele>754</ele>
        <time>2011-08-17T06:26:24Z</time>
      </trkpt>
      <trkpt lat="44.21926" lon="5.99805">
        <ele>760</ele>
        <time>2011-08-17T06:26:47Z</time>
      </trkpt>
      <trkpt lat="44.21961" lon="5.99835">
        <ele>767</ele>
        <time>2011-08-17T06:27:07Z</time>
      </trkpt>
      <trkpt lat="44.21963" lon="5.99873">
        <ele>770</ele>
        <time>2011-08-17T06:27:22Z</time>
      </trkpt>
      <trkpt lat="44.21959" lon="5.9988">
        <ele>770</ele>
        <time>2011-08-17T06:27:25Z</time>
      </trkpt>
      <trkpt lat="44.21954" lon="5.99885">
        <ele>771</ele>
        <time>2011-08-17T06:27:29Z</time>
      </trkpt>
      <trkpt lat="44.21918" lon="5.99896">
        <ele>773</ele>
        <time>2011-08-17T06:27:50Z</time>
      </trkpt>
      <trkpt lat="44.21912" lon="5.99924">
        <ele>779</ele>
        <time>2011-08-17T06:28:03Z</time>
      </trkpt>
      <trkpt lat="44.21947" lon="5.99945">
        <ele>782</ele>
        <time>2011-08-17T06:28:23Z</time>
      </trkpt>
      <trkpt lat="44.21972" lon="5.99949">
        <ele>782</ele>
        <time>2011-08-17T06:28:36Z</time>
      </trkpt>
      <trkpt lat="44.21976" lon="5.9995">
        <ele>782</ele>
        <time>2011-08-17T06:28:38Z</time>
      </trkpt>
      <trkpt lat="44.21977" lon="5.99966">
        <ele>783</ele>
        <time>2011-08-17T06:28:45Z</time>
      </trkpt>
      <trkpt lat="44.21955" lon="6.00012">
        <ele>790</ele>
        <time>2011-08-17T06:29:06Z</time>
      </trkpt>
      <trkpt lat="44.21954" lon="6.00043">
        <ele>791</ele>
        <time>2011-08-17T06:29:18Z</time>
      </trkpt>
      <trkpt lat="44.21935" lon="6.00079">
        <ele>792</ele>
        <time>2011-08-17T06:29:34Z</time>
      </trkpt>
      <trkpt lat="44.21898" lon="6.00103">
        <ele>796</ele>
        <time>2011-08-17T06:29:52Z</time>
      </trkpt>
      <trkpt lat="44.2185" lon="6.00122">
        <ele>797</ele>
        <time>2011-08-17T06:30:16Z</time>
      </trkpt>
      <trkpt lat="44.21833" lon="6.00129">
        <ele>796</ele>
        <time>2011-08-17T06:30:26Z</time>
      </trkpt>
      <trkpt lat="44.21832" lon="6.00138">
        <ele>797</ele>
        <time>2011-08-17T06:30:30Z</time>
      </trkpt>
      <trkpt lat="44.21849" lon="6.00185">
        <ele>802</ele>
        <time>2011-08-17T06:30:48Z</time>
      </trkpt>
      <trkpt lat="44.21867" lon="6.00209">
        <ele>804</ele>
        <time>2011-08-17T06:31:00Z</time>
      </trkpt>
      <trkpt lat="44.21892" lon="6.00234">
        <ele>805</ele>
        <time>2011-08-17T06:31:12Z</time>
      </trkpt>
      <trkpt lat="44.21927" lon="6.00256">
        <ele>811</ele>
        <time>2011-08-17T06:31:28Z</time>
      </trkpt>
      <trkpt lat="44.21969" lon="6.00257">
        <ele>815</ele>
        <time>2011-08-17T06:31:47Z</time>
      </trkpt>
      <trkpt lat="44.22004" lon="6.00227">
        <ele>813</ele>
        <time>2011-08-17T06:32:03Z</time>
      </trkpt>
      <trkpt lat="44.22033" lon="6.00195">
        <ele>811</ele>
        <time>2011-08-17T06:32:17Z</time>
      </trkpt>
      <trkpt lat="44.22078" lon="6.00158">
        <ele>808</ele>
        <time>2011-08-17T06:32:36Z</time>
      </trkpt>
      <trkpt lat="44.22128" lon="6.00123">
        <ele>813</ele>
        <time>2011-08-17T06:32:57Z</time>
      </trkpt>
      <trkpt lat="44.22168" lon="6.00095">
        <ele>818</ele>
        <time>2011-08-17T06:33:15Z</time>
      </trkpt>
      <trkpt lat="44.22193" lon="6.001">
        <ele>820</ele>
        <time>2011-08-17T06:33:29Z</time>
      </trkpt>
      <trkpt lat="44.22217" lon="6.00129">
        <ele>822</ele>
        <time>2011-08-17T06:33:46Z</time>
      </trkpt>
      <trkpt lat="44.22208" lon="6.00165">
        <ele>823</ele>
        <time>2011-08-17T06:34:02Z</time>
      </trkpt>
      <trkpt lat="44.22189" lon="6.00219">
        <ele>830</ele>
        <time>2011-08-17T06:34:26Z</time>
      </trkpt>
      <trkpt lat="44.22171" lon="6.00254">
        <ele>835</ele>
        <time>2011-08-17T06:34:43Z</time>
      </trkpt>
      <trkpt lat="44.22161" lon="6.003">
        <ele>834</ele>
        <time>2011-08-17T06:35:02Z</time>
      </trkpt>
      <trkpt lat="44.22153" lon="6.00355">
        <ele>841</ele>
        <time>2011-08-17T06:35:22Z</time>
      </trkpt>
      <trkpt lat="44.22148" lon="6.00404">
        <ele>845</ele>
        <time>2011-08-17T06:35:39Z</time>
      </trkpt>
      <trkpt lat="44.22128" lon="6.00442">
        <ele>852</ele>
        <time>2011-08-17T06:35:57Z</time>
      </trkpt>
      <trkpt lat="44.22103" lon="6.00493">
        <ele>855</ele>
        <time>2011-08-17T06:36:20Z</time>
      </trkpt>
      <trkpt lat="44.22081" lon="6.00542">
        <ele>861</ele>
        <time>2011-08-17T06:36:41Z</time>
      </trkpt>
      <trkpt lat="44.2204" lon="6.00548">
        <ele>860</ele>
        <time>2011-08-17T06:37:02Z</time>
      </trkpt>
      <trkpt lat="44.22007" lon="6.00559">
        <ele>860</ele>
        <time>2011-08-17T06:37:19Z</time>
      </trkpt>
      <trkpt lat="44.21992" lon="6.00571">
        <ele>857</ele>
        <time>2011-08-17T06:37:28Z</time>
      </trkpt>
      <trkpt lat="44.21997" lon="6.00581">
        <ele>861</ele>
        <time>2011-08-17T06:37:33Z</time>
      </trkpt>
      <trkpt lat="44.22016" lon="6.00595">
        <ele>868</ele>
        <time>2011-08-17T06:37:45Z</time>
      </trkpt>
      <trkpt lat="44.22041" lon="6.00604">
        <ele>870</ele>
        <time>2011-08-17T06:37:59Z</time>
      </trkpt>
      <trkpt lat="44.22045" lon="6.00623">
        <ele>872</ele>
        <time>2011-08-17T06:38:07Z</time>
      </trkpt>
      <trkpt lat="44.22021" lon="6.00681">
        <ele>878</ele>
        <time>2011-08-17T06:38:29Z</time>
      </trkpt>
      <trkpt lat="44.21993" lon="6.00727">
        <ele>876</ele>
        <time>2011-08-17T06:38:49Z</time>
      </trkpt>
      <trkpt lat="44.21976" lon="6.00756">
        <ele>882</ele>
        <time>2011-08-17T06:39:01Z</time>
      </trkpt>
      <trkpt lat="44.21953" lon="6.00785">
        <ele>882</ele>
        <time>2011-08-17T06:39:16Z</time>
      </trkpt>
      <trkpt lat="44.21929" lon="6.00808">
        <ele>882</ele>
        <time>2011-08-17T06:39:31Z</time>
      </trkpt>
      <trkpt lat="44.21911" lon="6.00844">
        <ele>884</ele>
        <time>2011-08-17T06:39:46Z</time>
      </trkpt>
      <trkpt lat="44.21871" lon="6.00866">
        <ele>885</ele>
        <time>2011-08-17T06:40:04Z</time>
      </trkpt>
      <trkpt lat="44.21869" lon="6.00867">
        <ele>885</ele>
        <time>2011-08-17T06:40:05Z</time>
      </trkpt>
      <trkpt lat="44.21846" lon="6.00895">
        <ele>886</ele>
        <time>2011-08-17T06:40:20Z</time>
      </trkpt>
      <trkpt lat="44.21829" lon="6.00943">
        <ele>889</ele>
        <time>2011-08-17T06:40:39Z</time>
      </trkpt>
      <trkpt lat="44.21827" lon="6.01002">
        <ele>895</ele>
        <time>2011-08-17T06:40:58Z</time>
      </trkpt>
      <trkpt lat="44.218" lon="6.01023">
        <ele>896</ele>
        <time>2011-08-17T06:41:13Z</time>
      </trkpt>
      <trkpt lat="44.21772" lon="6.01058">
        <ele>897</ele>
        <time>2011-08-17T06:41:30Z</time>
      </trkpt>
      <trkpt lat="44.21764" lon="6.01117">
        <ele>903</ele>
        <time>2011-08-17T06:41:50Z</time>
      </trkpt>
      <trkpt lat="44.21759" lon="6.01164">
        <ele>905</ele>
        <time>2011-08-17T06:42:06Z</time>
      </trkpt>
      <trkpt lat="44.21746" lon="6.01212">
        <ele>907</ele>
        <time>2011-08-17T06:42:23Z</time>
      </trkpt>
      <trkpt lat="44.21732" lon="6.0126">
        <ele>913</ele>
        <time>2011-08-17T06:42:41Z</time>
      </trkpt>
      <trkpt lat="44.21724" lon="6.013">
        <ele>914</ele>
        <time>2011-08-17T06:42:57Z</time>
      </trkpt>
      <trkpt lat="44.21731" lon="6.01299">
        <ele>914</ele>
        <time>2011-08-17T06:43:01Z</time>
      </trkpt>
      <trkpt lat="44.21752" lon="6.01279">
        <ele>920</ele>
        <time>2011-08-17T06:43:15Z</time>
      </trkpt>
      <trkpt lat="44.21771" lon="6.01273">
        <ele>921</ele>
        <time>2011-08-17T06:43:24Z</time>
      </trkpt>
      <trkpt lat="44.21779" lon="6.0129">
        <ele>922</ele>
        <time>2011-08-17T06:43:34Z</time>
      </trkpt>
      <trkpt lat="44.21778" lon="6.01337">
        <ele>928</ele>
        <time>2011-08-17T06:43:54Z</time>
      </trkpt>
      <trkpt lat="44.21782" lon="6.01382">
        <ele>930</ele>
        <time>2011-08-17T06:44:12Z</time>
      </trkpt>
      <trkpt lat="44.2179" lon="6.01404">
        <ele>931</ele>
        <time>2011-08-17T06:44:22Z</time>
      </trkpt>
      <trkpt lat="44.21796" lon="6.01396">
        <ele>931</ele>
        <time>2011-08-17T06:44:28Z</time>
      </trkpt>
      <trkpt lat="44.21811" lon="6.01352">
        <ele>931</ele>
        <time>2011-08-17T06:44:46Z</time>
      </trkpt>
      <trkpt lat="44.21832" lon="6.01361">
        <ele>931</ele>
        <time>2011-08-17T06:44:59Z</time>
      </trkpt>
      <trkpt lat="44.21837" lon="6.01406">
        <ele>938</ele>
        <time>2011-08-17T06:45:16Z</time>
      </trkpt>
      <trkpt lat="44.21847" lon="6.01464">
        <ele>945</ele>
        <time>2011-08-17T06:45:38Z</time>
      </trkpt>
      <trkpt lat="44.21856" lon="6.01502">
        <ele>950</ele>
        <time>2011-08-17T06:45:54Z</time>
      </trkpt>
      <trkpt lat="44.21864" lon="6.01543">
        <ele>953</ele>
        <time>2011-08-17T06:46:11Z</time>
      </trkpt>
      <trkpt lat="44.21845" lon="6.01564">
        <ele>954</ele>
        <time>2011-08-17T06:46:24Z</time>
      </trkpt>
      <trkpt lat="44.21832" lon="6.01606">
        <ele>954</ele>
        <time>2011-08-17T06:46:42Z</time>
      </trkpt>
      <trkpt lat="44.21823" lon="6.01657">
        <ele>958</ele>
        <time>2011-08-17T06:47:00Z</time>
      </trkpt>
      <trkpt lat="44.21817" lon="6.01707">
        <ele>963</ele>
        <time>2011-08-17T06:47:18Z</time>
      </trkpt>
      <trkpt lat="44.21817" lon="6.01723">
        <ele>964</ele>
        <time>2011-08-17T06:47:23Z</time>
      </trkpt>
      <trkpt lat="44.21811" lon="6.01777">
        <ele>970</ele>
        <time>2011-08-17T06:47:42Z</time>
      </trkpt>
      <trkpt lat="44.21814" lon="6.018">
        <ele>971</ele>
        <time>2011-08-17T06:47:50Z</time>
      </trkpt>
      <trkpt lat="44.21797" lon="6.01812">
        <ele>972</ele>
        <time>2011-08-17T06:48:02Z</time>
      </trkpt>
      <trkpt lat="44.2176" lon="6.01812">
        <ele>973</ele>
        <time>2011-08-17T06:48:23Z</time>
      </trkpt>
      <trkpt lat="44.21729" lon="6.01813">
        <ele>977</ele>
        <time>2011-08-17T06:48:42Z</time>
      </trkpt>
      <trkpt lat="44.21687" lon="6.01809">
        <ele>980</ele>
        <time>2011-08-17T06:49:05Z</time>
      </trkpt>
      <trkpt lat="44.21661" lon="6.01781">
        <ele>982</ele>
        <time>2011-08-17T06:49:23Z</time>
      </trkpt>
      <trkpt lat="44.21629" lon="6.01765">
        <ele>982</ele>
        <time>2011-08-17T06:49:41Z</time>
      </trkpt>
      <trkpt lat="44.21603" lon="6.01775">
        <ele>983</ele>
        <time>2011-08-17T06:49:58Z</time>
      </trkpt>
      <trkpt lat="44.21598" lon="6.01819">
        <ele>986</ele>
        <time>2011-08-17T06:50:15Z</time>
      </trkpt>
      <trkpt lat="44.21592" lon="6.01871">
        <ele>993</ele>
        <time>2011-08-17T06:50:35Z</time>
      </trkpt>
      <trkpt lat="44.21593" lon="6.01878">
        <ele>993</ele>
        <time>2011-08-17T06:50:38Z</time>
      </trkpt>
      <trkpt lat="44.21603" lon="6.01879">
        <ele>993</ele>
        <time>2011-08-17T06:50:45Z</time>
      </trkpt>
      <trkpt lat="44.21623" lon="6.01859">
        <ele>993</ele>
        <time>2011-08-17T06:50:59Z</time>
      </trkpt>
      <trkpt lat="44.21622" lon="6.01882">
        <ele>994</ele>
        <time>2011-08-17T06:51:09Z</time>
      </trkpt>
      <trkpt lat="44.21605" lon="6.01941">
        <ele>1001</ele>
        <time>2011-08-17T06:51:32Z</time>
      </trkpt>
      <trkpt lat="44.21593" lon="6.01996">
        <ele>1004</ele>
        <time>2011-08-17T06:51:52Z</time>
      </trkpt>
      <trkpt lat="44.21597" lon="6.02017">
        <ele>1009</ele>
        <time>2011-08-17T06:52:01Z</time>
      </trkpt>
      <trkpt lat="44.21605" lon="6.02011">
        <ele>1009</ele>
        <time>2011-08-17T06:52:08Z</time>
      </trkpt>
      <trkpt lat="44.21614" lon="6.01985">
        <ele>1004</ele>
        <time>2011-08-17T06:52:21Z</time>
      </trkpt>
      <trkpt lat="44.2164" lon="6.01985">
        <ele>1006</ele>
        <time>2011-08-17T06:52:37Z</time>
      </trkpt>
      <trkpt lat="44.2164" lon="6.0202">
        <ele>1012</ele>
        <time>2011-08-17T06:52:52Z</time>
      </trkpt>
      <trkpt lat="44.21647" lon="6.02067">
        <ele>1016</ele>
        <time>2011-08-17T06:53:14Z</time>
      </trkpt>
      <trkpt lat="44.21642" lon="6.02112">
        <ele>1020</ele>
        <time>2011-08-17T06:53:33Z</time>
      </trkpt>
      <trkpt lat="44.21632" lon="6.02162">
        <ele>1021</ele>
        <time>2011-08-17T06:53:53Z</time>
      </trkpt>
      <trkpt lat="44.21633" lon="6.02211">
        <ele>1025</ele>
        <time>2011-08-17T06:54:13Z</time>
      </trkpt>
      <trkpt lat="44.21646" lon="6.02287">
        <ele>1032</ele>
        <time>2011-08-17T06:54:42Z</time>
      </trkpt>
      <trkpt lat="44.2165" lon="6.02347">
        <ele>1039</ele>
        <time>2011-08-17T06:55:06Z</time>
      </trkpt>
      <trkpt lat="44.21655" lon="6.02371">
        <ele>1040</ele>
        <time>2011-08-17T06:55:17Z</time>
      </trkpt>
      <trkpt lat="44.21657" lon="6.02413">
        <ele>1043</ele>
        <time>2011-08-17T06:55:36Z</time>
      </trkpt>
      <trkpt lat="44.21662" lon="6.02446">
        <ele>1046</ele>
        <time>2011-08-17T06:55:51Z</time>
      </trkpt>
      <trkpt lat="44.21666" lon="6.0249">
        <ele>1048</ele>
        <time>2011-08-17T06:56:09Z</time>
      </trkpt>
      <trkpt lat="44.21677" lon="6.02532">
        <ele>1052</ele>
        <time>2011-08-17T06:56:27Z</time>
      </trkpt>
      <trkpt lat="44.21694" lon="6.02569">
        <ele>1054</ele>
        <time>2011-08-17T06:56:48Z</time>
      </trkpt>
      <trkpt lat="44.21676" lon="6.02607">
        <ele>1061</ele>
        <time>2011-08-17T06:57:08Z</time>
      </trkpt>
      <trkpt lat="44.21675" lon="6.02653">
        <ele>1063</ele>
        <time>2011-08-17T06:57:28Z</time>
      </trkpt>
      <trkpt lat="44.21692" lon="6.02706">
        <ele>1069</ele>
        <time>2011-08-17T06:57:53Z</time>
      </trkpt>
      <trkpt lat="44.21699" lon="6.02748">
        <ele>1070</ele>
        <time>2011-08-17T06:58:10Z</time>
      </trkpt>
      <trkpt lat="44.21701" lon="6.02771">
        <ele>1074</ele>
        <time>2011-08-17T06:58:20Z</time>
      </trkpt>
      <trkpt lat="44.21711" lon="6.02765">
        <ele>1075</ele>
        <time>2011-08-17T06:58:28Z</time>
      </trkpt>
      <trkpt lat="44.21714" lon="6.02752">
        <ele>1075</ele>
        <time>2011-08-17T06:58:33Z</time>
      </trkpt>
      <trkpt lat="44.21728" lon="6.02712">
        <ele>1072</ele>
        <time>2011-08-17T06:58:50Z</time>
      </trkpt>
      <trkpt lat="44.21751" lon="6.027">
        <ele>1075</ele>
        <time>2011-08-17T06:59:05Z</time>
      </trkpt>
      <trkpt lat="44.21769" lon="6.02725">
        <ele>1076</ele>
        <time>2011-08-17T06:59:21Z</time>
      </trkpt>
      <trkpt lat="44.2178" lon="6.02746">
        <ele>1077</ele>
        <time>2011-08-17T06:59:32Z</time>
      </trkpt>
      <trkpt lat="44.21785" lon="6.02773">
        <ele>1082</ele>
        <time>2011-08-17T06:59:43Z</time>
      </trkpt>
      <trkpt lat="44.21783" lon="6.02827">
        <ele>1084</ele>
        <time>2011-08-17T07:00:04Z</time>
      </trkpt>
      <trkpt lat="44.21784" lon="6.02879">
        <ele>1092</ele>
        <time>2011-08-17T07:00:23Z</time>
      </trkpt>
      <trkpt lat="44.21786" lon="6.02909">
        <ele>1093</ele>
        <time>2011-08-17T07:00:34Z</time>
      </trkpt>
      <trkpt lat="44.21768" lon="6.02955">
        <ele>1099</ele>
        <time>2011-08-17T07:00:54Z</time>
      </trkpt>
      <trkpt lat="44.21763" lon="6.02962">
        <ele>1100</ele>
        <time>2011-08-17T07:00:58Z</time>
      </trkpt>
      <trkpt lat="44.21773" lon="6.02975">
        <ele>1101</ele>
        <time>2011-08-17T07:01:08Z</time>
      </trkpt>
      <trkpt lat="44.218" lon="6.02962">
        <ele>1102</ele>
        <time>2011-08-17T07:01:23Z</time>
      </trkpt>
      <trkpt lat="44.21806" lon="6.02961">
        <ele>1102</ele>
        <time>2011-08-17T07:01:27Z</time>
      </trkpt>
      <trkpt lat="44.2181" lon="6.02983">
        <ele>1104</ele>
        <time>2011-08-17T07:01:37Z</time>
      </trkpt>
      <trkpt lat="44.21799" lon="6.03">
        <ele>1103</ele>
        <time>2011-08-17T07:01:45Z</time>
      </trkpt>
      <trkpt lat="44.21792" lon="6.03006">
        <ele>1107</ele>
        <time>2011-08-17T07:01:49Z</time>
      </trkpt>
      <trkpt lat="44.21776" lon="6.03052">
        <ele>1108</ele>
        <time>2011-08-17T07:02:07Z</time>
      </trkpt>
      <trkpt lat="44.2179" lon="6.03085">
        <ele>1109</ele>
        <time>2011-08-17T07:02:20Z</time>
      </trkpt>
      <trkpt lat="44.21803" lon="6.0312">
        <ele>1108</ele>
        <time>2011-08-17T07:02:27Z</time>
      </trkpt>
      <trkpt lat="44.21824" lon="6.03147">
        <ele>1106</ele>
        <time>2011-08-17T07:02:33Z</time>
      </trkpt>
      <trkpt lat="44.21839" lon="6.03156">
        <ele>1108</ele>
        <time>2011-08-17T07:02:36Z</time>
      </trkpt>
      <trkpt lat="44.2185" lon="6.03176">
        <ele>1106</ele>
        <time>2011-08-17T07:02:40Z</time>
      </trkpt>
      <trkpt lat="44.21874" lon="6.03254">
        <ele>1102</ele>
        <time>2011-08-17T07:02:53Z</time>
      </trkpt>
      <trkpt lat="44.21885" lon="6.03343">
        <ele>1099</ele>
        <time>2011-08-17T07:03:06Z</time>
      </trkpt>
      <trkpt lat="44.21889" lon="6.03374">
        <ele>1098</ele>
        <time>2011-08-17T07:03:10Z</time>
      </trkpt>
      <trkpt lat="44.21889" lon="6.03422">
        <ele>1096</ele>
        <time>2011-08-17T07:03:16Z</time>
      </trkpt>
      <trkpt lat="44.21892" lon="6.03451">
        <ele>1095</ele>
        <time>2011-08-17T07:03:20Z</time>
      </trkpt>
      <trkpt lat="44.21894" lon="6.03499">
        <ele>1096</ele>
        <time>2011-08-17T07:03:26Z</time>
      </trkpt>
      <trkpt lat="44.21867" lon="6.03593">
        <ele>1091</ele>
        <time>2011-08-17T07:03:37Z</time>
      </trkpt>
      <trkpt lat="44.21862" lon="6.03605">
        <ele>1091</ele>
        <time>2011-08-17T07:03:39Z</time>
      </trkpt>
      <trkpt lat="44.21845" lon="6.03699">
        <ele>1088</ele>
        <time>2011-08-17T07:03:51Z</time>
      </trkpt>
      <trkpt lat="44.21827" lon="6.0375">
        <ele>1080</ele>
        <time>2011-08-17T07:03:58Z</time>
      </trkpt>
      <trkpt lat="44.21813" lon="6.03775">
        <ele>1073</ele>
        <time>2011-08-17T07:04:02Z</time>
      </trkpt>
      <trkpt lat="44.21816" lon="6.03807">
        <ele>1071</ele>
        <time>2011-08-17T07:04:07Z</time>
      </trkpt>
      <trkpt lat="44.21826" lon="6.03833">
        <ele>1070</ele>
        <time>2011-08-17T07:04:11Z</time>
      </trkpt>
      <trkpt lat="44.2186" lon="6.03875">
        <ele>1071</ele>
        <time>2011-08-17T07:04:18Z</time>
      </trkpt>
      <trkpt lat="44.21871" lon="6.03916">
        <ele>1069</ele>
        <time>2011-08-17T07:04:22Z</time>
      </trkpt>
      <trkpt lat="44.21878" lon="6.03964">
        <ele>1063</ele>
        <time>2011-08-17T07:04:26Z</time>
      </trkpt>
      <trkpt lat="44.21876" lon="6.03998">
        <ele>1061</ele>
        <time>2011-08-17T07:04:33Z</time>
      </trkpt>
      <trkpt lat="44.21885" lon="6.04026">
        <ele>1056</ele>
        <time>2011-08-17T07:04:38Z</time>
      </trkpt>
      <trkpt lat="44.21892" lon="6.04068">
        <ele>1054</ele>
        <time>2011-08-17T07:04:45Z</time>
      </trkpt>
      <trkpt lat="44.21908" lon="6.04091">
        <ele>1052</ele>
        <time>2011-08-17T07:04:51Z</time>
      </trkpt>
      <trkpt lat="44.21947" lon="6.04115">
        <ele>1057</ele>
        <time>2011-08-17T07:05:00Z</time>
      </trkpt>
      <trkpt lat="44.21961" lon="6.04151">
        <ele>1056</ele>
        <time>2011-08-17T07:05:06Z</time>
      </trkpt>
      <trkpt lat="44.21962" lon="6.04164">
        <ele>1056</ele>
        <time>2011-08-17T07:05:08Z</time>
      </trkpt>
      <trkpt lat="44.21972" lon="6.04203">
        <ele>1052</ele>
        <time>2011-08-17T07:05:14Z</time>
      </trkpt>
      <trkpt lat="44.21992" lon="6.0424">
        <ele>1053</ele>
        <time>2011-08-17T07:05:20Z</time>
      </trkpt>
      <trkpt lat="44.21997" lon="6.0425">
        <ele>1054</ele>
        <time>2011-08-17T07:05:22Z</time>
      </trkpt>
      <trkpt lat="44.22002" lon="6.04275">
        <ele>1060</ele>
        <time>2011-08-17T07:05:26Z</time>
      </trkpt>
      <trkpt lat="44.22011" lon="6.04324">
        <ele>1059</ele>
        <time>2011-08-17T07:05:36Z</time>
      </trkpt>
      <trkpt lat="44.22001" lon="6.044">
        <ele>1058</ele>
        <time>2011-08-17T07:05:49Z</time>
      </trkpt>
      <trkpt lat="44.21999" lon="6.04427">
        <ele>1052</ele>
        <time>2011-08-17T07:05:53Z</time>
      </trkpt>
      <trkpt lat="44.21992" lon="6.04454">
        <ele>1051</ele>
        <time>2011-08-17T07:05:58Z</time>
      </trkpt>
      <trkpt lat="44.21952" lon="6.04531">
        <ele>1054</ele>
        <time>2011-08-17T07:06:14Z</time>
      </trkpt>
      <trkpt lat="44.21937" lon="6.04567">
        <ele>1055</ele>
        <time>2011-08-17T07:06:26Z</time>
      </trkpt>
      <trkpt lat="44.21927" lon="6.04628">
        <ele>1056</ele>
        <time>2011-08-17T07:06:43Z</time>
      </trkpt>
      <trkpt lat="44.21947" lon="6.04642">
        <ele>1057</ele>
        <time>2011-08-17T07:06:54Z</time>
      </trkpt>
      <trkpt lat="44.21992" lon="6.04643">
        <ele>1059</ele>
        <time>2011-08-17T07:07:10Z</time>
      </trkpt>
      <trkpt lat="44.22023" lon="6.047">
        <ele>1064</ele>
        <time>2011-08-17T07:07:24Z</time>
      </trkpt>
      <trkpt lat="44.22076" lon="6.04825">
        <ele>1064</ele>
        <time>2011-08-17T07:07:52Z</time>
      </trkpt>
      <trkpt lat="44.22109" lon="6.049">
        <ele>1067</ele>
        <time>2011-08-17T07:08:10Z</time>
      </trkpt>
      <trkpt lat="44.22121" lon="6.04966">
        <ele>1064</ele>
        <time>2011-08-17T07:08:23Z</time>
      </trkpt>
      <trkpt lat="44.22126" lon="6.04981">
        <ele>1064</ele>
        <time>2011-08-17T07:08:26Z</time>
      </trkpt>
      <trkpt lat="44.22148" lon="6.04989">
        <ele>1066</ele>
        <time>2011-08-17T07:08:32Z</time>
      </trkpt>
      <trkpt lat="44.22156" lon="6.04987">
        <ele>1066</ele>
        <time>2011-08-17T07:08:34Z</time>
      </trkpt>
      <trkpt lat="44.22183" lon="6.05009">
        <ele>1068</ele>
        <time>2011-08-17T07:08:42Z</time>
      </trkpt>
      <trkpt lat="44.22214" lon="6.05081">
        <ele>1068</ele>
        <time>2011-08-17T07:08:58Z</time>
      </trkpt>
      <trkpt lat="44.22256" lon="6.05101">
        <ele>1070</ele>
        <time>2011-08-17T07:09:11Z</time>
      </trkpt>
      <trkpt lat="44.22306" lon="6.05124">
        <ele>1070</ele>
        <time>2011-08-17T07:09:29Z</time>
      </trkpt>
      <trkpt lat="44.22331" lon="6.0515">
        <ele>1070</ele>
        <time>2011-08-17T07:09:38Z</time>
      </trkpt>
      <trkpt lat="44.22364" lon="6.05148">
        <ele>1071</ele>
        <time>2011-08-17T07:09:46Z</time>
      </trkpt>
      <trkpt lat="44.22388" lon="6.05121">
        <ele>1072</ele>
        <time>2011-08-17T07:09:52Z</time>
      </trkpt>
      <trkpt lat="44.22421" lon="6.05129">
        <ele>1073</ele>
        <time>2011-08-17T07:09:59Z</time>
      </trkpt>
      <trkpt lat="44.22422" lon="6.05131">
        <ele>1073</ele>
        <time>2011-08-17T07:10:00Z</time>
      </trkpt>
      <trkpt lat="44.22424" lon="6.05135">
        <ele>1073</ele>
        <time>2011-08-17T07:10:02Z</time>
      </trkpt>
      <trkpt lat="44.22424" lon="6.05138">
        <ele>1073</ele>
        <time>2011-08-17T07:10:18Z</time>
      </trkpt>
      <trkpt lat="44.22429" lon="6.05128">
        <ele>1074</ele>
        <time>2011-08-17T07:10:33Z</time>
      </trkpt>
      <trkpt lat="44.22432" lon="6.05121">
        <ele>1074</ele>
        <time>2011-08-17T07:10:39Z</time>
      </trkpt>
      <trkpt lat="44.22435" lon="6.05108">
        <ele>1075</ele>
        <time>2011-08-17T07:10:53Z</time>
      </trkpt>
      <trkpt lat="44.22443" lon="6.05106">
        <ele>1075</ele>
        <time>2011-08-17T07:11:06Z</time>
      </trkpt>
      <trkpt lat="44.22455" lon="6.051">
        <ele>1076</ele>
        <time>2011-08-17T07:11:21Z</time>
      </trkpt>
      <trkpt lat="44.2246" lon="6.05103">
        <ele>1076</ele>
        <time>2011-08-17T07:11:28Z</time>
      </trkpt>
      <trkpt lat="44.22473" lon="6.05109">
        <ele>1077</ele>
        <time>2011-08-17T07:11:45Z</time>
      </trkpt>
      <trkpt lat="44.22476" lon="6.05112">
        <ele>1077</ele>
        <time>2011-08-17T07:11:49Z</time>
      </trkpt>
      <trkpt lat="44.22488" lon="6.05115">
        <ele>1077</ele>
        <time>2011-08-17T07:12:02Z</time>
      </trkpt>
      <trkpt lat="44.22502" lon="6.0512">
        <ele>1083</ele>
        <time>2011-08-17T07:12:11Z</time>
      </trkpt>
      <trkpt lat="44.2253" lon="6.05124">
        <ele>1084</ele>
        <time>2011-08-17T07:12:25Z</time>
      </trkpt>
      <trkpt lat="44.22543" lon="6.05129">
        <ele>1085</ele>
        <time>2011-08-17T07:12:35Z</time>
      </trkpt>
      <trkpt lat="44.22557" lon="6.05131">
        <ele>1085</ele>
        <time>2011-08-17T07:12:51Z</time>
      </trkpt>
      <trkpt lat="44.22572" lon="6.05133">
        <ele>1085</ele>
        <time>2011-08-17T07:12:59Z</time>
      </trkpt>
      <trkpt lat="44.22576" lon="6.05133">
        <ele>1085</ele>
        <time>2011-08-17T07:13:01Z</time>
      </trkpt>
      <trkpt lat="44.22581" lon="6.05136">
        <ele>1085</ele>
        <time>2011-08-17T07:13:04Z</time>
      </trkpt>
      <trkpt lat="44.22588" lon="6.05138">
        <ele>1090</ele>
        <time>2011-08-17T07:13:09Z</time>
      </trkpt>
      <trkpt lat="44.22602" lon="6.05134">
        <ele>1091</ele>
        <time>2011-08-17T07:13:17Z</time>
      </trkpt>
      <trkpt lat="44.22616" lon="6.0514">
        <ele>1092</ele>
        <time>2011-08-17T07:13:28Z</time>
      </trkpt>
      <trkpt lat="44.22627" lon="6.05147">
        <ele>1092</ele>
        <time>2011-08-17T07:13:43Z</time>
      </trkpt>
      <trkpt lat="44.2263" lon="6.05152">
        <ele>1092</ele>
        <time>2011-08-17T07:13:48Z</time>
      </trkpt>
      <trkpt lat="44.22631" lon="6.05158">
        <ele>1092</ele>
        <time>2011-08-17T07:14:00Z</time>
      </trkpt>
      <trkpt lat="44.22643" lon="6.05169">
        <ele>1086</ele>
        <time>2011-08-17T07:14:10Z</time>
      </trkpt>
      <trkpt lat="44.22653" lon="6.05169">
        <ele>1088</ele>
        <time>2011-08-17T07:14:14Z</time>
      </trkpt>
      <trkpt lat="44.22673" lon="6.05186">
        <ele>1091</ele>
        <time>2011-08-17T07:14:25Z</time>
      </trkpt>
      <trkpt lat="44.22704" lon="6.05192">
        <ele>1092</ele>
        <time>2011-08-17T07:14:38Z</time>
      </trkpt>
      <trkpt lat="44.22708" lon="6.05185">
        <ele>1092</ele>
        <time>2011-08-17T07:14:45Z</time>
      </trkpt>
      <trkpt lat="44.22712" lon="6.05186">
        <ele>1093</ele>
        <time>2011-08-17T07:14:51Z</time>
      </trkpt>
      <trkpt lat="44.22721" lon="6.05175">
        <ele>1094</ele>
        <time>2011-08-17T07:15:08Z</time>
      </trkpt>
      <trkpt lat="44.22725" lon="6.05172">
        <ele>1095</ele>
        <time>2011-08-17T07:15:13Z</time>
      </trkpt>
      <trkpt lat="44.22728" lon="6.05167">
        <ele>1095</ele>
        <time>2011-08-17T07:15:19Z</time>
      </trkpt>
      <trkpt lat="44.22732" lon="6.05159">
        <ele>1100</ele>
        <time>2011-08-17T07:15:28Z</time>
      </trkpt>
      <trkpt lat="44.2275" lon="6.05155">
        <ele>1100</ele>
        <time>2011-08-17T07:15:52Z</time>
      </trkpt>
      <trkpt lat="44.22753" lon="6.05157">
        <ele>1102</ele>
        <time>2011-08-17T07:16:03Z</time>
      </trkpt>
      <trkpt lat="44.22755" lon="6.0516">
        <ele>1102</ele>
        <time>2011-08-17T07:16:14Z</time>
      </trkpt>
      <trkpt lat="44.2276" lon="6.05164">
        <ele>1102</ele>
        <time>2011-08-17T07:16:17Z</time>
      </trkpt>
      <trkpt lat="44.22789" lon="6.0518">
        <ele>1101</ele>
        <time>2011-08-17T07:16:32Z</time>
      </trkpt>
      <trkpt lat="44.22819" lon="6.05196">
        <ele>1102</ele>
        <time>2011-08-17T07:16:48Z</time>
      </trkpt>
      <trkpt lat="44.22834" lon="6.05205">
        <ele>1106</ele>
        <time>2011-08-17T07:16:57Z</time>
      </trkpt>
      <trkpt lat="44.22848" lon="6.05204">
        <ele>1107</ele>
        <time>2011-08-17T07:17:05Z</time>
      </trkpt>
      <trkpt lat="44.22853" lon="6.05202">
        <ele>1107</ele>
        <time>2011-08-17T07:17:15Z</time>
      </trkpt>
      <trkpt lat="44.22856" lon="6.05202">
        <ele>1107</ele>
        <time>2011-08-17T07:17:18Z</time>
      </trkpt>
      <trkpt lat="44.22866" lon="6.05206">
        <ele>1108</ele>
        <time>2011-08-17T07:17:28Z</time>
      </trkpt>
      <trkpt lat="44.22872" lon="6.05217">
        <ele>1107</ele>
        <time>2011-08-17T07:17:37Z</time>
      </trkpt>
      <trkpt lat="44.22882" lon="6.05226">
        <ele>1108</ele>
        <time>2011-08-17T07:17:53Z</time>
      </trkpt>
      <trkpt lat="44.22914" lon="6.0525">
        <ele>1109</ele>
        <time>2011-08-17T07:18:12Z</time>
      </trkpt>
      <trkpt lat="44.22947" lon="6.05258">
        <ele>1109</ele>
        <time>2011-08-17T07:18:28Z</time>
      </trkpt>
      <trkpt lat="44.2295" lon="6.05257">
        <ele>1109</ele>
        <time>2011-08-17T07:18:29Z</time>
      </trkpt>
      <trkpt lat="44.22953" lon="6.05265">
        <ele>1109</ele>
        <time>2011-08-17T07:18:34Z</time>
      </trkpt>
      <trkpt lat="44.22973" lon="6.05296">
        <ele>1109</ele>
        <time>2011-08-17T07:18:47Z</time>
      </trkpt>
      <trkpt lat="44.2299" lon="6.05309">
        <ele>1109</ele>
        <time>2011-08-17T07:18:56Z</time>
      </trkpt>
      <trkpt lat="44.2299" lon="6.05309">
        <ele>1109</ele>
        <time>2011-08-17T07:18:57Z</time>
      </trkpt>
      <trkpt lat="44.22998" lon="6.05309">
        <ele>1109</ele>
        <time>2011-08-17T07:19:11Z</time>
      </trkpt>
      <trkpt lat="44.22999" lon="6.05309">
        <ele>1109</ele>
        <time>2011-08-17T07:19:14Z</time>
      </trkpt>
      <trkpt lat="44.23001" lon="6.05314">
        <ele>1113</ele>
        <time>2011-08-17T07:19:18Z</time>
      </trkpt>
      <trkpt lat="44.23002" lon="6.05318">
        <ele>1112</ele>
        <time>2011-08-17T07:19:21Z</time>
      </trkpt>
      <trkpt lat="44.23007" lon="6.05338">
        <ele>1110</ele>
        <time>2011-08-17T07:19:39Z</time>
      </trkpt>
      <trkpt lat="44.23009" lon="6.05355">
        <ele>1112</ele>
        <time>2011-08-17T07:19:43Z</time>
      </trkpt>
      <trkpt lat="44.23039" lon="6.05387">
        <ele>1113</ele>
        <time>2011-08-17T07:19:58Z</time>
      </trkpt>
      <trkpt lat="44.23047" lon="6.05399">
        <ele>1114</ele>
        <time>2011-08-17T07:20:08Z</time>
      </trkpt>
      <trkpt lat="44.23047" lon="6.05399">
        <ele>1114</ele>
        <time>2011-08-17T07:20:11Z</time>
      </trkpt>
      <trkpt lat="44.23048" lon="6.05421">
        <ele>1112</ele>
        <time>2011-08-17T07:20:26Z</time>
      </trkpt>
      <trkpt lat="44.23058" lon="6.0546">
        <ele>1111</ele>
        <time>2011-08-17T07:20:38Z</time>
      </trkpt>
      <trkpt lat="44.23059" lon="6.05464">
        <ele>1111</ele>
        <time>2011-08-17T07:20:39Z</time>
      </trkpt>
      <trkpt lat="44.23084" lon="6.05509">
        <ele>1115</ele>
        <time>2011-08-17T07:20:57Z</time>
      </trkpt>
      <trkpt lat="44.23104" lon="6.05526">
        <ele>1115</ele>
        <time>2011-08-17T07:21:07Z</time>
      </trkpt>
      <trkpt lat="44.23126" lon="6.05528">
        <ele>1116</ele>
        <time>2011-08-17T07:21:20Z</time>
      </trkpt>
      <trkpt lat="44.23153" lon="6.05535">
        <ele>1117</ele>
        <time>2011-08-17T07:21:32Z</time>
      </trkpt>
      <trkpt lat="44.2316" lon="6.05539">
        <ele>1117</ele>
        <time>2011-08-17T07:21:36Z</time>
      </trkpt>
      <trkpt lat="44.23176" lon="6.0555">
        <ele>1118</ele>
        <time>2011-08-17T07:21:44Z</time>
      </trkpt>
      <trkpt lat="44.23207" lon="6.05552">
        <ele>1117</ele>
        <time>2011-08-17T07:21:58Z</time>
      </trkpt>
      <trkpt lat="44.23226" lon="6.0554">
        <ele>1117</ele>
        <time>2011-08-17T07:22:02Z</time>
      </trkpt>
      <trkpt lat="44.23243" lon="6.0554">
        <ele>1117</ele>
        <time>2011-08-17T07:22:06Z</time>
      </trkpt>
      <trkpt lat="44.23255" lon="6.05538">
        <ele>1116</ele>
        <time>2011-08-17T07:22:09Z</time>
      </trkpt>
      <trkpt lat="44.23257" lon="6.05539">
        <ele>1116</ele>
        <time>2011-08-17T07:22:11Z</time>
      </trkpt>
      <trkpt lat="44.23268" lon="6.05553">
        <ele>1116</ele>
        <time>2011-08-17T07:22:18Z</time>
      </trkpt>
      <trkpt lat="44.233" lon="6.0555">
        <ele>1116</ele>
        <time>2011-08-17T07:22:29Z</time>
      </trkpt>
      <trkpt lat="44.23308" lon="6.05548">
        <ele>1116</ele>
        <time>2011-08-17T07:22:36Z</time>
      </trkpt>
      <trkpt lat="44.2331" lon="6.05548">
        <ele>1116</ele>
        <time>2011-08-17T07:22:39Z</time>
      </trkpt>
      <trkpt lat="44.23324" lon="6.05551">
        <ele>1115</ele>
        <time>2011-08-17T07:22:56Z</time>
      </trkpt>
      <trkpt lat="44.23344" lon="6.05555">
        <ele>1116</ele>
        <time>2011-08-17T07:23:07Z</time>
      </trkpt>
      <trkpt lat="44.23346" lon="6.05556">
        <ele>1116</ele>
        <time>2011-08-17T07:23:28Z</time>
      </trkpt>
      <trkpt lat="44.23346" lon="6.05557">
        <ele>1116</ele>
        <time>2011-08-17T07:23:50Z</time>
      </trkpt>
      <trkpt lat="44.23347" lon="6.05559">
        <ele>1116</ele>
        <time>2011-08-17T07:23:52Z</time>
      </trkpt>
      <trkpt lat="44.2336" lon="6.05565">
        <ele>1116</ele>
        <time>2011-08-17T07:24:05Z</time>
      </trkpt>
      <trkpt lat="44.23403" lon="6.05568">
        <ele>1116</ele>
        <time>2011-08-17T07:24:22Z</time>
      </trkpt>
      <trkpt lat="44.23441" lon="6.05571">
        <ele>1119</ele>
        <time>2011-08-17T07:24:34Z</time>
      </trkpt>
      <trkpt lat="44.23486" lon="6.05576">
        <ele>1121</ele>
        <time>2011-08-17T07:24:49Z</time>
      </trkpt>
      <trkpt lat="44.23523" lon="6.05593">
        <ele>1118</ele>
        <time>2011-08-17T07:25:07Z</time>
      </trkpt>
      <trkpt lat="44.23568" lon="6.05618">
        <ele>1118</ele>
        <time>2011-08-17T07:25:26Z</time>
      </trkpt>
      <trkpt lat="44.23638" lon="6.05647">
        <ele>1118</ele>
        <time>2011-08-17T07:25:43Z</time>
      </trkpt>
      <trkpt lat="44.23718" lon="6.05676">
        <ele>1109</ele>
        <time>2011-08-17T07:25:55Z</time>
      </trkpt>
      <trkpt lat="44.23748" lon="6.05696">
        <ele>1108</ele>
        <time>2011-08-17T07:25:59Z</time>
      </trkpt>
      <trkpt lat="44.23784" lon="6.05725">
        <ele>1106</ele>
        <time>2011-08-17T07:26:08Z</time>
      </trkpt>
      <trkpt lat="44.23789" lon="6.05728">
        <ele>1105</ele>
        <time>2011-08-17T07:26:10Z</time>
      </trkpt>
      <trkpt lat="44.23792" lon="6.05721">
        <ele>1106</ele>
        <time>2011-08-17T07:26:15Z</time>
      </trkpt>
      <trkpt lat="44.23789" lon="6.05718">
        <ele>1106</ele>
        <time>2011-08-17T07:26:21Z</time>
      </trkpt>
      <trkpt lat="44.23788" lon="6.05715">
        <ele>1106</ele>
        <time>2011-08-17T07:26:23Z</time>
      </trkpt>
      <trkpt lat="44.23789" lon="6.05708">
        <ele>1106</ele>
        <time>2011-08-17T07:26:28Z</time>
      </trkpt>
      <trkpt lat="44.23795" lon="6.05699">
        <ele>1106</ele>
        <time>2011-08-17T07:26:43Z</time>
      </trkpt>
      <trkpt lat="44.2381" lon="6.0568">
        <ele>1107</ele>
        <time>2011-08-17T07:27:01Z</time>
      </trkpt>
      <trkpt lat="44.23842" lon="6.05638">
        <ele>1107</ele>
        <time>2011-08-17T07:27:18Z</time>
      </trkpt>
      <trkpt lat="44.2388" lon="6.05585">
        <ele>1106</ele>
        <time>2011-08-17T07:27:38Z</time>
      </trkpt>
      <trkpt lat="44.23895" lon="6.05536">
        <ele>1109</ele>
        <time>2011-08-17T07:27:48Z</time>
      </trkpt>
      <trkpt lat="44.23914" lon="6.05499">
        <ele>1108</ele>
        <time>2011-08-17T07:27:54Z</time>
      </trkpt>
      <trkpt lat="44.23938" lon="6.05457">
        <ele>1107</ele>
        <time>2011-08-17T07:28:01Z</time>
      </trkpt>
      <trkpt lat="44.23965" lon="6.05411">
        <ele>1108</ele>
        <time>2011-08-17T07:28:12Z</time>
      </trkpt>
      <trkpt lat="44.23999" lon="6.05355">
        <ele>1109</ele>
        <time>2011-08-17T07:28:26Z</time>
      </trkpt>
      <trkpt lat="44.24038" lon="6.05306">
        <ele>1105</ele>
        <time>2011-08-17T07:28:41Z</time>
      </trkpt>
      <trkpt lat="44.24062" lon="6.0525">
        <ele>1106</ele>
        <time>2011-08-17T07:28:53Z</time>
      </trkpt>
      <trkpt lat="44.24066" lon="6.05239">
        <ele>1106</ele>
        <time>2011-08-17T07:28:55Z</time>
      </trkpt>
      <trkpt lat="44.24077" lon="6.05223">
        <ele>1106</ele>
        <time>2011-08-17T07:28:58Z</time>
      </trkpt>
      <trkpt lat="44.24095" lon="6.05215">
        <ele>1102</ele>
        <time>2011-08-17T07:29:02Z</time>
      </trkpt>
      <trkpt lat="44.24118" lon="6.05228">
        <ele>1102</ele>
        <time>2011-08-17T07:29:07Z</time>
      </trkpt>
      <trkpt lat="44.24206" lon="6.0529">
        <ele>1097</ele>
        <time>2011-08-17T07:29:25Z</time>
      </trkpt>
      <trkpt lat="44.24232" lon="6.05305">
        <ele>1097</ele>
        <time>2011-08-17T07:29:30Z</time>
      </trkpt>
      <trkpt lat="44.24245" lon="6.0531">
        <ele>1096</ele>
        <time>2011-08-17T07:29:33Z</time>
      </trkpt>
      <trkpt lat="44.24305" lon="6.05302">
        <ele>1096</ele>
        <time>2011-08-17T07:29:45Z</time>
      </trkpt>
      <trkpt lat="44.24372" lon="6.05281">
        <ele>1101</ele>
        <time>2011-08-17T07:30:00Z</time>
      </trkpt>
      <trkpt lat="44.24373" lon="6.05279">
        <ele>1101</ele>
        <time>2011-08-17T07:30:01Z</time>
      </trkpt>
      <trkpt lat="44.24375" lon="6.05277">
        <ele>1101</ele>
        <time>2011-08-17T07:30:03Z</time>
      </trkpt>
      <trkpt lat="44.2437" lon="6.0528">
        <ele>1101</ele>
        <time>2011-08-17T07:30:10Z</time>
      </trkpt>
      <trkpt lat="44.24373" lon="6.0533">
        <ele>1101</ele>
        <time>2011-08-17T07:30:23Z</time>
      </trkpt>
      <trkpt lat="44.24382" lon="6.05397">
        <ele>1102</ele>
        <time>2011-08-17T07:30:40Z</time>
      </trkpt>
      <trkpt lat="44.24384" lon="6.05412">
        <ele>1103</ele>
        <time>2011-08-17T07:30:44Z</time>
      </trkpt>
      <trkpt lat="44.24361" lon="6.05445">
        <ele>1103</ele>
        <time>2011-08-17T07:30:56Z</time>
      </trkpt>
      <trkpt lat="44.24343" lon="6.05464">
        <ele>1103</ele>
        <time>2011-08-17T07:31:01Z</time>
      </trkpt>
      <trkpt lat="44.24321" lon="6.05484">
        <ele>1099</ele>
        <time>2011-08-17T07:31:07Z</time>
      </trkpt>
      <trkpt lat="44.24311" lon="6.05497">
        <ele>1099</ele>
        <time>2011-08-17T07:31:10Z</time>
      </trkpt>
      <trkpt lat="44.24292" lon="6.05561">
        <ele>1101</ele>
        <time>2011-08-17T07:31:23Z</time>
      </trkpt>
      <trkpt lat="44.24271" lon="6.0564">
        <ele>1105</ele>
        <time>2011-08-17T07:31:43Z</time>
      </trkpt>
      <trkpt lat="44.24267" lon="6.05713">
        <ele>1108</ele>
        <time>2011-08-17T07:32:00Z</time>
      </trkpt>
      <trkpt lat="44.24247" lon="6.05753">
        <ele>1107</ele>
        <time>2011-08-17T07:32:11Z</time>
      </trkpt>
      <trkpt lat="44.24242" lon="6.05761">
        <ele>1106</ele>
        <time>2011-08-17T07:32:13Z</time>
      </trkpt>
      <trkpt lat="44.24212" lon="6.05828">
        <ele>1106</ele>
        <time>2011-08-17T07:32:28Z</time>
      </trkpt>
      <trkpt lat="44.24183" lon="6.05899">
        <ele>1108</ele>
        <time>2011-08-17T07:32:46Z</time>
      </trkpt>
      <trkpt lat="44.24163" lon="6.05967">
        <ele>1111</ele>
        <time>2011-08-17T07:33:06Z</time>
      </trkpt>
      <trkpt lat="44.24165" lon="6.06024">
        <ele>1113</ele>
        <time>2011-08-17T07:33:23Z</time>
      </trkpt>
      <trkpt lat="44.24161" lon="6.06081">
        <ele>1116</ele>
        <time>2011-08-17T07:33:39Z</time>
      </trkpt>
      <trkpt lat="44.24144" lon="6.06166">
        <ele>1117</ele>
        <time>2011-08-17T07:33:57Z</time>
      </trkpt>
      <trkpt lat="44.24128" lon="6.06253">
        <ele>1118</ele>
        <time>2011-08-17T07:34:12Z</time>
      </trkpt>
      <trkpt lat="44.2411" lon="6.06353">
        <ele>1120</ele>
        <time>2011-08-17T07:34:28Z</time>
      </trkpt>
      <trkpt lat="44.24108" lon="6.06359">
        <ele>1120</ele>
        <time>2011-08-17T07:34:29Z</time>
      </trkpt>
      <trkpt lat="44.24102" lon="6.06377">
        <ele>1120</ele>
        <time>2011-08-17T07:34:32Z</time>
      </trkpt>
      <trkpt lat="44.24074" lon="6.06483">
        <ele>1118</ele>
        <time>2011-08-17T07:34:49Z</time>
      </trkpt>
      <trkpt lat="44.2405" lon="6.06542">
        <ele>1120</ele>
        <time>2011-08-17T07:35:02Z</time>
      </trkpt>
      <trkpt lat="44.24042" lon="6.06579">
        <ele>1120</ele>
        <time>2011-08-17T07:35:09Z</time>
      </trkpt>
      <trkpt lat="44.2403" lon="6.06676">
        <ele>1124</ele>
        <time>2011-08-17T07:35:29Z</time>
      </trkpt>
      <trkpt lat="44.24029" lon="6.06723">
        <ele>1124</ele>
        <time>2011-08-17T07:35:41Z</time>
      </trkpt>
      <trkpt lat="44.24031" lon="6.06809">
        <ele>1125</ele>
        <time>2011-08-17T07:35:57Z</time>
      </trkpt>
      <trkpt lat="44.24033" lon="6.06913">
        <ele>1128</ele>
        <time>2011-08-17T07:36:17Z</time>
      </trkpt>
      <trkpt lat="44.24035" lon="6.06963">
        <ele>1129</ele>
        <time>2011-08-17T07:36:29Z</time>
      </trkpt>
      <trkpt lat="44.24034" lon="6.07033">
        <ele>1131</ele>
        <time>2011-08-17T07:36:46Z</time>
      </trkpt>
      <trkpt lat="44.24008" lon="6.07093">
        <ele>1132</ele>
        <time>2011-08-17T07:37:03Z</time>
      </trkpt>
      <trkpt lat="44.23984" lon="6.07169">
        <ele>1136</ele>
        <time>2011-08-17T07:37:22Z</time>
      </trkpt>
      <trkpt lat="44.23965" lon="6.07267">
        <ele>1140</ele>
        <time>2011-08-17T07:37:44Z</time>
      </trkpt>
      <trkpt lat="44.23959" lon="6.07308">
        <ele>1141</ele>
        <time>2011-08-17T07:37:58Z</time>
      </trkpt>
      <trkpt lat="44.23965" lon="6.07342">
        <ele>1143</ele>
        <time>2011-08-17T07:38:09Z</time>
      </trkpt>
      <trkpt lat="44.23958" lon="6.07409">
        <ele>1143</ele>
        <time>2011-08-17T07:38:24Z</time>
      </trkpt>
      <trkpt lat="44.23949" lon="6.07495">
        <ele>1144</ele>
        <time>2011-08-17T07:38:42Z</time>
      </trkpt>
      <trkpt lat="44.23944" lon="6.07591">
        <ele>1148</ele>
        <time>2011-08-17T07:39:03Z</time>
      </trkpt>
      <trkpt lat="44.23932" lon="6.07662">
        <ele>1148</ele>
        <time>2011-08-17T07:39:20Z</time>
      </trkpt>
      <trkpt lat="44.23917" lon="6.07715">
        <ele>1147</ele>
        <time>2011-08-17T07:39:34Z</time>
      </trkpt>
      <trkpt lat="44.23896" lon="6.07793">
        <ele>1149</ele>
        <time>2011-08-17T07:39:52Z</time>
      </trkpt>
      <trkpt lat="44.23891" lon="6.07816">
        <ele>1149</ele>
        <time>2011-08-17T07:39:57Z</time>
      </trkpt>
      <trkpt lat="44.23875" lon="6.0788">
        <ele>1142</ele>
        <time>2011-08-17T07:40:11Z</time>
      </trkpt>
      <trkpt lat="44.23872" lon="6.07887">
        <ele>1142</ele>
        <time>2011-08-17T07:40:16Z</time>
      </trkpt>
      <trkpt lat="44.23876" lon="6.07882">
        <ele>1142</ele>
        <time>2011-08-17T07:40:23Z</time>
      </trkpt>
      <trkpt lat="44.23896" lon="6.07911">
        <ele>1139</ele>
        <time>2011-08-17T07:40:32Z</time>
      </trkpt>
      <trkpt lat="44.23916" lon="6.07932">
        <ele>1131</ele>
        <time>2011-08-17T07:40:38Z</time>
      </trkpt>
      <trkpt lat="44.23919" lon="6.07945">
        <ele>1129</ele>
        <time>2011-08-17T07:40:46Z</time>
      </trkpt>
      <trkpt lat="44.2392" lon="6.07945">
        <ele>1129</ele>
        <time>2011-08-17T07:41:15Z</time>
      </trkpt>
      <trkpt lat="44.23917" lon="6.07944">
        <ele>1129</ele>
        <time>2011-08-17T07:47:38Z</time>
      </trkpt>
      <trkpt lat="44.23913" lon="6.07945">
        <ele>1129</ele>
        <time>2011-08-17T07:47:53Z</time>
      </trkpt>
      <trkpt lat="44.23902" lon="6.07943">
        <ele>1129</ele>
        <time>2011-08-17T07:48:03Z</time>
      </trkpt>
      <trkpt lat="44.2388" lon="6.07952">
        <ele>1128</ele>
        <time>2011-08-17T07:48:07Z</time>
      </trkpt>
      <trkpt lat="44.23851" lon="6.07957">
        <ele>1129</ele>
        <time>2011-08-17T07:48:12Z</time>
      </trkpt>
      <trkpt lat="44.23838" lon="6.07981">
        <ele>1126</ele>
        <time>2011-08-17T07:48:17Z</time>
      </trkpt>
      <trkpt lat="44.23836" lon="6.08008">
        <ele>1120</ele>
        <time>2011-08-17T07:48:20Z</time>
      </trkpt>
      <trkpt lat="44.23832" lon="6.08042">
        <ele>1122</ele>
        <time>2011-08-17T07:48:23Z</time>
      </trkpt>
      <trkpt lat="44.23826" lon="6.08062">
        <ele>1119</ele>
        <time>2011-08-17T07:48:25Z</time>
      </trkpt>
      <trkpt lat="44.23816" lon="6.08089">
        <ele>1111</ele>
        <time>2011-08-17T07:48:28Z</time>
      </trkpt>
      <trkpt lat="44.23811" lon="6.08124">
        <ele>1109</ele>
        <time>2011-08-17T07:48:33Z</time>
      </trkpt>
      <trkpt lat="44.23777" lon="6.0817">
        <ele>1094</ele>
        <time>2011-08-17T07:48:41Z</time>
      </trkpt>
      <trkpt lat="44.2375" lon="6.08195">
        <ele>1102</ele>
        <time>2011-08-17T07:48:46Z</time>
      </trkpt>
      <trkpt lat="44.23716" lon="6.08228">
        <ele>1093</ele>
        <time>2011-08-17T07:48:56Z</time>
      </trkpt>
      <trkpt lat="44.23679" lon="6.08247">
        <ele>1084</ele>
        <time>2011-08-17T07:49:09Z</time>
      </trkpt>
      <trkpt lat="44.23675" lon="6.08247">
        <ele>1082</ele>
        <time>2011-08-17T07:49:14Z</time>
      </trkpt>
      <trkpt lat="44.23669" lon="6.08255">
        <ele>1071</ele>
        <time>2011-08-17T07:49:22Z</time>
      </trkpt>
      <trkpt lat="44.23635" lon="6.08271">
        <ele>1073</ele>
        <time>2011-08-17T07:49:33Z</time>
      </trkpt>
      <trkpt lat="44.23602" lon="6.08286">
        <ele>1075</ele>
        <time>2011-08-17T07:49:43Z</time>
      </trkpt>
      <trkpt lat="44.23571" lon="6.08288">
        <ele>1081</ele>
        <time>2011-08-17T07:49:54Z</time>
      </trkpt>
      <trkpt lat="44.23548" lon="6.08287">
        <ele>1081</ele>
        <time>2011-08-17T07:50:06Z</time>
      </trkpt>
      <trkpt lat="44.23517" lon="6.08289">
        <ele>1080</ele>
        <time>2011-08-17T07:50:22Z</time>
      </trkpt>
      <trkpt lat="44.23495" lon="6.08287">
        <ele>1075</ele>
        <time>2011-08-17T07:50:38Z</time>
      </trkpt>
      <trkpt lat="44.23478" lon="6.08274">
        <ele>1077</ele>
        <time>2011-08-17T07:50:50Z</time>
      </trkpt>
      <trkpt lat="44.23452" lon="6.08254">
        <ele>1075</ele>
        <time>2011-08-17T07:51:01Z</time>
      </trkpt>
      <trkpt lat="44.23422" lon="6.08232">
        <ele>1091</ele>
        <time>2011-08-17T07:51:15Z</time>
      </trkpt>
      <trkpt lat="44.23404" lon="6.08221">
        <ele>1086</ele>
        <time>2011-08-17T07:51:22Z</time>
      </trkpt>
      <trkpt lat="44.23379" lon="6.08213">
        <ele>1087</ele>
        <time>2011-08-17T07:51:27Z</time>
      </trkpt>
      <trkpt lat="44.2335" lon="6.08213">
        <ele>1085</ele>
        <time>2011-08-17T07:51:37Z</time>
      </trkpt>
      <trkpt lat="44.23323" lon="6.08222">
        <ele>1072</ele>
        <time>2011-08-17T07:51:47Z</time>
      </trkpt>
      <trkpt lat="44.23298" lon="6.08223">
        <ele>1070</ele>
        <time>2011-08-17T07:51:54Z</time>
      </trkpt>
      <trkpt lat="44.23282" lon="6.0821">
        <ele>1069</ele>
        <time>2011-08-17T07:52:00Z</time>
      </trkpt>
      <trkpt lat="44.2327" lon="6.08171">
        <ele>1072</ele>
        <time>2011-08-17T07:52:11Z</time>
      </trkpt>
      <trkpt lat="44.23258" lon="6.08139">
        <ele>1086</ele>
        <time>2011-08-17T07:52:22Z</time>
      </trkpt>
      <trkpt lat="44.23237" lon="6.08103">
        <ele>1076</ele>
        <time>2011-08-17T07:52:32Z</time>
      </trkpt>
      <trkpt lat="44.23223" lon="6.08094">
        <ele>1075</ele>
        <time>2011-08-17T07:52:38Z</time>
      </trkpt>
      <trkpt lat="44.23199" lon="6.08075">
        <ele>1081</ele>
        <time>2011-08-17T07:52:47Z</time>
      </trkpt>
      <trkpt lat="44.23189" lon="6.08073">
        <ele>1078</ele>
        <time>2011-08-17T07:52:50Z</time>
      </trkpt>
      <trkpt lat="44.23175" lon="6.08065">
        <ele>1077</ele>
        <time>2011-08-17T07:52:54Z</time>
      </trkpt>
      <trkpt lat="44.23165" lon="6.08054">
        <ele>1068</ele>
        <time>2011-08-17T07:52:59Z</time>
      </trkpt>
      <trkpt lat="44.23155" lon="6.08064">
        <ele>1067</ele>
        <time>2011-08-17T07:53:07Z</time>
      </trkpt>
      <trkpt lat="44.23127" lon="6.08056">
        <ele>1065</ele>
        <time>2011-08-17T07:53:17Z</time>
      </trkpt>
      <trkpt lat="44.23117" lon="6.0805">
        <ele>1065</ele>
        <time>2011-08-17T07:53:22Z</time>
      </trkpt>
      <trkpt lat="44.23079" lon="6.08029">
        <ele>1056</ele>
        <time>2011-08-17T07:53:33Z</time>
      </trkpt>
      <trkpt lat="44.23074" lon="6.08019">
        <ele>1059</ele>
        <time>2011-08-17T07:53:37Z</time>
      </trkpt>
      <trkpt lat="44.2307" lon="6.08016">
        <ele>1059</ele>
        <time>2011-08-17T07:53:39Z</time>
      </trkpt>
      <trkpt lat="44.23059" lon="6.0801">
        <ele>1057</ele>
        <time>2011-08-17T07:53:48Z</time>
      </trkpt>
      <trkpt lat="44.23036" lon="6.08004">
        <ele>1054</ele>
        <time>2011-08-17T07:54:00Z</time>
      </trkpt>
      <trkpt lat="44.23013" lon="6.07991">
        <ele>1064</ele>
        <time>2011-08-17T07:54:10Z</time>
      </trkpt>
      <trkpt lat="44.22997" lon="6.0797">
        <ele>1061</ele>
        <time>2011-08-17T07:54:18Z</time>
      </trkpt>
      <trkpt lat="44.22978" lon="6.07977">
        <ele>1059</ele>
        <time>2011-08-17T07:54:25Z</time>
      </trkpt>
      <trkpt lat="44.22964" lon="6.07965">
        <ele>1060</ele>
        <time>2011-08-17T07:54:31Z</time>
      </trkpt>
      <trkpt lat="44.22956" lon="6.07958">
        <ele>1061</ele>
        <time>2011-08-17T07:54:33Z</time>
      </trkpt>
      <trkpt lat="44.22942" lon="6.07954">
        <ele>1060</ele>
        <time>2011-08-17T07:54:37Z</time>
      </trkpt>
      <trkpt lat="44.22934" lon="6.07954">
        <ele>1060</ele>
        <time>2011-08-17T07:54:39Z</time>
      </trkpt>
      <trkpt lat="44.22924" lon="6.07954">
        <ele>1060</ele>
        <time>2011-08-17T07:54:43Z</time>
      </trkpt>
      <trkpt lat="44.22895" lon="6.07963">
        <ele>1053</ele>
        <time>2011-08-17T07:54:55Z</time>
      </trkpt>
      <trkpt lat="44.22887" lon="6.07961">
        <ele>1054</ele>
        <time>2011-08-17T07:54:59Z</time>
      </trkpt>
      <trkpt lat="44.2287" lon="6.07971">
        <ele>1052</ele>
        <time>2011-08-17T07:55:09Z</time>
      </trkpt>
      <trkpt lat="44.22828" lon="6.07974">
        <ele>1052</ele>
        <time>2011-08-17T07:55:20Z</time>
      </trkpt>
      <trkpt lat="44.22812" lon="6.07978">
        <ele>1052</ele>
        <time>2011-08-17T07:55:25Z</time>
      </trkpt>
      <trkpt lat="44.2279" lon="6.07991">
        <ele>1053</ele>
        <time>2011-08-17T07:55:30Z</time>
      </trkpt>
      <trkpt lat="44.22755" lon="6.08026">
        <ele>1032</ele>
        <time>2011-08-17T07:55:41Z</time>
      </trkpt>
      <trkpt lat="44.22749" lon="6.08032">
        <ele>1030</ele>
        <time>2011-08-17T07:55:43Z</time>
      </trkpt>
      <trkpt lat="44.22729" lon="6.08036">
        <ele>1027</ele>
        <time>2011-08-17T07:55:48Z</time>
      </trkpt>
      <trkpt lat="44.22707" lon="6.08042">
        <ele>1025</ele>
        <time>2011-08-17T07:55:54Z</time>
      </trkpt>
      <trkpt lat="44.22708" lon="6.08049">
        <ele>1024</ele>
        <time>2011-08-17T07:56:01Z</time>
      </trkpt>
      <trkpt lat="44.22707" lon="6.08052">
        <ele>1023</ele>
        <time>2011-08-17T07:56:12Z</time>
      </trkpt>
      <trkpt lat="44.22679" lon="6.08036">
        <ele>1025</ele>
        <time>2011-08-17T07:56:23Z</time>
      </trkpt>
      <trkpt lat="44.22663" lon="6.08022">
        <ele>1019</ele>
        <time>2011-08-17T07:56:32Z</time>
      </trkpt>
      <trkpt lat="44.22643" lon="6.08015">
        <ele>1017</ele>
        <time>2011-08-17T07:56:37Z</time>
      </trkpt>
      <trkpt lat="44.22627" lon="6.08015">
        <ele>1013</ele>
        <time>2011-08-17T07:56:41Z</time>
      </trkpt>
      <trkpt lat="44.22615" lon="6.08009">
        <ele>1011</ele>
        <time>2011-08-17T07:56:44Z</time>
      </trkpt>
      <trkpt lat="44.22607" lon="6.07998">
        <ele>1019</ele>
        <time>2011-08-17T07:56:56Z</time>
      </trkpt>
      <trkpt lat="44.22594" lon="6.0798">
        <ele>1019</ele>
        <time>2011-08-17T07:57:28Z</time>
      </trkpt>
      <trkpt lat="44.22582" lon="6.07962">
        <ele>1006</ele>
        <time>2011-08-17T07:57:32Z</time>
      </trkpt>
      <trkpt lat="44.22545" lon="6.07934">
        <ele>1006</ele>
        <time>2011-08-17T07:57:43Z</time>
      </trkpt>
      <trkpt lat="44.22534" lon="6.07914">
        <ele>1016</ele>
        <time>2011-08-17T07:57:48Z</time>
      </trkpt>
      <trkpt lat="44.22525" lon="6.07912">
        <ele>1014</ele>
        <time>2011-08-17T07:57:51Z</time>
      </trkpt>
      <trkpt lat="44.22519" lon="6.07906">
        <ele>1013</ele>
        <time>2011-08-17T07:57:55Z</time>
      </trkpt>
      <trkpt lat="44.22504" lon="6.07902">
        <ele>1010</ele>
        <time>2011-08-17T07:58:02Z</time>
      </trkpt>
      <trkpt lat="44.22485" lon="6.07887">
        <ele>1004</ele>
        <time>2011-08-17T07:58:11Z</time>
      </trkpt>
      <trkpt lat="44.22472" lon="6.07888">
        <ele>1003</ele>
        <time>2011-08-17T07:58:15Z</time>
      </trkpt>
      <trkpt lat="44.22463" lon="6.07884">
        <ele>1003</ele>
        <time>2011-08-17T07:58:19Z</time>
      </trkpt>
      <trkpt lat="44.22425" lon="6.07879">
        <ele>1000</ele>
        <time>2011-08-17T07:58:35Z</time>
      </trkpt>
      <trkpt lat="44.22419" lon="6.0788">
        <ele>1000</ele>
        <time>2011-08-17T07:58:37Z</time>
      </trkpt>
      <trkpt lat="44.22414" lon="6.07885">
        <ele>988</ele>
        <time>2011-08-17T07:58:39Z</time>
      </trkpt>
      <trkpt lat="44.22403" lon="6.07888">
        <ele>987</ele>
        <time>2011-08-17T07:58:42Z</time>
      </trkpt>
      <trkpt lat="44.22364" lon="6.0789">
        <ele>983</ele>
        <time>2011-08-17T07:58:52Z</time>
      </trkpt>
      <trkpt lat="44.2236" lon="6.07893">
        <ele>982</ele>
        <time>2011-08-17T07:58:54Z</time>
      </trkpt>
      <trkpt lat="44.22371" lon="6.079">
        <ele>983</ele>
        <time>2011-08-17T07:59:05Z</time>
      </trkpt>
      <trkpt lat="44.22367" lon="6.07902">
        <ele>982</ele>
        <time>2011-08-17T07:59:18Z</time>
      </trkpt>
      <trkpt lat="44.22366" lon="6.07903">
        <ele>982</ele>
        <time>2011-08-17T07:59:20Z</time>
      </trkpt>
      <trkpt lat="44.22354" lon="6.07908">
        <ele>979</ele>
        <time>2011-08-17T07:59:26Z</time>
      </trkpt>
      <trkpt lat="44.2233" lon="6.07915">
        <ele>969</ele>
        <time>2011-08-17T07:59:37Z</time>
      </trkpt>
      <trkpt lat="44.22329" lon="6.07917">
        <ele>967</ele>
        <time>2011-08-17T07:59:42Z</time>
      </trkpt>
      <trkpt lat="44.22322" lon="6.07924">
        <ele>964</ele>
        <time>2011-08-17T07:59:55Z</time>
      </trkpt>
      <trkpt lat="44.22318" lon="6.07929">
        <ele>963</ele>
        <time>2011-08-17T07:59:58Z</time>
      </trkpt>
      <trkpt lat="44.22315" lon="6.07935">
        <ele>961</ele>
        <time>2011-08-17T08:00:00Z</time>
      </trkpt>
      <trkpt lat="44.22302" lon="6.07943">
        <ele>959</ele>
        <time>2011-08-17T08:00:04Z</time>
      </trkpt>
      <trkpt lat="44.22295" lon="6.07954">
        <ele>958</ele>
        <time>2011-08-17T08:00:09Z</time>
      </trkpt>
      <trkpt lat="44.22289" lon="6.07962">
        <ele>957</ele>
        <time>2011-08-17T08:00:12Z</time>
      </trkpt>
      <trkpt lat="44.22272" lon="6.07987">
        <ele>956</ele>
        <time>2011-08-17T08:00:19Z</time>
      </trkpt>
      <trkpt lat="44.22273" lon="6.08003">
        <ele>950</ele>
        <time>2011-08-17T08:00:23Z</time>
      </trkpt>
      <trkpt lat="44.22275" lon="6.08014">
        <ele>949</ele>
        <time>2011-08-17T08:00:26Z</time>
      </trkpt>
      <trkpt lat="44.22291" lon="6.08007">
        <ele>949</ele>
        <time>2011-08-17T08:00:34Z</time>
      </trkpt>
      <trkpt lat="44.22324" lon="6.07994">
        <ele>956</ele>
        <time>2011-08-17T08:00:48Z</time>
      </trkpt>
      <trkpt lat="44.22337" lon="6.0799">
        <ele>959</ele>
        <time>2011-08-17T08:00:53Z</time>
      </trkpt>
      <trkpt lat="44.22361" lon="6.08012">
        <ele>954</ele>
        <time>2011-08-17T08:01:04Z</time>
      </trkpt>
      <trkpt lat="44.22381" lon="6.08023">
        <ele>954</ele>
        <time>2011-08-17T08:01:15Z</time>
      </trkpt>
      <trkpt lat="44.22404" lon="6.08049">
        <ele>953</ele>
        <time>2011-08-17T08:01:28Z</time>
      </trkpt>
      <trkpt lat="44.22414" lon="6.08051">
        <ele>953</ele>
        <time>2011-08-17T08:01:33Z</time>
      </trkpt>
      <trkpt lat="44.2243" lon="6.08062">
        <ele>961</ele>
        <time>2011-08-17T08:01:43Z</time>
      </trkpt>
      <trkpt lat="44.22432" lon="6.08075">
        <ele>959</ele>
        <time>2011-08-17T08:01:47Z</time>
      </trkpt>
      <trkpt lat="44.22439" lon="6.08084">
        <ele>955</ele>
        <time>2011-08-17T08:01:51Z</time>
      </trkpt>
      <trkpt lat="44.22444" lon="6.08089">
        <ele>955</ele>
        <time>2011-08-17T08:01:53Z</time>
      </trkpt>
      <trkpt lat="44.2245" lon="6.08108">
        <ele>955</ele>
        <time>2011-08-17T08:02:00Z</time>
      </trkpt>
      <trkpt lat="44.22458" lon="6.0812">
        <ele>956</ele>
        <time>2011-08-17T08:02:04Z</time>
      </trkpt>
      <trkpt lat="44.22456" lon="6.08147">
        <ele>953</ele>
        <time>2011-08-17T08:02:11Z</time>
      </trkpt>
      <trkpt lat="44.22462" lon="6.08161">
        <ele>954</ele>
        <time>2011-08-17T08:02:15Z</time>
      </trkpt>
      <trkpt lat="44.22466" lon="6.08175">
        <ele>946</ele>
        <time>2011-08-17T08:02:19Z</time>
      </trkpt>
      <trkpt lat="44.22476" lon="6.08186">
        <ele>947</ele>
        <time>2011-08-17T08:02:22Z</time>
      </trkpt>
      <trkpt lat="44.22497" lon="6.08214">
        <ele>945</ele>
        <time>2011-08-17T08:02:29Z</time>
      </trkpt>
      <trkpt lat="44.22502" lon="6.08235">
        <ele>954</ele>
        <time>2011-08-17T08:02:34Z</time>
      </trkpt>
      <trkpt lat="44.22519" lon="6.08273">
        <ele>947</ele>
        <time>2011-08-17T08:02:43Z</time>
      </trkpt>
      <trkpt lat="44.22531" lon="6.08294">
        <ele>946</ele>
        <time>2011-08-17T08:02:47Z</time>
      </trkpt>
      <trkpt lat="44.22541" lon="6.08306">
        <ele>946</ele>
        <time>2011-08-17T08:02:51Z</time>
      </trkpt>
      <trkpt lat="44.22545" lon="6.08314">
        <ele>945</ele>
        <time>2011-08-17T08:02:53Z</time>
      </trkpt>
      <trkpt lat="44.22574" lon="6.08327">
        <ele>944</ele>
        <time>2011-08-17T08:03:02Z</time>
      </trkpt>
      <trkpt lat="44.22597" lon="6.08332">
        <ele>946</ele>
        <time>2011-08-17T08:03:11Z</time>
      </trkpt>
      <trkpt lat="44.22623" lon="6.08328">
        <ele>948</ele>
        <time>2011-08-17T08:03:19Z</time>
      </trkpt>
      <trkpt lat="44.22652" lon="6.08332">
        <ele>944</ele>
        <time>2011-08-17T08:03:27Z</time>
      </trkpt>
      <trkpt lat="44.22673" lon="6.0835">
        <ele>933</ele>
        <time>2011-08-17T08:03:35Z</time>
      </trkpt>
      <trkpt lat="44.22676" lon="6.08361">
        <ele>930</ele>
        <time>2011-08-17T08:03:39Z</time>
      </trkpt>
      <trkpt lat="44.22675" lon="6.0837">
        <ele>929</ele>
        <time>2011-08-17T08:03:52Z</time>
      </trkpt>
      <trkpt lat="44.22679" lon="6.08384">
        <ele>926</ele>
        <time>2011-08-17T08:04:07Z</time>
      </trkpt>
      <trkpt lat="44.22678" lon="6.08387">
        <ele>925</ele>
        <time>2011-08-17T08:04:09Z</time>
      </trkpt>
      <trkpt lat="44.22677" lon="6.08405">
        <ele>921</ele>
        <time>2011-08-17T08:04:20Z</time>
      </trkpt>
      <trkpt lat="44.22678" lon="6.08412">
        <ele>920</ele>
        <time>2011-08-17T08:04:23Z</time>
      </trkpt>
      <trkpt lat="44.22677" lon="6.0843">
        <ele>911</ele>
        <time>2011-08-17T08:04:34Z</time>
      </trkpt>
      <trkpt lat="44.22673" lon="6.08436">
        <ele>910</ele>
        <time>2011-08-17T08:04:50Z</time>
      </trkpt>
      <trkpt lat="44.22668" lon="6.0845">
        <ele>908</ele>
        <time>2011-08-17T08:05:09Z</time>
      </trkpt>
      <trkpt lat="44.22667" lon="6.08455">
        <ele>907</ele>
        <time>2011-08-17T08:05:16Z</time>
      </trkpt>
      <trkpt lat="44.22664" lon="6.08463">
        <ele>907</ele>
        <time>2011-08-17T08:05:25Z</time>
      </trkpt>
      <trkpt lat="44.2266" lon="6.08486">
        <ele>902</ele>
        <time>2011-08-17T08:05:44Z</time>
      </trkpt>
      <trkpt lat="44.22655" lon="6.08495">
        <ele>901</ele>
        <time>2011-08-17T08:05:59Z</time>
      </trkpt>
      <trkpt lat="44.22654" lon="6.08496">
        <ele>901</ele>
        <time>2011-08-17T08:06:00Z</time>
      </trkpt>
      <trkpt lat="44.22652" lon="6.08504">
        <ele>893</ele>
        <time>2011-08-17T08:06:10Z</time>
      </trkpt>
      <trkpt lat="44.22647" lon="6.0852">
        <ele>891</ele>
        <time>2011-08-17T08:06:26Z</time>
      </trkpt>
      <trkpt lat="44.2264" lon="6.08549">
        <ele>886</ele>
        <time>2011-08-17T08:06:38Z</time>
      </trkpt>
      <trkpt lat="44.22636" lon="6.08588">
        <ele>866</ele>
        <time>2011-08-17T08:06:51Z</time>
      </trkpt>
      <trkpt lat="44.22634" lon="6.08605">
        <ele>864</ele>
        <time>2011-08-17T08:07:03Z</time>
      </trkpt>
      <trkpt lat="44.22635" lon="6.08614">
        <ele>863</ele>
        <time>2011-08-17T08:07:15Z</time>
      </trkpt>
      <trkpt lat="44.2264" lon="6.0862">
        <ele>862</ele>
        <time>2011-08-17T08:07:28Z</time>
      </trkpt>
      <trkpt lat="44.22639" lon="6.08627">
        <ele>861</ele>
        <time>2011-08-17T08:07:43Z</time>
      </trkpt>
      <trkpt lat="44.22639" lon="6.08631">
        <ele>860</ele>
        <time>2011-08-17T08:07:55Z</time>
      </trkpt>
      <trkpt lat="44.22644" lon="6.0864">
        <ele>858</ele>
        <time>2011-08-17T08:08:11Z</time>
      </trkpt>
      <trkpt lat="44.22647" lon="6.08643">
        <ele>857</ele>
        <time>2011-08-17T08:08:26Z</time>
      </trkpt>
      <trkpt lat="44.2265" lon="6.08643">
        <ele>857</ele>
        <time>2011-08-17T08:08:35Z</time>
      </trkpt>
      <trkpt lat="44.22653" lon="6.08646">
        <ele>856</ele>
        <time>2011-08-17T08:08:44Z</time>
      </trkpt>
      <trkpt lat="44.22651" lon="6.08649">
        <ele>856</ele>
        <time>2011-08-17T08:08:55Z</time>
      </trkpt>
      <trkpt lat="44.22636" lon="6.08663">
        <ele>856</ele>
        <time>2011-08-17T08:09:04Z</time>
      </trkpt>
      <trkpt lat="44.22636" lon="6.08665">
        <ele>855</ele>
        <time>2011-08-17T08:09:12Z</time>
      </trkpt>
      <trkpt lat="44.22642" lon="6.08663">
        <ele>855</ele>
        <time>2011-08-17T08:09:20Z</time>
      </trkpt>
      <trkpt lat="44.2265" lon="6.08663">
        <ele>853</ele>
        <time>2011-08-17T08:09:33Z</time>
      </trkpt>
      <trkpt lat="44.2266" lon="6.08666">
        <ele>850</ele>
        <time>2011-08-17T08:09:42Z</time>
      </trkpt>
      <trkpt lat="44.22659" lon="6.08668">
        <ele>843</ele>
        <time>2011-08-17T08:09:54Z</time>
      </trkpt>
      <trkpt lat="44.2265" lon="6.0868">
        <ele>838</ele>
        <time>2011-08-17T08:10:00Z</time>
      </trkpt>
      <trkpt lat="44.22642" lon="6.08696">
        <ele>834</ele>
        <time>2011-08-17T08:10:05Z</time>
      </trkpt>
      <trkpt lat="44.22636" lon="6.08699">
        <ele>833</ele>
        <time>2011-08-17T08:10:11Z</time>
      </trkpt>
      <trkpt lat="44.22619" lon="6.08701">
        <ele>833</ele>
        <time>2011-08-17T08:10:19Z</time>
      </trkpt>
      <trkpt lat="44.22602" lon="6.08694">
        <ele>835</ele>
        <time>2011-08-17T08:10:29Z</time>
      </trkpt>
      <trkpt lat="44.22599" lon="6.08691">
        <ele>835</ele>
        <time>2011-08-17T08:10:32Z</time>
      </trkpt>
      <trkpt lat="44.22572" lon="6.08686">
        <ele>835</ele>
        <time>2011-08-17T08:10:41Z</time>
      </trkpt>
      <trkpt lat="44.22567" lon="6.08698">
        <ele>831</ele>
        <time>2011-08-17T08:10:44Z</time>
      </trkpt>
      <trkpt lat="44.22562" lon="6.08714">
        <ele>827</ele>
        <time>2011-08-17T08:10:46Z</time>
      </trkpt>
      <trkpt lat="44.22556" lon="6.08744">
        <ele>821</ele>
        <time>2011-08-17T08:10:50Z</time>
      </trkpt>
      <trkpt lat="44.22547" lon="6.08761">
        <ele>799</ele>
        <time>2011-08-17T08:10:56Z</time>
      </trkpt>
      <trkpt lat="44.22541" lon="6.08756">
        <ele>800</ele>
        <time>2011-08-17T08:11:04Z</time>
      </trkpt>
      <trkpt lat="44.22532" lon="6.08757">
        <ele>800</ele>
        <time>2011-08-17T08:11:08Z</time>
      </trkpt>
      <trkpt lat="44.22517" lon="6.08768">
        <ele>800</ele>
        <time>2011-08-17T08:11:12Z</time>
      </trkpt>
      <trkpt lat="44.225" lon="6.08784">
        <ele>787</ele>
        <time>2011-08-17T08:11:17Z</time>
      </trkpt>
      <trkpt lat="44.22494" lon="6.08791">
        <ele>784</ele>
        <time>2011-08-17T08:11:19Z</time>
      </trkpt>
      <trkpt lat="44.22486" lon="6.08786">
        <ele>785</ele>
        <time>2011-08-17T08:11:30Z</time>
      </trkpt>
      <trkpt lat="44.2248" lon="6.08783">
        <ele>785</ele>
        <time>2011-08-17T08:11:44Z</time>
      </trkpt>
      <trkpt lat="44.22469" lon="6.08769">
        <ele>786</ele>
        <time>2011-08-17T08:11:57Z</time>
      </trkpt>
      <trkpt lat="44.22465" lon="6.08761">
        <ele>786</ele>
        <time>2011-08-17T08:12:02Z</time>
      </trkpt>
      <trkpt lat="44.22456" lon="6.08745">
        <ele>803</ele>
        <time>2011-08-17T08:12:13Z</time>
      </trkpt>
      <trkpt lat="44.22443" lon="6.08732">
        <ele>801</ele>
        <time>2011-08-17T08:12:19Z</time>
      </trkpt>
      <trkpt lat="44.22416" lon="6.08699">
        <ele>782</ele>
        <time>2011-08-17T08:12:31Z</time>
      </trkpt>
      <trkpt lat="44.224" lon="6.08686">
        <ele>784</ele>
        <time>2011-08-17T08:12:37Z</time>
      </trkpt>
      <trkpt lat="44.22375" lon="6.08646">
        <ele>791</ele>
        <time>2011-08-17T08:12:49Z</time>
      </trkpt>
      <trkpt lat="44.2237" lon="6.08642">
        <ele>790</ele>
        <time>2011-08-17T08:12:51Z</time>
      </trkpt>
      <trkpt lat="44.22344" lon="6.0862">
        <ele>787</ele>
        <time>2011-08-17T08:13:02Z</time>
      </trkpt>
      <trkpt lat="44.22329" lon="6.08592">
        <ele>773</ele>
        <time>2011-08-17T08:13:12Z</time>
      </trkpt>
      <trkpt lat="44.22322" lon="6.08581">
        <ele>780</ele>
        <time>2011-08-17T08:13:16Z</time>
      </trkpt>
      <trkpt lat="44.22322" lon="6.08575">
        <ele>780</ele>
        <time>2011-08-17T08:13:18Z</time>
      </trkpt>
      <trkpt lat="44.22312" lon="6.08561">
        <ele>782</ele>
        <time>2011-08-17T08:13:25Z</time>
      </trkpt>
      <trkpt lat="44.22311" lon="6.08556">
        <ele>782</ele>
        <time>2011-08-17T08:13:38Z</time>
      </trkpt>
      <trkpt lat="44.22311" lon="6.08552">
        <ele>783</ele>
        <time>2011-08-17T08:13:53Z</time>
      </trkpt>
      <trkpt lat="44.22303" lon="6.08551">
        <ele>782</ele>
        <time>2011-08-17T08:13:57Z</time>
      </trkpt>
      <trkpt lat="44.22276" lon="6.08559">
        <ele>778</ele>
        <time>2011-08-17T08:14:09Z</time>
      </trkpt>
      <trkpt lat="44.22248" lon="6.08554">
        <ele>767</ele>
        <time>2011-08-17T08:14:21Z</time>
      </trkpt>
      <trkpt lat="44.22229" lon="6.08553">
        <ele>766</ele>
        <time>2011-08-17T08:14:28Z</time>
      </trkpt>
      <trkpt lat="44.222" lon="6.08568">
        <ele>762</ele>
        <time>2011-08-17T08:14:39Z</time>
      </trkpt>
      <trkpt lat="44.2218" lon="6.08556">
        <ele>760</ele>
        <time>2011-08-17T08:14:48Z</time>
      </trkpt>
      <trkpt lat="44.22163" lon="6.08533">
        <ele>752</ele>
        <time>2011-08-17T08:14:55Z</time>
      </trkpt>
      <trkpt lat="44.22161" lon="6.08519">
        <ele>756</ele>
        <time>2011-08-17T08:14:58Z</time>
      </trkpt>
      <trkpt lat="44.22156" lon="6.085">
        <ele>760</ele>
        <time>2011-08-17T08:15:05Z</time>
      </trkpt>
      <trkpt lat="44.22156" lon="6.085">
        <ele>764</ele>
        <time>2011-08-17T08:15:07Z</time>
      </trkpt>
      <trkpt lat="44.22142" lon="6.08495">
        <ele>762</ele>
        <time>2011-08-17T08:15:14Z</time>
      </trkpt>
      <trkpt lat="44.22108" lon="6.08479">
        <ele>756</ele>
        <time>2011-08-17T08:15:26Z</time>
      </trkpt>
      <trkpt lat="44.22103" lon="6.0847">
        <ele>756</ele>
        <time>2011-08-17T08:15:29Z</time>
      </trkpt>
      <trkpt lat="44.22093" lon="6.08463">
        <ele>756</ele>
        <time>2011-08-17T08:15:34Z</time>
      </trkpt>
      <trkpt lat="44.22087" lon="6.08456">
        <ele>756</ele>
        <time>2011-08-17T08:15:36Z</time>
      </trkpt>
      <trkpt lat="44.22068" lon="6.08416">
        <ele>750</ele>
        <time>2011-08-17T08:15:46Z</time>
      </trkpt>
      <trkpt lat="44.22066" lon="6.08399">
        <ele>750</ele>
        <time>2011-08-17T08:15:49Z</time>
      </trkpt>
      <trkpt lat="44.22056" lon="6.08382">
        <ele>749</ele>
        <time>2011-08-17T08:15:54Z</time>
      </trkpt>
      <trkpt lat="44.22046" lon="6.08372">
        <ele>748</ele>
        <time>2011-08-17T08:16:00Z</time>
      </trkpt>
      <trkpt lat="44.22023" lon="6.08334">
        <ele>744</ele>
        <time>2011-08-17T08:16:10Z</time>
      </trkpt>
      <trkpt lat="44.21996" lon="6.08301">
        <ele>738</ele>
        <time>2011-08-17T08:16:18Z</time>
      </trkpt>
      <trkpt lat="44.21968" lon="6.08283">
        <ele>737</ele>
        <time>2011-08-17T08:16:26Z</time>
      </trkpt>
      <trkpt lat="44.2195" lon="6.08263">
        <ele>735</ele>
        <time>2011-08-17T08:16:32Z</time>
      </trkpt>
      <trkpt lat="44.21937" lon="6.08256">
        <ele>732</ele>
        <time>2011-08-17T08:16:35Z</time>
      </trkpt>
      <trkpt lat="44.21917" lon="6.0824">
        <ele>732</ele>
        <time>2011-08-17T08:16:40Z</time>
      </trkpt>
      <trkpt lat="44.21896" lon="6.08206">
        <ele>727</ele>
        <time>2011-08-17T08:16:46Z</time>
      </trkpt>
      <trkpt lat="44.21885" lon="6.08153">
        <ele>730</ele>
        <time>2011-08-17T08:16:55Z</time>
      </trkpt>
      <trkpt lat="44.21878" lon="6.08125">
        <ele>730</ele>
        <time>2011-08-17T08:17:01Z</time>
      </trkpt>
      <trkpt lat="44.21873" lon="6.08111">
        <ele>730</ele>
        <time>2011-08-17T08:17:04Z</time>
      </trkpt>
      <trkpt lat="44.21855" lon="6.0808">
        <ele>732</ele>
        <time>2011-08-17T08:17:09Z</time>
      </trkpt>
      <trkpt lat="44.21836" lon="6.0803">
        <ele>735</ele>
        <time>2011-08-17T08:17:19Z</time>
      </trkpt>
      <trkpt lat="44.21803" lon="6.07981">
        <ele>723</ele>
        <time>2011-08-17T08:17:32Z</time>
      </trkpt>
      <trkpt lat="44.21794" lon="6.07965">
        <ele>723</ele>
        <time>2011-08-17T08:17:37Z</time>
      </trkpt>
      <trkpt lat="44.21786" lon="6.07969">
        <ele>721</ele>
        <time>2011-08-17T08:17:41Z</time>
      </trkpt>
      <trkpt lat="44.21762" lon="6.07994">
        <ele>716</ele>
        <time>2011-08-17T08:17:55Z</time>
      </trkpt>
      <trkpt lat="44.21738" lon="6.0802">
        <ele>719</ele>
        <time>2011-08-17T08:18:10Z</time>
      </trkpt>
      <trkpt lat="44.21729" lon="6.08028">
        <ele>721</ele>
        <time>2011-08-17T08:18:25Z</time>
      </trkpt>
      <trkpt lat="44.21728" lon="6.08029">
        <ele>722</ele>
        <time>2011-08-17T08:18:48Z</time>
      </trkpt>
      <trkpt lat="44.21729" lon="6.08029">
        <ele>721</ele>
        <time>2011-08-17T08:21:46Z</time>
      </trkpt>
      <trkpt lat="44.21728" lon="6.0803">
        <ele>722</ele>
        <time>2011-08-17T08:22:44Z</time>
      </trkpt>
      <trkpt lat="44.21726" lon="6.08027">
        <ele>722</ele>
        <time>2011-08-17T08:25:17Z</time>
      </trkpt>
      <trkpt lat="44.21727" lon="6.08028">
        <ele>721</ele>
        <time>2011-08-17T08:27:01Z</time>
      </trkpt>
      <trkpt lat="44.21721" lon="6.08026">
        <ele>722</ele>
        <time>2011-08-17T08:27:06Z</time>
      </trkpt>
      <trkpt lat="44.21713" lon="6.08033">
        <ele>723</ele>
        <time>2011-08-17T08:27:12Z</time>
      </trkpt>
      <trkpt lat="44.21696" lon="6.08036">
        <ele>725</ele>
        <time>2011-08-17T08:27:20Z</time>
      </trkpt>
      <trkpt lat="44.21659" lon="6.08065">
        <ele>739</ele>
        <time>2011-08-17T08:27:38Z</time>
      </trkpt>
      <trkpt lat="44.21648" lon="6.08077">
        <ele>740</ele>
        <time>2011-08-17T08:27:44Z</time>
      </trkpt>
      <trkpt lat="44.21641" lon="6.08085">
        <ele>742</ele>
        <time>2011-08-17T08:27:48Z</time>
      </trkpt>
      <trkpt lat="44.21629" lon="6.08095">
        <ele>744</ele>
        <time>2011-08-17T08:27:55Z</time>
      </trkpt>
      <trkpt lat="44.21613" lon="6.08132">
        <ele>746</ele>
        <time>2011-08-17T08:28:10Z</time>
      </trkpt>
      <trkpt lat="44.21605" lon="6.0816">
        <ele>744</ele>
        <time>2011-08-17T08:28:22Z</time>
      </trkpt>
      <trkpt lat="44.21591" lon="6.08202">
        <ele>751</ele>
        <time>2011-08-17T08:28:42Z</time>
      </trkpt>
      <trkpt lat="44.21581" lon="6.08258">
        <ele>745</ele>
        <time>2011-08-17T08:29:02Z</time>
      </trkpt>
      <trkpt lat="44.21579" lon="6.08277">
        <ele>746</ele>
        <time>2011-08-17T08:29:09Z</time>
      </trkpt>
      <trkpt lat="44.2158" lon="6.08283">
        <ele>746</ele>
        <time>2011-08-17T08:29:11Z</time>
      </trkpt>
      <trkpt lat="44.2158" lon="6.08293">
        <ele>747</ele>
        <time>2011-08-17T08:29:14Z</time>
      </trkpt>
      <trkpt lat="44.2156" lon="6.0834">
        <ele>748</ele>
        <time>2011-08-17T08:29:29Z</time>
      </trkpt>
      <trkpt lat="44.21544" lon="6.08369">
        <ele>749</ele>
        <time>2011-08-17T08:29:40Z</time>
      </trkpt>
      <trkpt lat="44.21517" lon="6.08382">
        <ele>749</ele>
        <time>2011-08-17T08:29:54Z</time>
      </trkpt>
      <trkpt lat="44.21514" lon="6.08384">
        <ele>749</ele>
        <time>2011-08-17T08:29:56Z</time>
      </trkpt>
      <trkpt lat="44.215" lon="6.08382">
        <ele>750</ele>
        <time>2011-08-17T08:30:03Z</time>
      </trkpt>
      <trkpt lat="44.21491" lon="6.08384">
        <ele>750</ele>
        <time>2011-08-17T08:30:08Z</time>
      </trkpt>
      <trkpt lat="44.21474" lon="6.08412">
        <ele>751</ele>
        <time>2011-08-17T08:30:25Z</time>
      </trkpt>
      <trkpt lat="44.21458" lon="6.0844">
        <ele>755</ele>
        <time>2011-08-17T08:30:37Z</time>
      </trkpt>
      <trkpt lat="44.21451" lon="6.08451">
        <ele>755</ele>
        <time>2011-08-17T08:30:42Z</time>
      </trkpt>
      <trkpt lat="44.21412" lon="6.08485">
        <ele>758</ele>
        <time>2011-08-17T08:31:02Z</time>
      </trkpt>
      <trkpt lat="44.21387" lon="6.08506">
        <ele>761</ele>
        <time>2011-08-17T08:31:16Z</time>
      </trkpt>
      <trkpt lat="44.2136" lon="6.08541">
        <ele>762</ele>
        <time>2011-08-17T08:31:36Z</time>
      </trkpt>
      <trkpt lat="44.21337" lon="6.08585">
        <ele>761</ele>
        <time>2011-08-17T08:31:54Z</time>
      </trkpt>
      <trkpt lat="44.21316" lon="6.08635">
        <ele>768</ele>
        <time>2011-08-17T08:32:15Z</time>
      </trkpt>
      <trkpt lat="44.21312" lon="6.08644">
        <ele>768</ele>
        <time>2011-08-17T08:32:18Z</time>
      </trkpt>
      <trkpt lat="44.21311" lon="6.08653">
        <ele>769</ele>
        <time>2011-08-17T08:32:21Z</time>
      </trkpt>
      <trkpt lat="44.213" lon="6.08713">
        <ele>772</ele>
        <time>2011-08-17T08:32:42Z</time>
      </trkpt>
      <trkpt lat="44.21293" lon="6.08755">
        <ele>774</ele>
        <time>2011-08-17T08:32:58Z</time>
      </trkpt>
      <trkpt lat="44.21283" lon="6.08798">
        <ele>775</ele>
        <time>2011-08-17T08:33:11Z</time>
      </trkpt>
      <trkpt lat="44.21281" lon="6.08843">
        <ele>778</ele>
        <time>2011-08-17T08:33:28Z</time>
      </trkpt>
      <trkpt lat="44.21273" lon="6.08892">
        <ele>779</ele>
        <time>2011-08-17T08:33:46Z</time>
      </trkpt>
      <trkpt lat="44.21275" lon="6.08951">
        <ele>783</ele>
        <time>2011-08-17T08:34:07Z</time>
      </trkpt>
      <trkpt lat="44.21275" lon="6.08954">
        <ele>783</ele>
        <time>2011-08-17T08:34:08Z</time>
      </trkpt>
      <trkpt lat="44.21276" lon="6.08982">
        <ele>783</ele>
        <time>2011-08-17T08:34:19Z</time>
      </trkpt>
      <trkpt lat="44.21277" lon="6.08992">
        <ele>784</ele>
        <time>2011-08-17T08:34:24Z</time>
      </trkpt>
      <trkpt lat="44.21291" lon="6.09029">
        <ele>787</ele>
        <time>2011-08-17T08:34:40Z</time>
      </trkpt>
      <trkpt lat="44.21298" lon="6.09058">
        <ele>788</ele>
        <time>2011-08-17T08:34:54Z</time>
      </trkpt>
      <trkpt lat="44.21305" lon="6.09083">
        <ele>788</ele>
        <time>2011-08-17T08:35:05Z</time>
      </trkpt>
      <trkpt lat="44.21312" lon="6.09116">
        <ele>793</ele>
        <time>2011-08-17T08:35:19Z</time>
      </trkpt>
      <trkpt lat="44.21321" lon="6.09151">
        <ele>795</ele>
        <time>2011-08-17T08:35:33Z</time>
      </trkpt>
      <trkpt lat="44.21326" lon="6.09179">
        <ele>799</ele>
        <time>2011-08-17T08:35:42Z</time>
      </trkpt>
      <trkpt lat="44.21331" lon="6.09199">
        <ele>802</ele>
        <time>2011-08-17T08:35:50Z</time>
      </trkpt>
      <trkpt lat="44.21327" lon="6.09218">
        <ele>803</ele>
        <time>2011-08-17T08:35:59Z</time>
      </trkpt>
      <trkpt lat="44.21327" lon="6.09267">
        <ele>809</ele>
        <time>2011-08-17T08:36:19Z</time>
      </trkpt>
      <trkpt lat="44.21334" lon="6.09313">
        <ele>808</ele>
        <time>2011-08-17T08:36:40Z</time>
      </trkpt>
      <trkpt lat="44.2134" lon="6.09343">
        <ele>813</ele>
        <time>2011-08-17T08:36:56Z</time>
      </trkpt>
      <trkpt lat="44.21341" lon="6.09354">
        <ele>814</ele>
        <time>2011-08-17T08:37:11Z</time>
      </trkpt>
      <trkpt lat="44.21343" lon="6.09369">
        <ele>815</ele>
        <time>2011-08-17T08:37:33Z</time>
      </trkpt>
      <trkpt lat="44.21345" lon="6.09381">
        <ele>816</ele>
        <time>2011-08-17T08:37:48Z</time>
      </trkpt>
      <trkpt lat="44.21348" lon="6.09399">
        <ele>818</ele>
        <time>2011-08-17T08:38:06Z</time>
      </trkpt>
      <trkpt lat="44.21355" lon="6.09435">
        <ele>823</ele>
        <time>2011-08-17T08:38:32Z</time>
      </trkpt>
      <trkpt lat="44.21359" lon="6.09447">
        <ele>823</ele>
        <time>2011-08-17T08:38:50Z</time>
      </trkpt>
      <trkpt lat="44.2136" lon="6.0945">
        <ele>823</ele>
        <time>2011-08-17T08:38:52Z</time>
      </trkpt>
      <trkpt lat="44.21394" lon="6.09477">
        <ele>824</ele>
        <time>2011-08-17T08:39:13Z</time>
      </trkpt>
      <trkpt lat="44.21417" lon="6.09466">
        <ele>823</ele>
        <time>2011-08-17T08:39:27Z</time>
      </trkpt>
      <trkpt lat="44.21439" lon="6.09459">
        <ele>823</ele>
        <time>2011-08-17T08:39:40Z</time>
      </trkpt>
      <trkpt lat="44.21448" lon="6.09476">
        <ele>824</ele>
        <time>2011-08-17T08:39:49Z</time>
      </trkpt>
      <trkpt lat="44.21443" lon="6.09496">
        <ele>825</ele>
        <time>2011-08-17T08:40:00Z</time>
      </trkpt>
      <trkpt lat="44.21438" lon="6.09505">
        <ele>829</ele>
        <time>2011-08-17T08:40:07Z</time>
      </trkpt>
      <trkpt lat="44.21437" lon="6.09511">
        <ele>829</ele>
        <time>2011-08-17T08:40:10Z</time>
      </trkpt>
      <trkpt lat="44.21432" lon="6.09521">
        <ele>829</ele>
        <time>2011-08-17T08:40:18Z</time>
      </trkpt>
      <trkpt lat="44.21433" lon="6.09539">
        <ele>831</ele>
        <time>2011-08-17T08:40:24Z</time>
      </trkpt>
      <trkpt lat="44.21429" lon="6.09556">
        <ele>831</ele>
        <time>2011-08-17T08:40:32Z</time>
      </trkpt>
      <trkpt lat="44.21431" lon="6.09564">
        <ele>831</ele>
        <time>2011-08-17T08:40:37Z</time>
      </trkpt>
      <trkpt lat="44.21428" lon="6.09577">
        <ele>832</ele>
        <time>2011-08-17T08:40:42Z</time>
      </trkpt>
      <trkpt lat="44.2142" lon="6.09612">
        <ele>837</ele>
        <time>2011-08-17T08:40:55Z</time>
      </trkpt>
      <trkpt lat="44.21417" lon="6.09628">
        <ele>839</ele>
        <time>2011-08-17T08:41:06Z</time>
      </trkpt>
      <trkpt lat="44.21413" lon="6.09634">
        <ele>840</ele>
        <time>2011-08-17T08:41:10Z</time>
      </trkpt>
      <trkpt lat="44.21408" lon="6.0964">
        <ele>840</ele>
        <time>2011-08-17T08:41:14Z</time>
      </trkpt>
      <trkpt lat="44.214" lon="6.09656">
        <ele>841</ele>
        <time>2011-08-17T08:41:20Z</time>
      </trkpt>
      <trkpt lat="44.21401" lon="6.09669">
        <ele>845</ele>
        <time>2011-08-17T08:41:24Z</time>
      </trkpt>
      <trkpt lat="44.21406" lon="6.09697">
        <ele>847</ele>
        <time>2011-08-17T08:41:36Z</time>
      </trkpt>
      <trkpt lat="44.21405" lon="6.09699">
        <ele>847</ele>
        <time>2011-08-17T08:41:37Z</time>
      </trkpt>
      <trkpt lat="44.21389" lon="6.09722">
        <ele>849</ele>
        <time>2011-08-17T08:41:49Z</time>
      </trkpt>
      <trkpt lat="44.21385" lon="6.09733">
        <ele>849</ele>
        <time>2011-08-17T08:41:53Z</time>
      </trkpt>
      <trkpt lat="44.21383" lon="6.0976">
        <ele>854</ele>
        <time>2011-08-17T08:42:05Z</time>
      </trkpt>
      <trkpt lat="44.21383" lon="6.09761">
        <ele>854</ele>
        <time>2011-08-17T08:42:07Z</time>
      </trkpt>
      <trkpt lat="44.21386" lon="6.09771">
        <ele>854</ele>
        <time>2011-08-17T08:42:22Z</time>
      </trkpt>
      <trkpt lat="44.21384" lon="6.09778">
        <ele>855</ele>
        <time>2011-08-17T08:42:34Z</time>
      </trkpt>
      <trkpt lat="44.21379" lon="6.09783">
        <ele>855</ele>
        <time>2011-08-17T08:42:48Z</time>
      </trkpt>
      <trkpt lat="44.2137" lon="6.09789">
        <ele>855</ele>
        <time>2011-08-17T08:43:00Z</time>
      </trkpt>
      <trkpt lat="44.21363" lon="6.09791">
        <ele>855</ele>
        <time>2011-08-17T08:43:10Z</time>
      </trkpt>
      <trkpt lat="44.21356" lon="6.09805">
        <ele>856</ele>
        <time>2011-08-17T08:43:26Z</time>
      </trkpt>
      <trkpt lat="44.2135" lon="6.09816">
        <ele>856</ele>
        <time>2011-08-17T08:43:44Z</time>
      </trkpt>
      <trkpt lat="44.21351" lon="6.09828">
        <ele>857</ele>
        <time>2011-08-17T08:43:55Z</time>
      </trkpt>
      <trkpt lat="44.2135" lon="6.09849">
        <ele>861</ele>
        <time>2011-08-17T08:44:11Z</time>
      </trkpt>
      <trkpt lat="44.21347" lon="6.09861">
        <ele>861</ele>
        <time>2011-08-17T08:44:30Z</time>
      </trkpt>
      <trkpt lat="44.21346" lon="6.09859">
        <ele>861</ele>
        <time>2011-08-17T08:52:26Z</time>
      </trkpt>
      <trkpt lat="44.21349" lon="6.09882">
        <ele>863</ele>
        <time>2011-08-17T08:52:47Z</time>
      </trkpt>
      <trkpt lat="44.21349" lon="6.09882">
        <ele>863</ele>
        <time>2011-08-17T08:53:03Z</time>
      </trkpt>
      <trkpt lat="44.21351" lon="6.09892">
        <ele>863</ele>
        <time>2011-08-17T08:53:22Z</time>
      </trkpt>
      <trkpt lat="44.21353" lon="6.09901">
        <ele>864</ele>
        <time>2011-08-17T08:53:36Z</time>
      </trkpt>
      <trkpt lat="44.21359" lon="6.09911">
        <ele>864</ele>
        <time>2011-08-17T08:53:53Z</time>
      </trkpt>
      <trkpt lat="44.2136" lon="6.09915">
        <ele>864</ele>
        <time>2011-08-17T08:53:56Z</time>
      </trkpt>
      <trkpt lat="44.2137" lon="6.09935">
        <ele>870</ele>
        <time>2011-08-17T08:54:08Z</time>
      </trkpt>
      <trkpt lat="44.21377" lon="6.09942">
        <ele>870</ele>
        <time>2011-08-17T08:54:14Z</time>
      </trkpt>
      <trkpt lat="44.21382" lon="6.09944">
        <ele>870</ele>
        <time>2011-08-17T08:54:18Z</time>
      </trkpt>
      <trkpt lat="44.21392" lon="6.09962">
        <ele>871</ele>
        <time>2011-08-17T08:54:30Z</time>
      </trkpt>
      <trkpt lat="44.21395" lon="6.09977">
        <ele>871</ele>
        <time>2011-08-17T08:54:44Z</time>
      </trkpt>
      <trkpt lat="44.21394" lon="6.09992">
        <ele>872</ele>
        <time>2011-08-17T08:54:56Z</time>
      </trkpt>
      <trkpt lat="44.21398" lon="6.10016">
        <ele>877</ele>
        <time>2011-08-17T08:55:11Z</time>
      </trkpt>
      <trkpt lat="44.21396" lon="6.10036">
        <ele>879</ele>
        <time>2011-08-17T08:55:28Z</time>
      </trkpt>
      <trkpt lat="44.21392" lon="6.10058">
        <ele>880</ele>
        <time>2011-08-17T08:55:46Z</time>
      </trkpt>
      <trkpt lat="44.21392" lon="6.10071">
        <ele>881</ele>
        <time>2011-08-17T08:55:56Z</time>
      </trkpt>
      <trkpt lat="44.21397" lon="6.10082">
        <ele>881</ele>
        <time>2011-08-17T08:56:08Z</time>
      </trkpt>
      <trkpt lat="44.21402" lon="6.10097">
        <ele>885</ele>
        <time>2011-08-17T08:56:26Z</time>
      </trkpt>
      <trkpt lat="44.21413" lon="6.10126">
        <ele>888</ele>
        <time>2011-08-17T08:56:51Z</time>
      </trkpt>
      <trkpt lat="44.21413" lon="6.10127">
        <ele>888</ele>
        <time>2011-08-17T08:56:52Z</time>
      </trkpt>
      <trkpt lat="44.21416" lon="6.10144">
        <ele>890</ele>
        <time>2011-08-17T08:57:09Z</time>
      </trkpt>
      <trkpt lat="44.21425" lon="6.1017">
        <ele>896</ele>
        <time>2011-08-17T08:57:22Z</time>
      </trkpt>
      <trkpt lat="44.21426" lon="6.10172">
        <ele>896</ele>
        <time>2011-08-17T08:57:24Z</time>
      </trkpt>
      <trkpt lat="44.21428" lon="6.1019">
        <ele>899</ele>
        <time>2011-08-17T08:57:33Z</time>
      </trkpt>
      <trkpt lat="44.21425" lon="6.10197">
        <ele>899</ele>
        <time>2011-08-17T08:57:37Z</time>
      </trkpt>
      <trkpt lat="44.21405" lon="6.10214">
        <ele>900</ele>
        <time>2011-08-17T08:57:55Z</time>
      </trkpt>
      <trkpt lat="44.21403" lon="6.10216">
        <ele>900</ele>
        <time>2011-08-17T08:57:57Z</time>
      </trkpt>
      <trkpt lat="44.21403" lon="6.10226">
        <ele>901</ele>
        <time>2011-08-17T08:58:03Z</time>
      </trkpt>
      <trkpt lat="44.21405" lon="6.10261">
        <ele>909</ele>
        <time>2011-08-17T08:58:18Z</time>
      </trkpt>
      <trkpt lat="44.21404" lon="6.10268">
        <ele>909</ele>
        <time>2011-08-17T08:58:24Z</time>
      </trkpt>
      <trkpt lat="44.21406" lon="6.10288">
        <ele>911</ele>
        <time>2011-08-17T08:58:32Z</time>
      </trkpt>
      <trkpt lat="44.21409" lon="6.10297">
        <ele>912</ele>
        <time>2011-08-17T08:58:39Z</time>
      </trkpt>
      <trkpt lat="44.21416" lon="6.10309">
        <ele>913</ele>
        <time>2011-08-17T08:58:47Z</time>
      </trkpt>
      <trkpt lat="44.21427" lon="6.1031">
        <ele>912</ele>
        <time>2011-08-17T08:58:56Z</time>
      </trkpt>
      <trkpt lat="44.21439" lon="6.10318">
        <ele>912</ele>
        <time>2011-08-17T08:59:06Z</time>
      </trkpt>
      <trkpt lat="44.21443" lon="6.10323">
        <ele>912</ele>
        <time>2011-08-17T08:59:09Z</time>
      </trkpt>
      <trkpt lat="44.21461" lon="6.1034">
        <ele>920</ele>
        <time>2011-08-17T08:59:22Z</time>
      </trkpt>
      <trkpt lat="44.2147" lon="6.1035">
        <ele>920</ele>
        <time>2011-08-17T08:59:36Z</time>
      </trkpt>
      <trkpt lat="44.21474" lon="6.10354">
        <ele>920</ele>
        <time>2011-08-17T08:59:49Z</time>
      </trkpt>
      <trkpt lat="44.21471" lon="6.10366">
        <ele>921</ele>
        <time>2011-08-17T09:00:02Z</time>
      </trkpt>
      <trkpt lat="44.21469" lon="6.10377">
        <ele>922</ele>
        <time>2011-08-17T09:00:17Z</time>
      </trkpt>
      <trkpt lat="44.21472" lon="6.10382">
        <ele>923</ele>
        <time>2011-08-17T09:00:20Z</time>
      </trkpt>
      <trkpt lat="44.21484" lon="6.10388">
        <ele>924</ele>
        <time>2011-08-17T09:00:33Z</time>
      </trkpt>
      <trkpt lat="44.21487" lon="6.10396">
        <ele>925</ele>
        <time>2011-08-17T09:00:46Z</time>
      </trkpt>
      <trkpt lat="44.21487" lon="6.104">
        <ele>926</ele>
        <time>2011-08-17T09:00:58Z</time>
      </trkpt>
      <trkpt lat="44.2149" lon="6.10402">
        <ele>927</ele>
        <time>2011-08-17T09:01:02Z</time>
      </trkpt>
      <trkpt lat="44.21495" lon="6.10411">
        <ele>929</ele>
        <time>2011-08-17T09:01:16Z</time>
      </trkpt>
      <trkpt lat="44.21489" lon="6.10417">
        <ele>935</ele>
        <time>2011-08-17T09:01:25Z</time>
      </trkpt>
      <trkpt lat="44.21483" lon="6.10428">
        <ele>937</ele>
        <time>2011-08-17T09:01:39Z</time>
      </trkpt>
      <trkpt lat="44.21491" lon="6.10434">
        <ele>938</ele>
        <time>2011-08-17T09:01:51Z</time>
      </trkpt>
      <trkpt lat="44.21498" lon="6.10447">
        <ele>941</ele>
        <time>2011-08-17T09:02:07Z</time>
      </trkpt>
      <trkpt lat="44.2149" lon="6.10452">
        <ele>942</ele>
        <time>2011-08-17T09:02:21Z</time>
      </trkpt>
      <trkpt lat="44.21486" lon="6.10458">
        <ele>943</ele>
        <time>2011-08-17T09:02:31Z</time>
      </trkpt>
      <trkpt lat="44.21493" lon="6.10472">
        <ele>947</ele>
        <time>2011-08-17T09:02:49Z</time>
      </trkpt>
      <trkpt lat="44.215" lon="6.10485">
        <ele>951</ele>
        <time>2011-08-17T09:03:06Z</time>
      </trkpt>
      <trkpt lat="44.21495" lon="6.10493">
        <ele>954</ele>
        <time>2011-08-17T09:03:19Z</time>
      </trkpt>
      <trkpt lat="44.21492" lon="6.10492">
        <ele>953</ele>
        <time>2011-08-17T09:03:26Z</time>
      </trkpt>
      <trkpt lat="44.21489" lon="6.10492">
        <ele>952</ele>
        <time>2011-08-17T09:03:29Z</time>
      </trkpt>
      <trkpt lat="44.21493" lon="6.10498">
        <ele>955</ele>
        <time>2011-08-17T09:03:43Z</time>
      </trkpt>
      <trkpt lat="44.21494" lon="6.10508">
        <ele>962</ele>
        <time>2011-08-17T09:03:57Z</time>
      </trkpt>
      <trkpt lat="44.21492" lon="6.1051">
        <ele>963</ele>
        <time>2011-08-17T09:04:03Z</time>
      </trkpt>
      <trkpt lat="44.21488" lon="6.10522">
        <ele>965</ele>
        <time>2011-08-17T09:04:22Z</time>
      </trkpt>
      <trkpt lat="44.21495" lon="6.10523">
        <ele>965</ele>
        <time>2011-08-17T09:04:35Z</time>
      </trkpt>
      <trkpt lat="44.21498" lon="6.10528">
        <ele>966</ele>
        <time>2011-08-17T09:04:41Z</time>
      </trkpt>
      <trkpt lat="44.21502" lon="6.10544">
        <ele>964</ele>
        <time>2011-08-17T09:04:57Z</time>
      </trkpt>
      <trkpt lat="44.21496" lon="6.10546">
        <ele>970</ele>
        <time>2011-08-17T09:05:10Z</time>
      </trkpt>
      <trkpt lat="44.21494" lon="6.10548">
        <ele>970</ele>
        <time>2011-08-17T09:05:23Z</time>
      </trkpt>
      <trkpt lat="44.215" lon="6.10555">
        <ele>972</ele>
        <time>2011-08-17T09:05:37Z</time>
      </trkpt>
      <trkpt lat="44.21508" lon="6.10564">
        <ele>970</ele>
        <time>2011-08-17T09:05:56Z</time>
      </trkpt>
      <trkpt lat="44.21509" lon="6.10568">
        <ele>971</ele>
        <time>2011-08-17T09:06:00Z</time>
      </trkpt>
      <trkpt lat="44.21514" lon="6.10572">
        <ele>971</ele>
        <time>2011-08-17T09:06:04Z</time>
      </trkpt>
      <trkpt lat="44.21513" lon="6.10585">
        <ele>982</ele>
        <time>2011-08-17T09:06:18Z</time>
      </trkpt>
      <trkpt lat="44.21503" lon="6.10592">
        <ele>983</ele>
        <time>2011-08-17T09:06:34Z</time>
      </trkpt>
      <trkpt lat="44.21495" lon="6.10601">
        <ele>986</ele>
        <time>2011-08-17T09:06:48Z</time>
      </trkpt>
      <trkpt lat="44.2149" lon="6.10605">
        <ele>986</ele>
        <time>2011-08-17T09:06:53Z</time>
      </trkpt>
      <trkpt lat="44.21477" lon="6.10614">
        <ele>987</ele>
        <time>2011-08-17T09:07:10Z</time>
      </trkpt>
      <trkpt lat="44.21466" lon="6.10626">
        <ele>987</ele>
        <time>2011-08-17T09:07:29Z</time>
      </trkpt>
      <trkpt lat="44.21464" lon="6.10642">
        <ele>988</ele>
        <time>2011-08-17T09:07:48Z</time>
      </trkpt>
      <trkpt lat="44.2147" lon="6.10655">
        <ele>990</ele>
        <time>2011-08-17T09:08:07Z</time>
      </trkpt>
      <trkpt lat="44.21479" lon="6.10664">
        <ele>993</ele>
        <time>2011-08-17T09:08:24Z</time>
      </trkpt>
      <trkpt lat="44.21484" lon="6.10686">
        <ele>1000</ele>
        <time>2011-08-17T09:08:42Z</time>
      </trkpt>
      <trkpt lat="44.21485" lon="6.107">
        <ele>1001</ele>
        <time>2011-08-17T09:09:00Z</time>
      </trkpt>
      <trkpt lat="44.21484" lon="6.10719">
        <ele>1002</ele>
        <time>2011-08-17T09:09:22Z</time>
      </trkpt>
      <trkpt lat="44.21482" lon="6.10736">
        <ele>1004</ele>
        <time>2011-08-17T09:09:40Z</time>
      </trkpt>
      <trkpt lat="44.21486" lon="6.10765">
        <ele>1012</ele>
        <time>2011-08-17T09:10:02Z</time>
      </trkpt>
      <trkpt lat="44.21491" lon="6.10778">
        <ele>1013</ele>
        <time>2011-08-17T09:10:18Z</time>
      </trkpt>
      <trkpt lat="44.21496" lon="6.10789">
        <ele>1014</ele>
        <time>2011-08-17T09:10:34Z</time>
      </trkpt>
      <trkpt lat="44.21501" lon="6.10803">
        <ele>1017</ele>
        <time>2011-08-17T09:10:52Z</time>
      </trkpt>
      <trkpt lat="44.21498" lon="6.10818">
        <ele>1020</ele>
        <time>2011-08-17T09:11:10Z</time>
      </trkpt>
      <trkpt lat="44.21495" lon="6.10832">
        <ele>1023</ele>
        <time>2011-08-17T09:11:26Z</time>
      </trkpt>
      <trkpt lat="44.21496" lon="6.10849">
        <ele>1029</ele>
        <time>2011-08-17T09:11:41Z</time>
      </trkpt>
      <trkpt lat="44.21497" lon="6.10852">
        <ele>1030</ele>
        <time>2011-08-17T09:11:44Z</time>
      </trkpt>
      <trkpt lat="44.21502" lon="6.10873">
        <ele>1041</ele>
        <time>2011-08-17T09:12:04Z</time>
      </trkpt>
      <trkpt lat="44.21501" lon="6.10887">
        <ele>1044</ele>
        <time>2011-08-17T09:12:20Z</time>
      </trkpt>
      <trkpt lat="44.21507" lon="6.10886">
        <ele>1044</ele>
        <time>2011-08-17T09:12:33Z</time>
      </trkpt>
      <trkpt lat="44.21509" lon="6.1088">
        <ele>1042</ele>
        <time>2011-08-17T09:12:41Z</time>
      </trkpt>
      <trkpt lat="44.21515" lon="6.10871">
        <ele>1040</ele>
        <time>2011-08-17T09:12:51Z</time>
      </trkpt>
      <trkpt lat="44.21527" lon="6.1087">
        <ele>1040</ele>
        <time>2011-08-17T09:13:08Z</time>
      </trkpt>
      <trkpt lat="44.21529" lon="6.1087">
        <ele>1040</ele>
        <time>2011-08-17T09:13:10Z</time>
      </trkpt>
      <trkpt lat="44.21545" lon="6.10874">
        <ele>1042</ele>
        <time>2011-08-17T09:13:31Z</time>
      </trkpt>
      <trkpt lat="44.21544" lon="6.10885">
        <ele>1044</ele>
        <time>2011-08-17T09:13:46Z</time>
      </trkpt>
      <trkpt lat="44.2154" lon="6.10892">
        <ele>1045</ele>
        <time>2011-08-17T09:14:01Z</time>
      </trkpt>
      <trkpt lat="44.21533" lon="6.10903">
        <ele>1047</ele>
        <time>2011-08-17T09:14:19Z</time>
      </trkpt>
      <trkpt lat="44.2153" lon="6.1092">
        <ele>1066</ele>
        <time>2011-08-17T09:14:34Z</time>
      </trkpt>
      <trkpt lat="44.21527" lon="6.10935">
        <ele>1067</ele>
        <time>2011-08-17T09:14:49Z</time>
      </trkpt>
      <trkpt lat="44.2152" lon="6.10946">
        <ele>1068</ele>
        <time>2011-08-17T09:15:04Z</time>
      </trkpt>
      <trkpt lat="44.21508" lon="6.10951">
        <ele>1069</ele>
        <time>2011-08-17T09:15:26Z</time>
      </trkpt>
      <trkpt lat="44.21501" lon="6.10952">
        <ele>1068</ele>
        <time>2011-08-17T09:15:40Z</time>
      </trkpt>
      <trkpt lat="44.21498" lon="6.10953">
        <ele>1058</ele>
        <time>2011-08-17T09:15:43Z</time>
      </trkpt>
      <trkpt lat="44.21486" lon="6.10967">
        <ele>1060</ele>
        <time>2011-08-17T09:16:01Z</time>
      </trkpt>
      <trkpt lat="44.21485" lon="6.10968">
        <ele>1060</ele>
        <time>2011-08-17T09:16:02Z</time>
      </trkpt>
      <trkpt lat="44.21483" lon="6.10982">
        <ele>1063</ele>
        <time>2011-08-17T09:16:10Z</time>
      </trkpt>
      <trkpt lat="44.21483" lon="6.11001">
        <ele>1077</ele>
        <time>2011-08-17T09:16:26Z</time>
      </trkpt>
      <trkpt lat="44.21488" lon="6.11005">
        <ele>1078</ele>
        <time>2011-08-17T09:16:39Z</time>
      </trkpt>
      <trkpt lat="44.21489" lon="6.11002">
        <ele>1078</ele>
        <time>2011-08-17T09:16:42Z</time>
      </trkpt>
      <trkpt lat="44.21495" lon="6.11012">
        <ele>1079</ele>
        <time>2011-08-17T09:16:58Z</time>
      </trkpt>
      <trkpt lat="44.21495" lon="6.11026">
        <ele>1080</ele>
        <time>2011-08-17T09:17:14Z</time>
      </trkpt>
      <trkpt lat="44.21495" lon="6.11048">
        <ele>1085</ele>
        <time>2011-08-17T09:17:32Z</time>
      </trkpt>
      <trkpt lat="44.21495" lon="6.11049">
        <ele>1085</ele>
        <time>2011-08-17T09:17:34Z</time>
      </trkpt>
      <trkpt lat="44.21494" lon="6.11062">
        <ele>1090</ele>
        <time>2011-08-17T09:17:52Z</time>
      </trkpt>
      <trkpt lat="44.2149" lon="6.11081">
        <ele>1097</ele>
        <time>2011-08-17T09:18:13Z</time>
      </trkpt>
      <trkpt lat="44.21495" lon="6.11081">
        <ele>1100</ele>
        <time>2011-08-17T09:18:29Z</time>
      </trkpt>
      <trkpt lat="44.21507" lon="6.11073">
        <ele>1102</ele>
        <time>2011-08-17T09:18:51Z</time>
      </trkpt>
      <trkpt lat="44.21507" lon="6.11084">
        <ele>1108</ele>
        <time>2011-08-17T09:19:07Z</time>
      </trkpt>
      <trkpt lat="44.21512" lon="6.11089">
        <ele>1110</ele>
        <time>2011-08-17T09:19:19Z</time>
      </trkpt>
      <trkpt lat="44.21518" lon="6.11088">
        <ele>1111</ele>
        <time>2011-08-17T09:19:37Z</time>
      </trkpt>
      <trkpt lat="44.21514" lon="6.11096">
        <ele>1111</ele>
        <time>2011-08-17T09:19:51Z</time>
      </trkpt>
      <trkpt lat="44.21518" lon="6.11096">
        <ele>1112</ele>
        <time>2011-08-17T09:20:02Z</time>
      </trkpt>
      <trkpt lat="44.2152" lon="6.11099">
        <ele>1112</ele>
        <time>2011-08-17T09:20:16Z</time>
      </trkpt>
      <trkpt lat="44.21523" lon="6.11105">
        <ele>1113</ele>
        <time>2011-08-17T09:20:30Z</time>
      </trkpt>
      <trkpt lat="44.21528" lon="6.11112">
        <ele>1114</ele>
        <time>2011-08-17T09:20:46Z</time>
      </trkpt>
      <trkpt lat="44.21524" lon="6.11119">
        <ele>1115</ele>
        <time>2011-08-17T09:21:02Z</time>
      </trkpt>
      <trkpt lat="44.21521" lon="6.11127">
        <ele>1116</ele>
        <time>2011-08-17T09:21:18Z</time>
      </trkpt>
      <trkpt lat="44.21516" lon="6.11135">
        <ele>1117</ele>
        <time>2011-08-17T09:21:31Z</time>
      </trkpt>
      <trkpt lat="44.21518" lon="6.1114">
        <ele>1118</ele>
        <time>2011-08-17T09:21:45Z</time>
      </trkpt>
      <trkpt lat="44.21522" lon="6.11145">
        <ele>1118</ele>
        <time>2011-08-17T09:21:58Z</time>
      </trkpt>
      <trkpt lat="44.21526" lon="6.11157">
        <ele>1119</ele>
        <time>2011-08-17T09:22:13Z</time>
      </trkpt>
      <trkpt lat="44.21531" lon="6.11168">
        <ele>1131</ele>
        <time>2011-08-17T09:22:28Z</time>
      </trkpt>
      <trkpt lat="44.21533" lon="6.1118">
        <ele>1132</ele>
        <time>2011-08-17T09:22:43Z</time>
      </trkpt>
      <trkpt lat="44.2153" lon="6.11197">
        <ele>1134</ele>
        <time>2011-08-17T09:22:59Z</time>
      </trkpt>
      <trkpt lat="44.21523" lon="6.11219">
        <ele>1136</ele>
        <time>2011-08-17T09:23:17Z</time>
      </trkpt>
      <trkpt lat="44.21527" lon="6.11219">
        <ele>1136</ele>
        <time>2011-08-17T09:23:24Z</time>
      </trkpt>
      <trkpt lat="44.21546" lon="6.11209">
        <ele>1136</ele>
        <time>2011-08-17T09:23:43Z</time>
      </trkpt>
      <trkpt lat="44.21551" lon="6.11206">
        <ele>1135</ele>
        <time>2011-08-17T09:23:48Z</time>
      </trkpt>
      <trkpt lat="44.21558" lon="6.11211">
        <ele>1136</ele>
        <time>2011-08-17T09:24:02Z</time>
      </trkpt>
      <trkpt lat="44.2155" lon="6.11228">
        <ele>1138</ele>
        <time>2011-08-17T09:24:21Z</time>
      </trkpt>
      <trkpt lat="44.21545" lon="6.11242">
        <ele>1139</ele>
        <time>2011-08-17T09:24:34Z</time>
      </trkpt>
      <trkpt lat="44.21545" lon="6.11244">
        <ele>1139</ele>
        <time>2011-08-17T09:24:36Z</time>
      </trkpt>
      <trkpt lat="44.2154" lon="6.11267">
        <ele>1156</ele>
        <time>2011-08-17T09:24:52Z</time>
      </trkpt>
      <trkpt lat="44.21537" lon="6.1128">
        <ele>1158</ele>
        <time>2011-08-17T09:25:06Z</time>
      </trkpt>
      <trkpt lat="44.21534" lon="6.11294">
        <ele>1159</ele>
        <time>2011-08-17T09:25:19Z</time>
      </trkpt>
      <trkpt lat="44.21529" lon="6.11306">
        <ele>1161</ele>
        <time>2011-08-17T09:25:32Z</time>
      </trkpt>
      <trkpt lat="44.21525" lon="6.11313">
        <ele>1162</ele>
        <time>2011-08-17T09:25:37Z</time>
      </trkpt>
      <trkpt lat="44.21524" lon="6.11323">
        <ele>1162</ele>
        <time>2011-08-17T09:25:45Z</time>
      </trkpt>
      <trkpt lat="44.21519" lon="6.11331">
        <ele>1163</ele>
        <time>2011-08-17T09:25:49Z</time>
      </trkpt>
      <trkpt lat="44.21513" lon="6.11339">
        <ele>1174</ele>
        <time>2011-08-17T09:25:55Z</time>
      </trkpt>
      <trkpt lat="44.21501" lon="6.11341">
        <ele>1171</ele>
        <time>2011-08-17T09:26:07Z</time>
      </trkpt>
      <trkpt lat="44.21494" lon="6.11346">
        <ele>1168</ele>
        <time>2011-08-17T09:26:22Z</time>
      </trkpt>
      <trkpt lat="44.21498" lon="6.1135">
        <ele>1169</ele>
        <time>2011-08-17T09:26:29Z</time>
      </trkpt>
      <trkpt lat="44.21506" lon="6.11349">
        <ele>1176</ele>
        <time>2011-08-17T09:26:45Z</time>
      </trkpt>
      <trkpt lat="44.21524" lon="6.11352">
        <ele>1181</ele>
        <time>2011-08-17T09:27:03Z</time>
      </trkpt>
      <trkpt lat="44.21538" lon="6.11358">
        <ele>1185</ele>
        <time>2011-08-17T09:27:21Z</time>
      </trkpt>
      <trkpt lat="44.21557" lon="6.11356">
        <ele>1187</ele>
        <time>2011-08-17T09:27:41Z</time>
      </trkpt>
      <trkpt lat="44.21562" lon="6.11355">
        <ele>1187</ele>
        <time>2011-08-17T09:27:47Z</time>
      </trkpt>
      <trkpt lat="44.21561" lon="6.11357">
        <ele>1187</ele>
        <time>2011-08-17T09:28:03Z</time>
      </trkpt>
      <trkpt lat="44.21559" lon="6.11356">
        <ele>1187</ele>
        <time>2011-08-17T09:28:18Z</time>
      </trkpt>
      <trkpt lat="44.21546" lon="6.11365">
        <ele>1187</ele>
        <time>2011-08-17T09:28:27Z</time>
      </trkpt>
      <trkpt lat="44.21532" lon="6.11375">
        <ele>1187</ele>
        <time>2011-08-17T09:28:41Z</time>
      </trkpt>
      <trkpt lat="44.21523" lon="6.11391">
        <ele>1190</ele>
        <time>2011-08-17T09:28:54Z</time>
      </trkpt>
      <trkpt lat="44.21515" lon="6.11407">
        <ele>1192</ele>
        <time>2011-08-17T09:29:04Z</time>
      </trkpt>
      <trkpt lat="44.21505" lon="6.11429">
        <ele>1203</ele>
        <time>2011-08-17T09:29:16Z</time>
      </trkpt>
      <trkpt lat="44.21501" lon="6.11437">
        <ele>1206</ele>
        <time>2011-08-17T09:29:20Z</time>
      </trkpt>
      <trkpt lat="44.21486" lon="6.11452">
        <ele>1203</ele>
        <time>2011-08-17T09:29:27Z</time>
      </trkpt>
      <trkpt lat="44.21479" lon="6.11459">
        <ele>1204</ele>
        <time>2011-08-17T09:29:38Z</time>
      </trkpt>
      <trkpt lat="44.21469" lon="6.11461">
        <ele>1203</ele>
        <time>2011-08-17T09:29:48Z</time>
      </trkpt>
      <trkpt lat="44.21457" lon="6.11462">
        <ele>1203</ele>
        <time>2011-08-17T09:30:02Z</time>
      </trkpt>
      <trkpt lat="44.21449" lon="6.11467">
        <ele>1203</ele>
        <time>2011-08-17T09:30:17Z</time>
      </trkpt>
      <trkpt lat="44.21446" lon="6.11468">
        <ele>1203</ele>
        <time>2011-08-17T09:30:24Z</time>
      </trkpt>
      <trkpt lat="44.2143" lon="6.11471">
        <ele>1203</ele>
        <time>2011-08-17T09:30:43Z</time>
      </trkpt>
      <trkpt lat="44.21429" lon="6.11471">
        <ele>1203</ele>
        <time>2011-08-17T09:30:44Z</time>
      </trkpt>
      <trkpt lat="44.21418" lon="6.11483">
        <ele>1206</ele>
        <time>2011-08-17T09:30:55Z</time>
      </trkpt>
      <trkpt lat="44.2139" lon="6.115">
        <ele>1211</ele>
        <time>2011-08-17T09:31:11Z</time>
      </trkpt>
      <trkpt lat="44.21372" lon="6.11515">
        <ele>1211</ele>
        <time>2011-08-17T09:31:25Z</time>
      </trkpt>
      <trkpt lat="44.21351" lon="6.11532">
        <ele>1211</ele>
        <time>2011-08-17T09:31:40Z</time>
      </trkpt>
      <trkpt lat="44.21333" lon="6.11555">
        <ele>1215</ele>
        <time>2011-08-17T09:31:54Z</time>
      </trkpt>
      <trkpt lat="44.21315" lon="6.11587">
        <ele>1225</ele>
        <time>2011-08-17T09:32:10Z</time>
      </trkpt>
      <trkpt lat="44.21304" lon="6.11597">
        <ele>1225</ele>
        <time>2011-08-17T09:32:17Z</time>
      </trkpt>
      <trkpt lat="44.21298" lon="6.11597">
        <ele>1225</ele>
        <time>2011-08-17T09:32:20Z</time>
      </trkpt>
      <trkpt lat="44.21294" lon="6.11591">
        <ele>1224</ele>
        <time>2011-08-17T09:32:25Z</time>
      </trkpt>
      <trkpt lat="44.21286" lon="6.11591">
        <ele>1224</ele>
        <time>2011-08-17T09:32:29Z</time>
      </trkpt>
      <trkpt lat="44.2128" lon="6.11594">
        <ele>1223</ele>
        <time>2011-08-17T09:32:32Z</time>
      </trkpt>
      <trkpt lat="44.21255" lon="6.11607">
        <ele>1222</ele>
        <time>2011-08-17T09:32:46Z</time>
      </trkpt>
      <trkpt lat="44.2124" lon="6.11619">
        <ele>1224</ele>
        <time>2011-08-17T09:33:00Z</time>
      </trkpt>
      <trkpt lat="44.21228" lon="6.1164">
        <ele>1228</ele>
        <time>2011-08-17T09:33:08Z</time>
      </trkpt>
      <trkpt lat="44.21224" lon="6.11661">
        <ele>1230</ele>
        <time>2011-08-17T09:33:17Z</time>
      </trkpt>
      <trkpt lat="44.21208" lon="6.1169">
        <ele>1246</ele>
        <time>2011-08-17T09:33:30Z</time>
      </trkpt>
      <trkpt lat="44.21191" lon="6.11699">
        <ele>1247</ele>
        <time>2011-08-17T09:33:42Z</time>
      </trkpt>
      <trkpt lat="44.21186" lon="6.11696">
        <ele>1246</ele>
        <time>2011-08-17T09:33:45Z</time>
      </trkpt>
      <trkpt lat="44.21173" lon="6.11674">
        <ele>1240</ele>
        <time>2011-08-17T09:33:56Z</time>
      </trkpt>
      <trkpt lat="44.2116" lon="6.11657">
        <ele>1235</ele>
        <time>2011-08-17T09:34:05Z</time>
      </trkpt>
      <trkpt lat="44.21149" lon="6.11651">
        <ele>1233</ele>
        <time>2011-08-17T09:34:14Z</time>
      </trkpt>
      <trkpt lat="44.21145" lon="6.11648">
        <ele>1233</ele>
        <time>2011-08-17T09:34:17Z</time>
      </trkpt>
      <trkpt lat="44.21135" lon="6.11645">
        <ele>1233</ele>
        <time>2011-08-17T09:34:22Z</time>
      </trkpt>
      <trkpt lat="44.21133" lon="6.11637">
        <ele>1232</ele>
        <time>2011-08-17T09:34:26Z</time>
      </trkpt>
      <trkpt lat="44.21126" lon="6.11606">
        <ele>1228</ele>
        <time>2011-08-17T09:34:37Z</time>
      </trkpt>
      <trkpt lat="44.21118" lon="6.11602">
        <ele>1228</ele>
        <time>2011-08-17T09:34:41Z</time>
      </trkpt>
      <trkpt lat="44.21112" lon="6.11601">
        <ele>1228</ele>
        <time>2011-08-17T09:34:45Z</time>
      </trkpt>
      <trkpt lat="44.21085" lon="6.11637">
        <ele>1234</ele>
        <time>2011-08-17T09:35:06Z</time>
      </trkpt>
      <trkpt lat="44.21058" lon="6.11659">
        <ele>1234</ele>
        <time>2011-08-17T09:35:19Z</time>
      </trkpt>
      <trkpt lat="44.21033" lon="6.11667">
        <ele>1248</ele>
        <time>2011-08-17T09:35:30Z</time>
      </trkpt>
      <trkpt lat="44.2102" lon="6.11664">
        <ele>1232</ele>
        <time>2011-08-17T09:35:36Z</time>
      </trkpt>
      <trkpt lat="44.21014" lon="6.1166">
        <ele>1232</ele>
        <time>2011-08-17T09:35:40Z</time>
      </trkpt>
      <trkpt lat="44.2101" lon="6.11658">
        <ele>1233</ele>
        <time>2011-08-17T09:35:42Z</time>
      </trkpt>
      <trkpt lat="44.20973" lon="6.11689">
        <ele>1236</ele>
        <time>2011-08-17T09:35:58Z</time>
      </trkpt>
      <trkpt lat="44.2097" lon="6.11693">
        <ele>1237</ele>
        <time>2011-08-17T09:35:59Z</time>
      </trkpt>
      <trkpt lat="44.20954" lon="6.11709">
        <ele>1237</ele>
        <time>2011-08-17T09:36:03Z</time>
      </trkpt>
      <trkpt lat="44.20925" lon="6.11714">
        <ele>1234</ele>
        <time>2011-08-17T09:36:10Z</time>
      </trkpt>
      <trkpt lat="44.20917" lon="6.11724">
        <ele>1235</ele>
        <time>2011-08-17T09:36:14Z</time>
      </trkpt>
      <trkpt lat="44.20901" lon="6.11727">
        <ele>1226</ele>
        <time>2011-08-17T09:36:24Z</time>
      </trkpt>
      <trkpt lat="44.20893" lon="6.11729">
        <ele>1225</ele>
        <time>2011-08-17T09:36:41Z</time>
      </trkpt>
      <trkpt lat="44.20888" lon="6.11729">
        <ele>1225</ele>
        <time>2011-08-17T09:36:54Z</time>
      </trkpt>
      <trkpt lat="44.20883" lon="6.11733">
        <ele>1225</ele>
        <time>2011-08-17T09:37:10Z</time>
      </trkpt>
      <trkpt lat="44.20881" lon="6.11738">
        <ele>1225</ele>
        <time>2011-08-17T09:37:22Z</time>
      </trkpt>
      <trkpt lat="44.20881" lon="6.11738">
        <ele>1225</ele>
        <time>2011-08-17T09:37:45Z</time>
      </trkpt>
      <trkpt lat="44.20881" lon="6.11739">
        <ele>1225</ele>
        <time>2011-08-17T09:38:12Z</time>
      </trkpt>
      <trkpt lat="44.20882" lon="6.11739">
        <ele>1225</ele>
        <time>2011-08-17T09:38:50Z</time>
      </trkpt>
      <trkpt lat="44.20882" lon="6.11739">
        <ele>1225</ele>
        <time>2011-08-17T09:38:53Z</time>
      </trkpt>
      <trkpt lat="44.20876" lon="6.11746">
        <ele>1225</ele>
        <time>2011-08-17T09:39:08Z</time>
      </trkpt>
      <trkpt lat="44.20867" lon="6.11757">
        <ele>1234</ele>
        <time>2011-08-17T09:39:28Z</time>
      </trkpt>
      <trkpt lat="44.20849" lon="6.11762">
        <ele>1231</ele>
        <time>2011-08-17T09:39:41Z</time>
      </trkpt>
      <trkpt lat="44.20832" lon="6.1178">
        <ele>1228</ele>
        <time>2011-08-17T09:39:54Z</time>
      </trkpt>
      <trkpt lat="44.20834" lon="6.11791">
        <ele>1235</ele>
        <time>2011-08-17T09:40:07Z</time>
      </trkpt>
      <trkpt lat="44.20836" lon="6.11801">
        <ele>1236</ele>
        <time>2011-08-17T09:40:35Z</time>
      </trkpt>
      <trkpt lat="44.20835" lon="6.1181">
        <ele>1236</ele>
        <time>2011-08-17T09:40:44Z</time>
      </trkpt>
      <trkpt lat="44.20824" lon="6.11839">
        <ele>1238</ele>
        <time>2011-08-17T09:40:57Z</time>
      </trkpt>
      <trkpt lat="44.20826" lon="6.11861">
        <ele>1241</ele>
        <time>2011-08-17T09:41:08Z</time>
      </trkpt>
      <trkpt lat="44.2083" lon="6.11868">
        <ele>1242</ele>
        <time>2011-08-17T09:41:19Z</time>
      </trkpt>
      <trkpt lat="44.2083" lon="6.11868">
        <ele>1242</ele>
        <time>2011-08-17T09:41:21Z</time>
      </trkpt>
      <trkpt lat="44.20824" lon="6.11873">
        <ele>1243</ele>
        <time>2011-08-17T09:41:37Z</time>
      </trkpt>
      <trkpt lat="44.20824" lon="6.11873">
        <ele>1243</ele>
        <time>2011-08-17T09:41:39Z</time>
      </trkpt>
      <trkpt lat="44.20809" lon="6.11871">
        <ele>1242</ele>
        <time>2011-08-17T09:41:48Z</time>
      </trkpt>
      <trkpt lat="44.20804" lon="6.11867">
        <ele>1242</ele>
        <time>2011-08-17T09:41:51Z</time>
      </trkpt>
      <trkpt lat="44.20801" lon="6.11844">
        <ele>1240</ele>
        <time>2011-08-17T09:42:03Z</time>
      </trkpt>
      <trkpt lat="44.20803" lon="6.11837">
        <ele>1239</ele>
        <time>2011-08-17T09:42:10Z</time>
      </trkpt>
      <trkpt lat="44.20803" lon="6.11835">
        <ele>1239</ele>
        <time>2011-08-17T09:42:12Z</time>
      </trkpt>
      <trkpt lat="44.20793" lon="6.11834">
        <ele>1239</ele>
        <time>2011-08-17T09:42:25Z</time>
      </trkpt>
      <trkpt lat="44.20787" lon="6.1184">
        <ele>1239</ele>
        <time>2011-08-17T09:42:31Z</time>
      </trkpt>
      <trkpt lat="44.20781" lon="6.11839">
        <ele>1238</ele>
        <time>2011-08-17T09:42:36Z</time>
      </trkpt>
      <trkpt lat="44.2077" lon="6.11823">
        <ele>1231</ele>
        <time>2011-08-17T09:42:53Z</time>
      </trkpt>
      <trkpt lat="44.20764" lon="6.11824">
        <ele>1231</ele>
        <time>2011-08-17T09:43:09Z</time>
      </trkpt>
      <trkpt lat="44.20765" lon="6.11824">
        <ele>1231</ele>
        <time>2011-08-17T09:49:24Z</time>
      </trkpt>
      <trkpt lat="44.20762" lon="6.1178">
        <ele>1229</ele>
        <time>2011-08-17T09:49:39Z</time>
      </trkpt>
      <trkpt lat="44.20769" lon="6.11707">
        <ele>1225</ele>
        <time>2011-08-17T09:49:54Z</time>
      </trkpt>
      <trkpt lat="44.2077" lon="6.11631">
        <ele>1223</ele>
        <time>2011-08-17T09:50:08Z</time>
      </trkpt>
      <trkpt lat="44.20778" lon="6.11603">
        <ele>1223</ele>
        <time>2011-08-17T09:50:21Z</time>
      </trkpt>
      <trkpt lat="44.2078" lon="6.11559">
        <ele>1226</ele>
        <time>2011-08-17T09:50:43Z</time>
      </trkpt>
      <trkpt lat="44.2078" lon="6.11539">
        <ele>1227</ele>
        <time>2011-08-17T09:50:58Z</time>
      </trkpt>
      <trkpt lat="44.20783" lon="6.11522">
        <ele>1228</ele>
        <time>2011-08-17T09:51:21Z</time>
      </trkpt>
      <trkpt lat="44.20784" lon="6.115">
        <ele>1233</ele>
        <time>2011-08-17T09:51:39Z</time>
      </trkpt>
      <trkpt lat="44.20784" lon="6.11497">
        <ele>1233</ele>
        <time>2011-08-17T09:51:41Z</time>
      </trkpt>
      <trkpt lat="44.20782" lon="6.1147">
        <ele>1233</ele>
        <time>2011-08-17T09:52:04Z</time>
      </trkpt>
      <trkpt lat="44.20783" lon="6.11431">
        <ele>1234</ele>
        <time>2011-08-17T09:52:21Z</time>
      </trkpt>
      <trkpt lat="44.20784" lon="6.11377">
        <ele>1236</ele>
        <time>2011-08-17T09:52:37Z</time>
      </trkpt>
      <trkpt lat="44.20795" lon="6.11323">
        <ele>1237</ele>
        <time>2011-08-17T09:52:49Z</time>
      </trkpt>
      <trkpt lat="44.20791" lon="6.11284">
        <ele>1238</ele>
        <time>2011-08-17T09:53:01Z</time>
      </trkpt>
      <trkpt lat="44.20783" lon="6.11244">
        <ele>1241</ele>
        <time>2011-08-17T09:53:19Z</time>
      </trkpt>
      <trkpt lat="44.20782" lon="6.11243">
        <ele>1241</ele>
        <time>2011-08-17T09:53:20Z</time>
      </trkpt>
      <trkpt lat="44.20782" lon="6.11209">
        <ele>1241</ele>
        <time>2011-08-17T09:53:36Z</time>
      </trkpt>
      <trkpt lat="44.20789" lon="6.11157">
        <ele>1244</ele>
        <time>2011-08-17T09:53:50Z</time>
      </trkpt>
      <trkpt lat="44.20796" lon="6.11135">
        <ele>1244</ele>
        <time>2011-08-17T09:54:02Z</time>
      </trkpt>
      <trkpt lat="44.20798" lon="6.11116">
        <ele>1245</ele>
        <time>2011-08-17T09:54:39Z</time>
      </trkpt>
      <trkpt lat="44.20802" lon="6.11092">
        <ele>1245</ele>
        <time>2011-08-17T09:54:56Z</time>
      </trkpt>
      <trkpt lat="44.20801" lon="6.11074">
        <ele>1248</ele>
        <time>2011-08-17T09:55:11Z</time>
      </trkpt>
      <trkpt lat="44.20802" lon="6.11049">
        <ele>1249</ele>
        <time>2011-08-17T09:55:31Z</time>
      </trkpt>
      <trkpt lat="44.20803" lon="6.11043">
        <ele>1249</ele>
        <time>2011-08-17T09:55:35Z</time>
      </trkpt>
      <trkpt lat="44.20801" lon="6.11015">
        <ele>1250</ele>
        <time>2011-08-17T09:55:57Z</time>
      </trkpt>
      <trkpt lat="44.20796" lon="6.10989">
        <ele>1256</ele>
        <time>2011-08-17T09:56:20Z</time>
      </trkpt>
      <trkpt lat="44.20795" lon="6.10978">
        <ele>1257</ele>
        <time>2011-08-17T09:56:35Z</time>
      </trkpt>
      <trkpt lat="44.20793" lon="6.1095">
        <ele>1258</ele>
        <time>2011-08-17T09:56:58Z</time>
      </trkpt>
      <trkpt lat="44.20793" lon="6.10939">
        <ele>1259</ele>
        <time>2011-08-17T09:57:12Z</time>
      </trkpt>
      <trkpt lat="44.20794" lon="6.10916">
        <ele>1266</ele>
        <time>2011-08-17T09:57:34Z</time>
      </trkpt>
      <trkpt lat="44.20796" lon="6.10892">
        <ele>1267</ele>
        <time>2011-08-17T09:57:54Z</time>
      </trkpt>
      <trkpt lat="44.20798" lon="6.10885">
        <ele>1268</ele>
        <time>2011-08-17T09:58:01Z</time>
      </trkpt>
      <trkpt lat="44.20803" lon="6.10866">
        <ele>1269</ele>
        <time>2011-08-17T09:58:17Z</time>
      </trkpt>
      <trkpt lat="44.20809" lon="6.10847">
        <ele>1270</ele>
        <time>2011-08-17T09:58:32Z</time>
      </trkpt>
      <trkpt lat="44.20813" lon="6.10817">
        <ele>1277</ele>
        <time>2011-08-17T09:58:53Z</time>
      </trkpt>
      <trkpt lat="44.20817" lon="6.10801">
        <ele>1278</ele>
        <time>2011-08-17T09:59:12Z</time>
      </trkpt>
      <trkpt lat="44.20822" lon="6.10758">
        <ele>1283</ele>
        <time>2011-08-17T09:59:27Z</time>
      </trkpt>
      <trkpt lat="44.20823" lon="6.10744">
        <ele>1284</ele>
        <time>2011-08-17T09:59:38Z</time>
      </trkpt>
      <trkpt lat="44.20822" lon="6.10732">
        <ele>1283</ele>
        <time>2011-08-17T09:59:43Z</time>
      </trkpt>
      <trkpt lat="44.20816" lon="6.10727">
        <ele>1282</ele>
        <time>2011-08-17T09:59:47Z</time>
      </trkpt>
      <trkpt lat="44.20802" lon="6.10697">
        <ele>1281</ele>
        <time>2011-08-17T09:59:59Z</time>
      </trkpt>
      <trkpt lat="44.20782" lon="6.10662">
        <ele>1277</ele>
        <time>2011-08-17T10:00:19Z</time>
      </trkpt>
      <trkpt lat="44.20758" lon="6.1062">
        <ele>1278</ele>
        <time>2011-08-17T10:00:39Z</time>
      </trkpt>
      <trkpt lat="44.20735" lon="6.10578">
        <ele>1286</ele>
        <time>2011-08-17T10:00:58Z</time>
      </trkpt>
      <trkpt lat="44.20714" lon="6.10537">
        <ele>1286</ele>
        <time>2011-08-17T10:01:20Z</time>
      </trkpt>
      <trkpt lat="44.20695" lon="6.1049">
        <ele>1294</ele>
        <time>2011-08-17T10:01:43Z</time>
      </trkpt>
      <trkpt lat="44.20689" lon="6.10472">
        <ele>1295</ele>
        <time>2011-08-17T10:02:00Z</time>
      </trkpt>
      <trkpt lat="44.20685" lon="6.10458">
        <ele>1296</ele>
        <time>2011-08-17T10:02:15Z</time>
      </trkpt>
      <trkpt lat="44.2068" lon="6.10434">
        <ele>1300</ele>
        <time>2011-08-17T10:02:39Z</time>
      </trkpt>
      <trkpt lat="44.20678" lon="6.10409">
        <ele>1307</ele>
        <time>2011-08-17T10:03:00Z</time>
      </trkpt>
      <trkpt lat="44.20675" lon="6.10387">
        <ele>1307</ele>
        <time>2011-08-17T10:03:22Z</time>
      </trkpt>
      <trkpt lat="44.20673" lon="6.10356">
        <ele>1311</ele>
        <time>2011-08-17T10:03:48Z</time>
      </trkpt>
      <trkpt lat="44.20672" lon="6.10333">
        <ele>1320</ele>
        <time>2011-08-17T10:04:08Z</time>
      </trkpt>
      <trkpt lat="44.20671" lon="6.10313">
        <ele>1316</ele>
        <time>2011-08-17T10:04:27Z</time>
      </trkpt>
      <trkpt lat="44.2067" lon="6.10298">
        <ele>1316</ele>
        <time>2011-08-17T10:04:43Z</time>
      </trkpt>
      <trkpt lat="44.20664" lon="6.10269">
        <ele>1326</ele>
        <time>2011-08-17T10:05:05Z</time>
      </trkpt>
      <trkpt lat="44.20661" lon="6.10261">
        <ele>1327</ele>
        <time>2011-08-17T10:05:21Z</time>
      </trkpt>
      <trkpt lat="44.20653" lon="6.10241">
        <ele>1330</ele>
        <time>2011-08-17T10:05:49Z</time>
      </trkpt>
      <trkpt lat="44.2065" lon="6.10228">
        <ele>1329</ele>
        <time>2011-08-17T10:06:03Z</time>
      </trkpt>
      <trkpt lat="44.20645" lon="6.1021">
        <ele>1329</ele>
        <time>2011-08-17T10:06:20Z</time>
      </trkpt>
      <trkpt lat="44.2063" lon="6.10184">
        <ele>1330</ele>
        <time>2011-08-17T10:06:43Z</time>
      </trkpt>
      <trkpt lat="44.20623" lon="6.10175">
        <ele>1331</ele>
        <time>2011-08-17T10:06:59Z</time>
      </trkpt>
      <trkpt lat="44.206" lon="6.10132">
        <ele>1334</ele>
        <time>2011-08-17T10:07:23Z</time>
      </trkpt>
      <trkpt lat="44.20583" lon="6.10092">
        <ele>1344</ele>
        <time>2011-08-17T10:07:44Z</time>
      </trkpt>
      <trkpt lat="44.20568" lon="6.10062">
        <ele>1340</ele>
        <time>2011-08-17T10:08:05Z</time>
      </trkpt>
      <trkpt lat="44.20569" lon="6.10062">
        <ele>1340</ele>
        <time>2011-08-17T10:08:30Z</time>
      </trkpt>
      <trkpt lat="44.20568" lon="6.10061">
        <ele>1340</ele>
        <time>2011-08-17T10:10:28Z</time>
      </trkpt>
      <trkpt lat="44.20568" lon="6.10061">
        <ele>1340</ele>
        <time>2011-08-17T10:11:10Z</time>
      </trkpt>
      <trkpt lat="44.20568" lon="6.10061">
        <ele>1340</ele>
        <time>2011-08-17T10:12:25Z</time>
      </trkpt>
      <trkpt lat="44.20567" lon="6.10062">
        <ele>1340</ele>
        <time>2011-08-17T10:15:09Z</time>
      </trkpt>
      <trkpt lat="44.2053" lon="6.10048">
        <ele>1340</ele>
        <time>2011-08-17T10:15:21Z</time>
      </trkpt>
      <trkpt lat="44.20513" lon="6.10036">
        <ele>1340</ele>
        <time>2011-08-17T10:15:25Z</time>
      </trkpt>
      <trkpt lat="44.20484" lon="6.09991">
        <ele>1342</ele>
        <time>2011-08-17T10:15:38Z</time>
      </trkpt>
      <trkpt lat="44.2046" lon="6.09939">
        <ele>1339</ele>
        <time>2011-08-17T10:15:56Z</time>
      </trkpt>
      <trkpt lat="44.20458" lon="6.09927">
        <ele>1339</ele>
        <time>2011-08-17T10:16:07Z</time>
      </trkpt>
      <trkpt lat="44.20457" lon="6.09926">
        <ele>1339</ele>
        <time>2011-08-17T10:16:42Z</time>
      </trkpt>
      <trkpt lat="44.20424" lon="6.0992">
        <ele>1343</ele>
        <time>2011-08-17T10:16:55Z</time>
      </trkpt>
      <trkpt lat="44.20373" lon="6.09913">
        <ele>1330</ele>
        <time>2011-08-17T10:17:06Z</time>
      </trkpt>
      <trkpt lat="44.20351" lon="6.09904">
        <ele>1329</ele>
        <time>2011-08-17T10:17:10Z</time>
      </trkpt>
      <trkpt lat="44.2028" lon="6.09893">
        <ele>1317</ele>
        <time>2011-08-17T10:17:22Z</time>
      </trkpt>
      <trkpt lat="44.20241" lon="6.0988">
        <ele>1311</ele>
        <time>2011-08-17T10:17:31Z</time>
      </trkpt>
      <trkpt lat="44.20221" lon="6.09877">
        <ele>1311</ele>
        <time>2011-08-17T10:17:34Z</time>
      </trkpt>
      <trkpt lat="44.20194" lon="6.09885">
        <ele>1312</ele>
        <time>2011-08-17T10:17:41Z</time>
      </trkpt>
      <trkpt lat="44.20178" lon="6.09896">
        <ele>1313</ele>
        <time>2011-08-17T10:17:54Z</time>
      </trkpt>
      <trkpt lat="44.20172" lon="6.099">
        <ele>1314</ele>
        <time>2011-08-17T10:18:08Z</time>
      </trkpt>
      <trkpt lat="44.20167" lon="6.099">
        <ele>1314</ele>
        <time>2011-08-17T10:18:22Z</time>
      </trkpt>
      <trkpt lat="44.20156" lon="6.09896">
        <ele>1318</ele>
        <time>2011-08-17T10:18:40Z</time>
      </trkpt>
      <trkpt lat="44.20137" lon="6.0988">
        <ele>1318</ele>
        <time>2011-08-17T10:18:54Z</time>
      </trkpt>
      <trkpt lat="44.20127" lon="6.09868">
        <ele>1319</ele>
        <time>2011-08-17T10:19:07Z</time>
      </trkpt>
      <trkpt lat="44.20123" lon="6.09865">
        <ele>1319</ele>
        <time>2011-08-17T10:19:18Z</time>
      </trkpt>
      <trkpt lat="44.20119" lon="6.09858">
        <ele>1319</ele>
        <time>2011-08-17T10:21:55Z</time>
      </trkpt>
      <trkpt lat="44.201" lon="6.09846">
        <ele>1322</ele>
        <time>2011-08-17T10:22:53Z</time>
      </trkpt>
      <trkpt lat="44.20034" lon="6.09796">
        <ele>1320</ele>
        <time>2011-08-17T10:23:07Z</time>
      </trkpt>
      <trkpt lat="44.20013" lon="6.09777">
        <ele>1322</ele>
        <time>2011-08-17T10:23:17Z</time>
      </trkpt>
      <trkpt lat="44.19996" lon="6.0975">
        <ele>1332</ele>
        <time>2011-08-17T10:23:33Z</time>
      </trkpt>
      <trkpt lat="44.19991" lon="6.09744">
        <ele>1332</ele>
        <time>2011-08-17T10:23:40Z</time>
      </trkpt>
      <trkpt lat="44.19988" lon="6.09742">
        <ele>1332</ele>
        <time>2011-08-17T10:23:54Z</time>
      </trkpt>
      <trkpt lat="44.19978" lon="6.0974">
        <ele>1332</ele>
        <time>2011-08-17T10:24:13Z</time>
      </trkpt>
      <trkpt lat="44.19969" lon="6.0974">
        <ele>1333</ele>
        <time>2011-08-17T10:24:31Z</time>
      </trkpt>
      <trkpt lat="44.19955" lon="6.09743">
        <ele>1335</ele>
        <time>2011-08-17T10:24:54Z</time>
      </trkpt>
      <trkpt lat="44.19953" lon="6.09743">
        <ele>1335</ele>
        <time>2011-08-17T10:25:09Z</time>
      </trkpt>
      <trkpt lat="44.19932" lon="6.0974">
        <ele>1338</ele>
        <time>2011-08-17T10:25:20Z</time>
      </trkpt>
      <trkpt lat="44.19884" lon="6.0972">
        <ele>1340</ele>
        <time>2011-08-17T10:25:31Z</time>
      </trkpt>
      <trkpt lat="44.19869" lon="6.09713">
        <ele>1340</ele>
        <time>2011-08-17T10:25:34Z</time>
      </trkpt>
      <trkpt lat="44.19813" lon="6.09703">
        <ele>1339</ele>
        <time>2011-08-17T10:25:47Z</time>
      </trkpt>
      <trkpt lat="44.19776" lon="6.09716">
        <ele>1338</ele>
        <time>2011-08-17T10:25:56Z</time>
      </trkpt>
      <trkpt lat="44.1969" lon="6.09737">
        <ele>1334</ele>
        <time>2011-08-17T10:26:11Z</time>
      </trkpt>
      <trkpt lat="44.19617" lon="6.09743">
        <ele>1330</ele>
        <time>2011-08-17T10:26:22Z</time>
      </trkpt>
      <trkpt lat="44.19569" lon="6.09732">
        <ele>1330</ele>
        <time>2011-08-17T10:26:38Z</time>
      </trkpt>
      <trkpt lat="44.19511" lon="6.09735">
        <ele>1332</ele>
        <time>2011-08-17T10:26:57Z</time>
      </trkpt>
      <trkpt lat="44.19502" lon="6.09737">
        <ele>1333</ele>
        <time>2011-08-17T10:26:59Z</time>
      </trkpt>
      <trkpt lat="44.19457" lon="6.09732">
        <ele>1329</ele>
        <time>2011-08-17T10:27:07Z</time>
      </trkpt>
      <trkpt lat="44.1941" lon="6.09707">
        <ele>1325</ele>
        <time>2011-08-17T10:27:19Z</time>
      </trkpt>
      <trkpt lat="44.19375" lon="6.09701">
        <ele>1325</ele>
        <time>2011-08-17T10:27:31Z</time>
      </trkpt>
      <trkpt lat="44.19367" lon="6.09701">
        <ele>1325</ele>
        <time>2011-08-17T10:27:33Z</time>
      </trkpt>
      <trkpt lat="44.19304" lon="6.09717">
        <ele>1321</ele>
        <time>2011-08-17T10:27:44Z</time>
      </trkpt>
      <trkpt lat="44.19276" lon="6.09721">
        <ele>1320</ele>
        <time>2011-08-17T10:27:48Z</time>
      </trkpt>
      <trkpt lat="44.19256" lon="6.09728">
        <ele>1320</ele>
        <time>2011-08-17T10:27:52Z</time>
      </trkpt>
      <trkpt lat="44.19245" lon="6.09731">
        <ele>1317</ele>
        <time>2011-08-17T10:27:54Z</time>
      </trkpt>
      <trkpt lat="44.19223" lon="6.09736">
        <ele>1316</ele>
        <time>2011-08-17T10:27:58Z</time>
      </trkpt>
      <trkpt lat="44.19175" lon="6.09725">
        <ele>1314</ele>
        <time>2011-08-17T10:28:10Z</time>
      </trkpt>
      <trkpt lat="44.19128" lon="6.09722">
        <ele>1310</ele>
        <time>2011-08-17T10:28:23Z</time>
      </trkpt>
      <trkpt lat="44.19026" lon="6.09723">
        <ele>1305</ele>
        <time>2011-08-17T10:28:38Z</time>
      </trkpt>
      <trkpt lat="44.18976" lon="6.09727">
        <ele>1301</ele>
        <time>2011-08-17T10:28:45Z</time>
      </trkpt>
      <trkpt lat="44.18953" lon="6.09734">
        <ele>1301</ele>
        <time>2011-08-17T10:28:49Z</time>
      </trkpt>
      <trkpt lat="44.18934" lon="6.09737">
        <ele>1302</ele>
        <time>2011-08-17T10:28:53Z</time>
      </trkpt>
      <trkpt lat="44.18921" lon="6.09738">
        <ele>1303</ele>
        <time>2011-08-17T10:28:56Z</time>
      </trkpt>
      <trkpt lat="44.18892" lon="6.09747">
        <ele>1295</ele>
        <time>2011-08-17T10:29:02Z</time>
      </trkpt>
      <trkpt lat="44.18881" lon="6.09746">
        <ele>1293</ele>
        <time>2011-08-17T10:29:04Z</time>
      </trkpt>
      <trkpt lat="44.18849" lon="6.09736">
        <ele>1291</ele>
        <time>2011-08-17T10:29:09Z</time>
      </trkpt>
      <trkpt lat="44.188" lon="6.09738">
        <ele>1283</ele>
        <time>2011-08-17T10:29:18Z</time>
      </trkpt>
      <trkpt lat="44.18757" lon="6.09746">
        <ele>1287</ele>
        <time>2011-08-17T10:29:26Z</time>
      </trkpt>
      <trkpt lat="44.18712" lon="6.09738">
        <ele>1288</ele>
        <time>2011-08-17T10:29:38Z</time>
      </trkpt>
      <trkpt lat="44.18683" lon="6.09727">
        <ele>1290</ele>
        <time>2011-08-17T10:29:54Z</time>
      </trkpt>
      <trkpt lat="44.18679" lon="6.09726">
        <ele>1291</ele>
        <time>2011-08-17T10:30:14Z</time>
      </trkpt>
      <trkpt lat="44.18665" lon="6.09718">
        <ele>1295</ele>
        <time>2011-08-17T10:30:29Z</time>
      </trkpt>
      <trkpt lat="44.18651" lon="6.09716">
        <ele>1294</ele>
        <time>2011-08-17T10:30:47Z</time>
      </trkpt>
      <trkpt lat="44.18632" lon="6.09718">
        <ele>1294</ele>
        <time>2011-08-17T10:31:06Z</time>
      </trkpt>
      <trkpt lat="44.18601" lon="6.09729">
        <ele>1297</ele>
        <time>2011-08-17T10:31:17Z</time>
      </trkpt>
      <trkpt lat="44.1856" lon="6.09734">
        <ele>1301</ele>
        <time>2011-08-17T10:31:31Z</time>
      </trkpt>
      <trkpt lat="44.18518" lon="6.09738">
        <ele>1305</ele>
        <time>2011-08-17T10:31:50Z</time>
      </trkpt>
      <trkpt lat="44.18494" lon="6.09726">
        <ele>1313</ele>
        <time>2011-08-17T10:32:09Z</time>
      </trkpt>
      <trkpt lat="44.18492" lon="6.09726">
        <ele>1313</ele>
        <time>2011-08-17T10:32:14Z</time>
      </trkpt>
      <trkpt lat="44.18468" lon="6.0972">
        <ele>1315</ele>
        <time>2011-08-17T10:32:37Z</time>
      </trkpt>
      <trkpt lat="44.18456" lon="6.09721">
        <ele>1316</ele>
        <time>2011-08-17T10:32:52Z</time>
      </trkpt>
      <trkpt lat="44.18443" lon="6.09722">
        <ele>1318</ele>
        <time>2011-08-17T10:33:09Z</time>
      </trkpt>
      <trkpt lat="44.18435" lon="6.09723">
        <ele>1320</ele>
        <time>2011-08-17T10:33:24Z</time>
      </trkpt>
      <trkpt lat="44.18429" lon="6.09732">
        <ele>1323</ele>
        <time>2011-08-17T10:33:43Z</time>
      </trkpt>
      <trkpt lat="44.18425" lon="6.09746">
        <ele>1329</ele>
        <time>2011-08-17T10:34:01Z</time>
      </trkpt>
      <trkpt lat="44.1842" lon="6.09751">
        <ele>1333</ele>
        <time>2011-08-17T10:34:11Z</time>
      </trkpt>
      <trkpt lat="44.18411" lon="6.09742">
        <ele>1336</ele>
        <time>2011-08-17T10:34:28Z</time>
      </trkpt>
      <trkpt lat="44.18398" lon="6.09749">
        <ele>1337</ele>
        <time>2011-08-17T10:34:48Z</time>
      </trkpt>
      <trkpt lat="44.18389" lon="6.0975">
        <ele>1341</ele>
        <time>2011-08-17T10:35:09Z</time>
      </trkpt>
      <trkpt lat="44.18373" lon="6.0975">
        <ele>1341</ele>
        <time>2011-08-17T10:35:30Z</time>
      </trkpt>
      <trkpt lat="44.18366" lon="6.09751">
        <ele>1345</ele>
        <time>2011-08-17T10:35:45Z</time>
      </trkpt>
      <trkpt lat="44.18356" lon="6.09753">
        <ele>1348</ele>
        <time>2011-08-17T10:36:02Z</time>
      </trkpt>
      <trkpt lat="44.18341" lon="6.09759">
        <ele>1351</ele>
        <time>2011-08-17T10:36:24Z</time>
      </trkpt>
      <trkpt lat="44.18333" lon="6.09757">
        <ele>1357</ele>
        <time>2011-08-17T10:36:34Z</time>
      </trkpt>
      <trkpt lat="44.18316" lon="6.09743">
        <ele>1356</ele>
        <time>2011-08-17T10:36:54Z</time>
      </trkpt>
      <trkpt lat="44.18305" lon="6.09736">
        <ele>1355</ele>
        <time>2011-08-17T10:37:07Z</time>
      </trkpt>
      <trkpt lat="44.18291" lon="6.09729">
        <ele>1355</ele>
        <time>2011-08-17T10:37:22Z</time>
      </trkpt>
      <trkpt lat="44.18251" lon="6.09711">
        <ele>1355</ele>
        <time>2011-08-17T10:37:45Z</time>
      </trkpt>
      <trkpt lat="44.18221" lon="6.09702">
        <ele>1357</ele>
        <time>2011-08-17T10:38:04Z</time>
      </trkpt>
      <trkpt lat="44.18183" lon="6.09686">
        <ele>1358</ele>
        <time>2011-08-17T10:38:27Z</time>
      </trkpt>
      <trkpt lat="44.18155" lon="6.09665">
        <ele>1356</ele>
        <time>2011-08-17T10:38:43Z</time>
      </trkpt>
      <trkpt lat="44.18115" lon="6.09631">
        <ele>1353</ele>
        <time>2011-08-17T10:38:58Z</time>
      </trkpt>
      <trkpt lat="44.18077" lon="6.09609">
        <ele>1365</ele>
        <time>2011-08-17T10:39:20Z</time>
      </trkpt>
      <trkpt lat="44.18058" lon="6.09594">
        <ele>1367</ele>
        <time>2011-08-17T10:39:39Z</time>
      </trkpt>
      <trkpt lat="44.18047" lon="6.09585">
        <ele>1370</ele>
        <time>2011-08-17T10:39:56Z</time>
      </trkpt>
      <trkpt lat="44.18034" lon="6.09577">
        <ele>1373</ele>
        <time>2011-08-17T10:40:16Z</time>
      </trkpt>
      <trkpt lat="44.18017" lon="6.09566">
        <ele>1377</ele>
        <time>2011-08-17T10:40:39Z</time>
      </trkpt>
      <trkpt lat="44.17993" lon="6.09553">
        <ele>1394</ele>
        <time>2011-08-17T10:41:08Z</time>
      </trkpt>
      <trkpt lat="44.17981" lon="6.09552">
        <ele>1394</ele>
        <time>2011-08-17T10:41:28Z</time>
      </trkpt>
      <trkpt lat="44.1798" lon="6.09551">
        <ele>1394</ele>
        <time>2011-08-17T10:41:29Z</time>
      </trkpt>
      <trkpt lat="44.17971" lon="6.09551">
        <ele>1395</ele>
        <time>2011-08-17T10:41:46Z</time>
      </trkpt>
      <trkpt lat="44.17961" lon="6.09546">
        <ele>1395</ele>
        <time>2011-08-17T10:41:57Z</time>
      </trkpt>
      <trkpt lat="44.17947" lon="6.09533">
        <ele>1396</ele>
        <time>2011-08-17T10:42:13Z</time>
      </trkpt>
      <trkpt lat="44.17933" lon="6.09507">
        <ele>1399</ele>
        <time>2011-08-17T10:42:33Z</time>
      </trkpt>
      <trkpt lat="44.17926" lon="6.09494">
        <ele>1400</ele>
        <time>2011-08-17T10:42:48Z</time>
      </trkpt>
      <trkpt lat="44.17891" lon="6.09459">
        <ele>1397</ele>
        <time>2011-08-17T10:42:57Z</time>
      </trkpt>
      <trkpt lat="44.17843" lon="6.09415">
        <ele>1397</ele>
        <time>2011-08-17T10:43:08Z</time>
      </trkpt>
      <trkpt lat="44.17812" lon="6.09392">
        <ele>1399</ele>
        <time>2011-08-17T10:43:27Z</time>
      </trkpt>
      <trkpt lat="44.17787" lon="6.09361">
        <ele>1400</ele>
        <time>2011-08-17T10:43:47Z</time>
      </trkpt>
      <trkpt lat="44.17764" lon="6.09345">
        <ele>1403</ele>
        <time>2011-08-17T10:44:04Z</time>
      </trkpt>
      <trkpt lat="44.17744" lon="6.09333">
        <ele>1407</ele>
        <time>2011-08-17T10:44:16Z</time>
      </trkpt>
      <trkpt lat="44.1773" lon="6.0932">
        <ele>1402</ele>
        <time>2011-08-17T10:44:20Z</time>
      </trkpt>
      <trkpt lat="44.17714" lon="6.09306">
        <ele>1400</ele>
        <time>2011-08-17T10:44:24Z</time>
      </trkpt>
      <trkpt lat="44.17703" lon="6.09301">
        <ele>1399</ele>
        <time>2011-08-17T10:44:26Z</time>
      </trkpt>
      <trkpt lat="44.17628" lon="6.09258">
        <ele>1401</ele>
        <time>2011-08-17T10:44:39Z</time>
      </trkpt>
      <trkpt lat="44.17601" lon="6.09251">
        <ele>1404</ele>
        <time>2011-08-17T10:44:52Z</time>
      </trkpt>
      <trkpt lat="44.17593" lon="6.09249">
        <ele>1402</ele>
        <time>2011-08-17T10:44:57Z</time>
      </trkpt>
      <trkpt lat="44.17576" lon="6.09244">
        <ele>1409</ele>
        <time>2011-08-17T10:45:13Z</time>
      </trkpt>
      <trkpt lat="44.17569" lon="6.09242">
        <ele>1409</ele>
        <time>2011-08-17T10:45:26Z</time>
      </trkpt>
      <trkpt lat="44.17546" lon="6.09241">
        <ele>1412</ele>
        <time>2011-08-17T10:45:48Z</time>
      </trkpt>
      <trkpt lat="44.17532" lon="6.09238">
        <ele>1414</ele>
        <time>2011-08-17T10:46:06Z</time>
      </trkpt>
      <trkpt lat="44.17529" lon="6.09237">
        <ele>1415</ele>
        <time>2011-08-17T10:46:20Z</time>
      </trkpt>
      <trkpt lat="44.17517" lon="6.09233">
        <ele>1417</ele>
        <time>2011-08-17T10:46:34Z</time>
      </trkpt>
      <trkpt lat="44.17515" lon="6.09233">
        <ele>1417</ele>
        <time>2011-08-17T10:46:40Z</time>
      </trkpt>
      <trkpt lat="44.17501" lon="6.09212">
        <ele>1416</ele>
        <time>2011-08-17T10:46:59Z</time>
      </trkpt>
      <trkpt lat="44.1749" lon="6.092">
        <ele>1423</ele>
        <time>2011-08-17T10:47:16Z</time>
      </trkpt>
      <trkpt lat="44.17483" lon="6.09182">
        <ele>1424</ele>
        <time>2011-08-17T10:47:30Z</time>
      </trkpt>
      <trkpt lat="44.17475" lon="6.09172">
        <ele>1424</ele>
        <time>2011-08-17T10:47:45Z</time>
      </trkpt>
      <trkpt lat="44.17469" lon="6.09163">
        <ele>1421</ele>
        <time>2011-08-17T10:47:56Z</time>
      </trkpt>
      <trkpt lat="44.17465" lon="6.0916">
        <ele>1421</ele>
        <time>2011-08-17T10:48:05Z</time>
      </trkpt>
      <trkpt lat="44.17446" lon="6.09159">
        <ele>1422</ele>
        <time>2011-08-17T10:48:14Z</time>
      </trkpt>
      <trkpt lat="44.17434" lon="6.09151">
        <ele>1423</ele>
        <time>2011-08-17T10:48:19Z</time>
      </trkpt>
      <trkpt lat="44.17427" lon="6.09146">
        <ele>1423</ele>
        <time>2011-08-17T10:48:23Z</time>
      </trkpt>
      <trkpt lat="44.17423" lon="6.09144">
        <ele>1423</ele>
        <time>2011-08-17T10:48:25Z</time>
      </trkpt>
      <trkpt lat="44.17418" lon="6.09137">
        <ele>1422</ele>
        <time>2011-08-17T10:48:29Z</time>
      </trkpt>
      <trkpt lat="44.17397" lon="6.0912">
        <ele>1416</ele>
        <time>2011-08-17T10:48:38Z</time>
      </trkpt>
      <trkpt lat="44.17393" lon="6.09118">
        <ele>1416</ele>
        <time>2011-08-17T10:48:39Z</time>
      </trkpt>
      <trkpt lat="44.17387" lon="6.09115">
        <ele>1415</ele>
        <time>2011-08-17T10:48:41Z</time>
      </trkpt>
      <trkpt lat="44.17359" lon="6.09064">
        <ele>1405</ele>
        <time>2011-08-17T10:48:53Z</time>
      </trkpt>
      <trkpt lat="44.17333" lon="6.0904">
        <ele>1396</ele>
        <time>2011-08-17T10:49:00Z</time>
      </trkpt>
      <trkpt lat="44.17306" lon="6.08997">
        <ele>1393</ele>
        <time>2011-08-17T10:49:07Z</time>
      </trkpt>
      <trkpt lat="44.17301" lon="6.08963">
        <ele>1391</ele>
        <time>2011-08-17T10:49:12Z</time>
      </trkpt>
      <trkpt lat="44.17288" lon="6.08934">
        <ele>1391</ele>
        <time>2011-08-17T10:49:17Z</time>
      </trkpt>
      <trkpt lat="44.17266" lon="6.089">
        <ele>1390</ele>
        <time>2011-08-17T10:49:30Z</time>
      </trkpt>
      <trkpt lat="44.17264" lon="6.08894">
        <ele>1389</ele>
        <time>2011-08-17T10:49:33Z</time>
      </trkpt>
      <trkpt lat="44.17236" lon="6.08874">
        <ele>1392</ele>
        <time>2011-08-17T10:49:41Z</time>
      </trkpt>
      <trkpt lat="44.17224" lon="6.08864">
        <ele>1391</ele>
        <time>2011-08-17T10:49:56Z</time>
      </trkpt>
      <trkpt lat="44.17218" lon="6.0886">
        <ele>1391</ele>
        <time>2011-08-17T10:51:08Z</time>
      </trkpt>
      <trkpt lat="44.17181" lon="6.08822">
        <ele>1391</ele>
        <time>2011-08-17T10:51:20Z</time>
      </trkpt>
      <trkpt lat="44.17168" lon="6.08807">
        <ele>1391</ele>
        <time>2011-08-17T10:51:23Z</time>
      </trkpt>
      <trkpt lat="44.17158" lon="6.08791">
        <ele>1387</ele>
        <time>2011-08-17T10:51:26Z</time>
      </trkpt>
      <trkpt lat="44.17144" lon="6.08756">
        <ele>1388</ele>
        <time>2011-08-17T10:51:36Z</time>
      </trkpt>
      <trkpt lat="44.17108" lon="6.08731">
        <ele>1382</ele>
        <time>2011-08-17T10:51:48Z</time>
      </trkpt>
      <trkpt lat="44.17071" lon="6.08712">
        <ele>1384</ele>
        <time>2011-08-17T10:52:01Z</time>
      </trkpt>
      <trkpt lat="44.17053" lon="6.08704">
        <ele>1384</ele>
        <time>2011-08-17T10:52:15Z</time>
      </trkpt>
      <trkpt lat="44.17035" lon="6.08696">
        <ele>1385</ele>
        <time>2011-08-17T10:52:34Z</time>
      </trkpt>
      <trkpt lat="44.1701" lon="6.0869">
        <ele>1387</ele>
        <time>2011-08-17T10:52:57Z</time>
      </trkpt>
      <trkpt lat="44.16998" lon="6.08688">
        <ele>1390</ele>
        <time>2011-08-17T10:53:11Z</time>
      </trkpt>
      <trkpt lat="44.16983" lon="6.08684">
        <ele>1390</ele>
        <time>2011-08-17T10:53:25Z</time>
      </trkpt>
      <trkpt lat="44.16959" lon="6.08671">
        <ele>1390</ele>
        <time>2011-08-17T10:53:45Z</time>
      </trkpt>
      <trkpt lat="44.16954" lon="6.08669">
        <ele>1390</ele>
        <time>2011-08-17T10:53:54Z</time>
      </trkpt>
      <trkpt lat="44.16922" lon="6.0864">
        <ele>1390</ele>
        <time>2011-08-17T10:54:10Z</time>
      </trkpt>
      <trkpt lat="44.16881" lon="6.08586">
        <ele>1390</ele>
        <time>2011-08-17T10:54:24Z</time>
      </trkpt>
      <trkpt lat="44.16876" lon="6.08581">
        <ele>1391</ele>
        <time>2011-08-17T10:54:31Z</time>
      </trkpt>
      <trkpt lat="44.16867" lon="6.08572">
        <ele>1392</ele>
        <time>2011-08-17T10:54:48Z</time>
      </trkpt>
      <trkpt lat="44.16848" lon="6.08552">
        <ele>1393</ele>
        <time>2011-08-17T10:55:12Z</time>
      </trkpt>
      <trkpt lat="44.16833" lon="6.08537">
        <ele>1394</ele>
        <time>2011-08-17T10:55:30Z</time>
      </trkpt>
      <trkpt lat="44.16831" lon="6.08534">
        <ele>1403</ele>
        <time>2011-08-17T10:55:45Z</time>
      </trkpt>
      <trkpt lat="44.16817" lon="6.08524">
        <ele>1404</ele>
        <time>2011-08-17T10:56:02Z</time>
      </trkpt>
      <trkpt lat="44.16799" lon="6.08512">
        <ele>1405</ele>
        <time>2011-08-17T10:56:28Z</time>
      </trkpt>
      <trkpt lat="44.16774" lon="6.08499">
        <ele>1408</ele>
        <time>2011-08-17T10:56:53Z</time>
      </trkpt>
      <trkpt lat="44.16752" lon="6.08492">
        <ele>1412</ele>
        <time>2011-08-17T10:57:16Z</time>
      </trkpt>
      <trkpt lat="44.16732" lon="6.08485">
        <ele>1414</ele>
        <time>2011-08-17T10:57:37Z</time>
      </trkpt>
      <trkpt lat="44.16712" lon="6.08481">
        <ele>1414</ele>
        <time>2011-08-17T10:57:57Z</time>
      </trkpt>
      <trkpt lat="44.16687" lon="6.08476">
        <ele>1416</ele>
        <time>2011-08-17T10:58:22Z</time>
      </trkpt>
      <trkpt lat="44.16678" lon="6.08473">
        <ele>1416</ele>
        <time>2011-08-17T10:58:40Z</time>
      </trkpt>
    </trkseg>
  </trk>
</gpx>